Aviation Digital Data Service (ADDS)

Output produced by METARs form (0703 UTC 21 October 2014)
found at http://aviationweather.gov/adds/metars/
 
K04V 210653Z AUTO 33008KT 10SM SCT065 05/01 A3027 RMK AO2
K04W 210703Z AUTO 00000KT 10SM SCT029 01/01 A3013 RMK AO2
K06D 210655Z AUTO 16011KT 10SM CLR 06/05 A2996 RMK AO2
K08D 210655Z AUTO 15005KT 10SM CLR 09/04 A2985 RMK AO2
K0A9 210655Z AUTO 00000KT 10SM OVC040 11/09 A3000 RMK
K0CO 210650Z AUTO 27010KT 10SM CLR 00/M01 A3045 RMK AO2
K0E0 210655Z AUTO 00000KT 10SM SCT009 OVC055 07/06 A3023 RMK AO2 T00700056
K0F2 210655Z AUTO 16003KT 10SM CLR 16/15 A3006 RMK AO2 T01620148
K0J4 210658Z AUTO VRB04KT 10SM CLR 15/11 A3002 RMK AO2 SLP162 T01500106 $
K0V4 210655Z AUTO 22003KT 10SM SCT065 SCT080 10/10 A2992 RMK AO1 T01030099
K0VG 210655Z AUTO 00000KT 10SM FEW032 BKN100 07/07 A3001 RMK AO2
K11R 210655Z AUTO 00000KT 10SM CLR 18/16 A3003 RMK AO2 T01760161
K12N 210654Z AUTO 00000KT 11/07 A2991 RMK AO1 SLP130 T01060067
K14Y 210702Z AUTO 00000KT 10SM CLR 02/02 A3012 RMK AO2
K19A 210655Z AUTO 00000KT 7SM CLR 12/12 A3000 RMK AO2
K1A5 210655Z AUTO 00000KT 1/4SM FG 06/06 A3005 RMK AO2 T00580056
K1A6 210655Z AUTO 00000KT 7SM SCT033 BKN039 OVC050 09/08 A2999 RMK AO2 T00850083
K1A9 210655Z AUTO 00000KT 7SM CLR 10/09 A3001 RMK AO2 T00950093
K1F0 210655Z AUTO 00000KT 7SM CLR 15/15 A3005 RMK AO2
K1H2 210655Z AUTO 00000KT 10SM CLR 07/05 A3001 RMK AO2 T00690053
K1II 210655Z AUTO 00000KT 10SM CLR 10/07 A2997 RMK AO2
K1L0 210655Z AUTO 00000KT 10SM CLR 15/14 A3001 RMK AO2 T01500137
K1M4 210656Z AUTO 00000KT 8SM CLR 08/08 A3005 RMK AO2 T00770077 SLP188
K1P1 210655Z AUTO 00000KT 10SM OVC085 05/05 A2999 RMK AO2 T00450045
K1R7 210655Z AUTO 00000KT 10SM CLR 11/11 A3005 RMK AO2
K1V4 210654Z AUTO 04/02 A2995 RMK AO1 SLP145 T00390017
K1V6 210650Z AUTO 27007KT 10SM CLR 10/03 A3011 RMK AO2
K1YT 210656Z AUTO 10002KT 10SM BKN220 08/07 A2983 RMK AO2 SLPNO T00810069
K20U 210655Z AUTO 14008KT 10SM 08/05 A2981 RMK AO2
K20V 210655Z AUTO 00000KT 10SM CLR 02/M01 RMK AO2
K21D 210651Z AUTO 00000KT 10SM CLR 01/01 A3012 RMK AO2
K24J 210655Z AUTO 00000KT 2 1/2SM CLR 17/17 A2999 RMK AO1
K2C8 210655Z AUTO 18007KT 10SM CLR 05/03 A3004 RMK AO2
K2D5 210655Z AUTO 13005KT 10SM 04/03 A3002 RMK AO2
K2DP 210656Z AUTO 21005KT 10SM -RA BKN033 17/16 A2996 RMK AO2 SLPNO P0001 T01670158
K2G4 210645Z AUTO 25007KT 10SM OVC007 07/ A2987 RMK AO1
K2I0 210655Z AUTO 00000KT 10SM CLR 11/09 A3001 RMK AO2 T01140093
K2J9 210635Z AUTO 00000KT 6SM OVC040 15/14 A3000 RMK AO1
K2V5 210655Z AUTO 20005KT 10SM CLR 12/04 A3008 RMK AO2 T01240042
K2W6 210646Z AUTO 00000KT 10SM BKN060 OVC085 12/08 A2992 RMK AO1
K2WX 210556Z AUTO 14004KT 13/05 A2978 RMK AO1 SLP071 T01330050 10194 20122 58014
K33V 210655Z AUTO 11005KT 10SM CLR 01/M01 A3020 RMK AO2
K36U 210655Z AUTO 00000KT 10SM SCT095 BKN120 08/03 A3001 RMK AO2
K3I2 210655Z AUTO 21003KT 10SM BKN033 BKN049 OVC090 12/11 A2992 RMK AO2
K3J7 210655Z AUTO 00000KT 10SM CLR 12/12 A2996 RMK AO2
K3K3 210655Z AUTO 12005KT 10SM CLR 11/07 A3009 RMK AO2
K3LF 210655Z AUTO 29003KT 10SM CLR 09/05 A3001 RMK AO2 T00890053
K3N8 210655Z AUTO 15005KT 10SM CLR 05/03 A3009 RMK AO2 T00450029
K3R7 210655Z AUTO 00000KT 10SM CLR 15/13 A3002 RMK AO2 T01460125
K3T5 210655Z AUTO 00000KT 10SM CLR 17/16 A3000 RMK AO2 T01670160
K40B 210616Z AUTO 00000KT M01/M02 A2997 RMK AO1 SLP166 T10121017 10019 21020 53011 P0000 60002
K40J 210655Z AUTO 00000KT 7SM CLR 17/16 A2998 RMK AO2
K42J 210655Z AUTO 00000KT 10SM 18/18 A2997 RMK AO1 TSNO
K46D 210655Z AUTO 14011KT 10SM CLR 05/05 A2998 RMK AO2
K4A6 210655Z AUTO 00000KT 10SM FEW038 09/08 A3004 RMK AO2
K4A9 210655Z AUTO 00000KT 7SM CLR 07/06 A3002 RMK AO2
K4I3 210655Z AUTO 29006KT 5SM BR OVC011 10/10 A2987 RMK AO2
K4I7 210655Z AUTO 00000KT 10SM BKN065 09/07 A2999 RMK AO2
K4M9 210655Z AUTO 35005KT 9SM CLR 13/13 A3005 RMK AO2
K4MR 210656Z AUTO 21005KT 10SM FEW190 13/11 A3016 RMK AO2 SLP168 T01270112 402370088
K4O4 210655Z AUTO 00000KT 4SM CLR 14/13 A3005 RMK AO2
K54J 210655Z AUTO 36003KT 10SM CLR 13/11 A3000 RMK AO2 T01310112
K5C1 210655Z AUTO 00000KT 10SM CLR 13/11 A3006 RMK AO1
K5H4 210655Z AUTO 14009KT 10SM CLR 09/03 A2993 RMK AO2
K5M9 210655Z AUTO 00000KT 10SM CLR 11/08 A3001 RMK AO2 T01080077
K5R8 210655Z AUTO 00000KT 10SM CLR 13/12 A3003 RMK AO2 T01260119
K5SM 210657Z AUTO 00000KT 10SM SCT060 SCT075 05/00 A3036 RMK AO2
K5W8 210655Z AUTO 00000KT 10SM BKN110 11/11 A2995 RMK AO2 T01100107
K65S 210655Z AUTO 14005KT 10SM FEW055 OVC070 12/07 A2975 RMK AO2
K66R 210655Z AUTO 00000KT 10SM CLR 15/14 A3001 RMK AO2 T01500142
K6A2 210655Z AUTO 30003KT 10SM CLR 12/10 A3001 RMK AO2
K6B0 210655Z AUTO 00000KT 10SM -RA BKN060 BKN070 OVC080 08/05 A2992 RMK AO2 T00840049
K6L4 210655Z AUTO 23005KT 10SM FEW050 BKN085 BKN120 11/09 A2993 RMK AO2
K6R3 210535Z AUTO 00000KT 7SM CLR 14/13 A3004 RMK AO2 T01350132
K6R6 210653Z AUTO 03006KT 19/17 A3002 RMK AO1 SLP140 T01890167
K79J 210656Z AUTO 00000KT 10SM CLR 15/10 A3001 RMK AO2 SLP157 T01500100
K7BM 210654Z AUTO 00000KT 10SM SCT060 08/00 A3033 RMK AO2
K7L2 210655Z AUTO 14016G22KT 10SM CLR 11/02 A2990 RMK AO2 PWINO PNO
K7W4 210655Z AUTO 00000KT 10SM BKN110 11/08 A2990 RMK AO1 T01110080
K82V 210655Z AUTO 19008KT 10SM CLR 10/03 A3004 RMK AO2
K8A0 210655Z AUTO 00000KT 10SM CLR 10/10 A3002 RMK AO2
K8D3 210656Z AUTO 14003KT 02/01 A3005 RMK AO1 SLP176 T00220011
K8S0 210645Z 24005KT
K8W2 210655Z AUTO 00000KT 10SM CLR 10/09 A2989 RMK AO1 T01000087
K96D 210655Z AUTO 16011KT 10SM CLR 07/05 A3003 RMK AO2
K9D7 210635Z AUTO 14011KT 10SM CLR 07/05 A2997 RMK AO2
K9L2 210655Z AUTO 28011KT 10SM CLR 18/08 A2993 RMK AO2 SLP122 T01780078 TSNO $
K9MN 210653Z AUTO 00000KT 10SM CLR 06/03 A3011 RMK AO1 T00640027
K9V9 210655Z AUTO 12009KT 10SM CLR 10/02 A2997 RMK AO2 T00950015
KAAA 210655Z AUTO 01003KT 10SM CLR 09/06 A3001 RMK AO2 T00850061
KAAF 210653Z AUTO 00000KT 10SM CLR 19/16 A2996 RMK AO2 SLP146 T01890161 TSNO
KAAO 210654Z AUTO 00000KT 10SM CLR 12/08 A3008 RMK AO2 SLP179 T01220078
KAAT 210655Z AUTO 16004KT 10SM OVC060 04/03 A2998 RMK AO2 RAB17E46 SLP132 P0000 T00440033 $
KABE 210651Z AUTO 31003KT 7SM -RA BKN070 OVC080 11/09 A2991 RMK AO2 RAE10B38 SLP130 P0000 T01060089 TSNO
KABH 210656Z AUTO 15009KT 10SM CLR 09/06 A3014 RMK AO2 SLP156 T00940061 $
KABI 210652Z 17005KT 10SM CLR 17/12 A3007 RMK AO2 SLP164 T01720122
KABQ 210652Z COR 12005KT 10SM FEW090 12/08 A3018 RMK AO2 SLP165 T01220083 402280083
KABR 210653Z AUTO 12005KT 10SM CLR 06/03 A3001 RMK AO2 SLP162 T00610028
KABY 210653Z 00000KT 10SM SCT045 14/13 A3001 RMK AO2 SLP161 T01440133 $
KACB 210658Z AUTO 01005KT 10SM BKN014 OVC019 08/07 A2997 RMK AO2 T00800066
KACJ 210655Z AUTO 00000KT 10SM CLR 11/11 A3002 RMK AO2
KACK 210653Z AUTO 16005KT 10SM -RA SCT042 OVC050 14/11 A3002 RMK AO2 RAB41 SLP165 P0000 T01440111 $
KACP 210655Z AUTO 00000KT 10SM CLR 11/10 A3003 RMK AO2 T01070100
KACQ 210654Z AUTO 07004KT 10SM CLR 05/01 A3011 RMK AO2
KACT 210651Z 00000KT 8SM CLR 15/14 A3004 RMK AO2 SLP168 T01500144 $
KACV 210653Z AUTO 13004KT 10SM FEW029 BKN043 BKN060 12/09 A3003 RMK AO2 SLP172 T01220094
KACY 210654Z 00000KT 10SM CLR 09/06 A2993 RMK AO2 SLP134 T00890061
KADC 210653Z AUTO 09004KT 10SM CLR 03/02 A3011 RMK AO2
KADF 210656Z AUTO 00000KT 7SM FEW002 13/13 A3006 RMK AO2 T01330133 SLP193 $
KADG 210653Z AUTO 01004KT 10SM SCT031 BKN042 OVC049 09/07 A2991 RMK AO2 SLP133 T00940067
KADH 210655Z AUTO 20004KT 10SM CLR 17/16 A3006 RMK AO2
KADM 210655Z AUTO 00000KT 1SM BR VV007 15/15 A3005 RMK AO2 T01500150
KADS 210655Z AUTO 16004KT 10SM CLR 18/15 A3006 RMK AO2 T01820150
KADU 210655Z AUTO 00000KT 10SM CLR 03/01 A3009 RMK AO2
KADW 210658Z AUTO 19008KT 10SM SCT075 SCT130 14/09 A2988 RMK AO2 SLP124 T01370090 $
KAEG 210655Z AUTO 00000KT 10SM SCT120 10/08 A3020 RMK AO2 T00960081 402160045
KAEJ 210655Z AUTO 31003KT 10SM SCT075 02/00 A3026 RMK AO2 T00240000
KAEL 210655Z AUTO 00000KT 10SM CLR 04/03 A3009 RMK AO2
KAEX 210653Z AUTO 00000KT 9SM CLR 13/13 A3001 RMK AO2 SLP167 T01330128
KAFF 210658Z AUTO 35007KT 10SM CLR 04/02 A3017 RMK AO2 SLP166 T00440019 402000017
KAFJ 210655Z AUTO 23005KT 10SM OVC018 10/08 A2987 RMK AO1
KAFK 210655Z AUTO 00000KT 10SM CLR 11/02 A3008 RMK AO2 T01080019
KAFN 210652Z AUTO 00000KT 10SM -RA BKN070 OVC080 06/04 A2998 RMK AO2 RAB39 SLP160 P0000 T00610039
KAFO 210655Z AUTO 00000KT 10SM CLR 03/00 A3000 RMK AO2
KAFP 210655Z AUTO 00000KT 10SM OVC090 11/10 A2995 RMK AO2 T01100095
KAFW 210653Z 18004KT 10SM CLR 17/14 A3004 RMK AO2 SLP162 T01720144
KAGC 210653Z 21005KT 5SM -RA BR FEW022 BKN049 OVC070 09/07 A2984 RMK AO2 RAB10 SLP111 P0001 T00940072
KAGS 210653Z AUTO 00000KT 10SM CLR 10/09 A2998 RMK AO2 SLP152 T01000089
KAHN 210651Z AUTO 00000KT 10SM CLR 12/11 A2999 RMK AO2 SLP153 T01170106
KAHQ 210655Z AUTO 00000KT 10SM CLR 05/02 A3007 RMK AO2 T00510022
KAIA 210653Z AUTO 16009KT 10SM CLR 08/04 A3000 RMK AO2 SLP132 T00830044 402501022
KAIB 210655Z AUTO 12008KT 10SM CLR 11/02 A3016 RMK AO2
KAIG 210655Z AUTO 02008KT 10SM OVC019 04/02 A3008 RMK AO2 T00410022
KAIK 210715Z AUTO 00000KT 10SM CLR 10/10 A3001 RMK AO2 PNO
KAIO 210655Z AUTO 36003KT 10SM CLR 04/03 A3007 RMK AO2
KAIT 210654Z AUTO 00000KT 7SM CLR M01/M03 A3012 RMK AO2
KAIZ 210655Z AUTO 00000KT 10SM CLR 07/06 A3008 RMK AO1
KAJG 210655Z AUTO 00000KT 10SM CLR 08/07 A3000 RMK AO2
KAJL 210655Z AUTO 22007KT 10SM BKN050 05/M02 A3018 RMK AO2 T00461023
KAJO 210656Z AUTO 00000KT 10SM CLR 14/13 A2992 RMK AO2 T01440127 SLP127 $
KAJZ 210655Z AUTO 00000KT 10SM BKN100 OVC120 14/06 A3010 RMK AO2 T01370057
KAKH 210654Z AUTO 00000KT 10SM CLR 11/09 A2996 RMK AO2 SLP142 T01110094
KAKO 210653Z AUTO 18014KT 10SM CLR 13/06 A3006 RMK AO2 SLP133 T01280056 402500061
KAKQ 210654Z AUTO 18003KT 10SM -RA OVC085 14/12 A2993 RMK AO2 RAB36 SLPNO P0000 T01390117 TSNO
KAKR 210654Z AUTO 25004KT 3SM BR FEW006 BKN013 OVC020 12/10 A2983 RMK AO2 SLP101 T01170100
KALB 210651Z 18003KT 10SM -RA BKN060 OVC075 09/06 A2992 RMK AO2 SLP133 VIS LWR NW-N P0001 T00940061
KALI 210653Z AUTO 05006KT 5SM BR CLR 21/20 A2996 RMK AO2 SLP142 T02110200
KALK 210656Z AUTO 01004KT 10SM CLR 12/07 A3008 RMK AO2 SLP110 T01220067 402390094 TSNO
KALN 210655Z AUTO 00000KT 10SM CLR 09/07 A3002 RMK AO2 T00930068
KALO 210654Z 00000KT 10SM CLR 03/02 A3007 RMK AO2 SLP186 T00330017
KALS 210652Z AUTO 13003KT 10SM CLR 04/01 A3024 RMK AO2 SLP180 T00390006 402001006
KALW 210653Z AUTO 16007KT 10SM FEW075 OVC095 13/09 A2985 RMK AO2 RAE20 SLP106 P0001 T01280089
KALX 210655Z AUTO 00000KT 10SM CLR 11/10 A3002 RMK AO2 T01060095
KAMA 210653Z AUTO 19008KT 10SM CLR 14/11 A3012 RMK AO2 SLP159 T01440111
KAMG 210653Z AUTO 00000KT 9SM CLR 16/15 A2997 RMK AO2 SLP145 T01610150
KAMN 210653Z AUTO 33006KT 10SM OVC016 09/06 A2993 RMK AO2 T00850060
KAMW 210653Z AUTO 33003KT 10SM CLR 04/03 A3007 RMK AO2 SLP181 T00440028
KANB 210653Z AUTO 00000KT 2 1/2SM BR CLR 09/08 A3003 RMK AO2 SLP168 T00940083
KAND 210656Z AUTO 00000KT 10SM CLR 11/09 A2998 RMK AO2 SLP146 T01060094
KANE 210654Z AUTO 00000KT 10SM CLR 03/03 A3011 RMK AO2
KANJ 210655Z AUTO VRB04KT 10SM OVC024 06/02 A3000 RMK AO2 SLP162 T00610017
KANK 210655Z AUTO 28005KT 10SM CLR 08/01 A3031 RMK AO1 T00750013
KANQ 210655Z AUTO 33005KT 10SM OVC050 08/06 A2993 RMK
KANW 210655Z AUTO 18010KT 10SM CLR 13/05 A3000 RMK AO2 T01270045
KAOH 210653Z AUTO 28006KT 10SM BKN055 OVC070 11/08 A2990 RMK AO2 SLP126 T01060083
KAOO 210653Z AUTO 22003KT 10SM BKN046 OVC100 11/06 A2986 RMK AO2 SLP112 T01060061
KAPA 210653Z 16010KT 10SM CLR 12/03 A3009 RMK AO2 SLP136 T01220033 402280067
KAPC 210654Z AUTO 00000KT 10SM CLR 13/12 A3006 RMK AO2 SLP171 T01280117
KAPF 210653Z 11006KT 10SM SCT100 24/22 A2991 RMK AO2 SLP127 T02440217
KAPN 210654Z AUTO 01011KT 10SM OVC021 07/05 A2994 RMK AO2 SLP140 T00720050
KAPY 210655Z AUTO 11003KT 10SM SCT012 SCT080 22/20 A2996 RMK AO2 T02200206
KAQO 210655Z AUTO 00000KT 10SM CLR 15/14 A3009 RMK AO2
KAQP 210654Z AUTO 11007KT 10SM CLR 04/03 A3008 RMK AO2
KAQR 210655Z AUTO 00000KT 7SM CLR 16/16 A3006 RMK AO2
KAQV 210656Z AUTO 00000KT 10SM CLR 13/12 A3001 RMK AO2 SLP162 T01330122
KAQW 210652Z AUTO 10006KT 10SM BKN070 OVC090 08/04 A2994 RMK AO2 RAB19E32 SLP142 P0000 T00830039
KARA 210653Z AUTO 05006KT 10SM CLR 17/13 A3002 RMK AO2 SLP164 T01670128
KARB 210653Z AUTO 34008KT 10SM SCT024 OVC055 09/06 A2989 RMK AO2 SLP123 T00940056
KARG 210655Z AUTO 32004KT 9SM CLR 13/11 A3004 RMK AO1
KARM 210655Z AUTO 04003KT 10SM CLR 17/16 A3001 RMK AO2 T01680155
KARR 210652Z AUTO 35004KT 10SM OVC046 09/05 A3003 RMK AO2 SLP168 T00940050
KART 210656Z AUTO 17005KT 10SM OVC027 11/06 A2983 RMK AO2 RAE05 SLP102 P0000 T01060061
KARV 210655Z AUTO 03007KT 360V060 10SM OVC015 05/03 A3011 RMK AO2 T00530029
KARW 210655Z AUTO 23008KT 7SM -VCTSRA BKN030 BKN035 OVC044 18/18 A2996 RMK AO2 LTG DSNT S
KASD 210653Z AUTO 00000KT 10SM CLR 11/09 A3001 RMK AO2 SLP162 T01110094
KASE 210653Z AUTO 21005KT 10SM CLR 04/00 A3020 RMK AO2 SLP138 T00440000
KASG 210148Z 00000KT 4SM BR SKC 14/13 A3009 RMK LAST
KASH 210651Z AUTO 00000KT 10SM CLR 08/06 A3000 RMK AO2 T00830055 SLP409 $
KASJ 210655Z AUTO 00000KT 10SM CLR 13/12 A2994 RMK AO2 T01280117
KASL 210655Z AUTO 00000KT 7SM CLR 14/13 A3006 RMK AO1 T01390126
KASN 210655Z AUTO 00000KT 10SM CLR 11/10 A3004 RMK AO2 T01060099
KAST 210655Z AUTO 16004KT 4SM RA BR FEW020 BKN045 OVC050 13/11 A2980 RMK AO2 RAB03 SLP090 P0006 T01280111
KASW 210655Z AUTO 32005KT 10SM OVC055 09/06 A2996 RMK AO2
KASX 210653Z AUTO 06008KT 10SM OVC018 07/03 A3017 RMK AO2 SLP222 T00670033
KATL 210652Z 31005KT 10SM CLR 14/10 A3000 RMK AO2 SLP156 T01390100
KATP 210655Z AUTO 10013KT 8SM BKN029 BKN041 OVC090 26/20 A2994 RMK A01
KATT 210651Z AUTO 00000KT 9SM CLR 18/15 A3004 RMK AO2 SLP164 T01830150
KATW 210655Z AUTO 36011KT 10SM SCT024 OVC048 06/02 A3006 RMK AO2
KATY 210653Z AUTO 12004KT 10SM CLR 07/02 A3005 RMK AO2 SLP176 T00720022
KAUG 210653Z AUTO 00000KT 10SM OVC065 06/03 A3001 RMK AO2 RAB13E23 SLP164 P0000 T00610028
KAUH 210655Z AUTO 17004KT 2 1/2SM HZ CLR 09/03 A3007 RMK AO2 T00890026
KAUM 210655Z AUTO 00000KT 10SM CLR 03/02 A3009 RMK AO2
KAUN 210655Z AUTO 16003KT 10SM FEW047 12/10 A3005 RMK AO1
KAUO 210655Z AUTO 34004KT 10SM CLR 12/09 A3004 RMK AO1
KAUS 210653Z 00000KT 10SM SCT200 SCT250 16/15 A3003 RMK AO2 SLP162 T01560150
KAUW 210654Z AUTO 36007KT 10SM CLR 06/02 A3008 RMK AO2 SLP196 T00560022
KAVC 210655Z AUTO 00000KT 10SM OVC100 12/12 A2998 RMK AO2
KAVK 210650Z AUTO 13005KT 10SM SCT036 OVC044 16/15 A3006 RMK AO2
KAVL 210654Z AUTO 32005KT 10SM CLR 08/07 A3001 RMK AO2 SLP147 T00830072
KAVP 210654Z AUTO 19004KT 10SM BKN065 OVC080 12/07 A2987 RMK AO2 RAB23E54 SLP112 P0000 T01170072
KAVX 210651Z AUTO 30006KT 10SM CLR 16/13 A2994 RMK AO2 SLP125 T01610128
KAWG 210655Z AUTO 04006KT 10SM CLR 08/06 A3005 RMK AO2
KAWM 210653Z AUTO 00000KT 10SM CLR 12/11 A3002 RMK AO2 SLP164 T01170111
KAWO 210655Z AUTO 15011KT 10SM FEW024 FEW110 12/09 A2981 RMK AO1
KAXA 210655Z AUTO 00000KT 10SM CLR 06/03 A3009 RMK AO2
KAXH 210655Z AUTO 00000KT 10SM CLR 14/14 A3001 RMK AO2 T01430135
KAXN 210653Z AUTO 11006KT 10SM CLR 05/03 A3011 RMK AO2 SLP202 T00500033
KAXS 210655Z AUTO 13004KT 10SM CLR 17/14 A3007 RMK AO2 T01720135
KAXV 210654Z AUTO 29005KT 10SM OVC050 10/10 A2992 RMK AO2
KAXX 210655Z AUTO 00000KT 10SM SCT022 01/00 A3032 RMK AO2 T00130000
KAYS 210655Z AUTO 00000KT 5SM BR CLR 19/18 A2997 RMK AO2 T01870184
KAZC 210655Z AUTO 15003KT 10SM BKN090 11/04 A3006 RMK AO2 T01090041
KAZE 210655Z AUTO 00000KT 10SM CLR 16/16 A2997 RMK AO2 T01640163
KAZO 210653Z AUTO 33010KT 10SM FEW014 BKN024 OVC060 08/05 A2995 RMK AO2 SLP144 T00830050
KBAB 210658Z AUTO 13004KT 10SM CLR 11/08 A3003 RMK AO2 SLP245 T01120079 $
KBAC 210655Z AUTO 16006KT 10SM CLR 06/05 A3002 RMK AO2
KBAD 210658Z AUTO 03002KT 10SM CLR 14/13 A3004 RMK AO2 SLP174 T01380129
KBAF 210653Z 00000KT 10SM FEW047 SCT060 BKN070 07/05 A2996 RMK AO2 SLP147 T00720050
KBAK 210145Z 29006KT 10SM SKC 12/08 A2992
KBAX 210658Z AUTO 35010G16KT 3SM -RA OVC004 08/08 A2988 RMK AO2 T00820082
KBAZ 210651Z AUTO 05005KT 10SM CLR 19/16 A3001 RMK AO2 SLP156 T01890161
KBBB 210653Z AUTO 13006KT 10SM CLR 06/04 A3009 RMK AO2
KBBD 210655Z AUTO 12003KT 10SM CLR 16/13 A3007 RMK
KBBF 210655Z AUTO 08019KT 8SM SCT023 OVC090 26/20 A2994 RMK A01
KBBG 210655Z AUTO 00000KT 2SM BR CLR 13/12 A3010 RMK AO2
KBBP 210655Z AUTO 00000KT 10SM SCT055 12/12 A2996 RMK AO2
KBBW 210653Z AUTO 00000KT 10SM CLR 07/03 A3005 RMK AO2 SLP167 T00670033
KBCB 210655Z AUTO 00000KT 10SM SCT085 09/09 A2997 RMK AO2
KBCE 210653Z AUTO 23004KT 10SM CLR 00/M01 A3018 RMK AO2 SLP144 T00001011 401671011 TSNO
KBCK 210655Z AUTO 00000KT 10SM CLR M01/M01 A3009 RMK AO2 T10091009
KBCT 210248Z 14008KT 10SM SCT033 26/20 A2999 RMK LAST
KBDE 210653Z AUTO 13004KT 10SM CLR 01/00 A3013 RMK AO2 SLP215 T00110000 TSNO
KBDG 210655Z AUTO 03004KT 10SM SCT100 12/05 A3019 RMK AO1 T01160046 402140023
KBDH 210655Z AUTO 09006KT 10SM CLR 07/03 A3011 RMK AO2
KBDL 210651Z 00000KT 10SM BKN049 BKN130 OVC190 08/05 A2995 RMK AO2 SLP141 T00780050
KBDN 210655Z AUTO 22008KT 10SM SCT065 08/03 A2991 RMK AO2
KBDR 210652Z AUTO 00000KT 10SM CLR 11/07 A2995 RMK AO2 SLP140 T01110072
KBDU 210656Z AUTO 32004KT 10SM CLR 11/03 A3003 RMK AO2
KBEA 210655Z AUTO 05004KT 10SM CLR 20/20 A2999 RMK AO2 T02020200
KBED 210656Z AUTO 00000KT 10SM CLR 06/04 A2997 RMK AO2 SLP164 T00610044 TSNO
KBEH 210653Z AUTO VRB06KT 10SM FEW022 SCT032 OVC049 09/07 A2997 RMK AO2 SLP151 T00940072
KBFD 210653Z AUTO 21003KT 5SM -RA BR OVC004 08/07 A2981 RMK AO2 SLP095 P0002 T00780067
KBFF 210653Z AUTO 02004KT 10SM CLR 16/05 A2999 RMK AO2 SLP114 T01560050 402720017
KBFI 210653Z 14005KT 10SM BKN070 13/11 A2980 RMK AO2 SLP091 T01330111
KBFL 210654Z AUTO 32013KT 8SM BKN060 18/11 A3001 RMK AO2 SLP157 T01830111
KBFM 210653Z AUTO 32005KT 10SM CLR 13/12 A3002 RMK AO2 SLP167 T01280117
KBFW 210654Z AUTO 07009KT 10SM CLR 06/02 A3016 RMK AO2
KBGD 210651Z AUTO 21004KT 10SM CLR 16/11 A3009 RMK AO2 SLP155 T01610106
KBGE 210655Z AUTO 31003KT 10SM CLR 16/15 A2999 RMK AO2
KBGF 210655Z AUTO 00000KT 10SM CLR 08/07 A3003 RMK
KBGM 210653Z AUTO 19005KT 10SM BKN045 BKN050 OVC065 09/04 A2985 RMK AO2 RAB02E44 SLP111 P0000 T00940044
KBGR 210653Z 00000KT 10SM BKN060 BKN090 04/02 A3003 RMK AO2 SLP169 T00440017
KBHB 210655Z AUTO 00000KT 10SM OVC090 06/06 A3003 RMK AO1
KBHC 210655Z AUTO 00000KT 10SM CLR 17/16 A2997 RMK AO2
KBHK 210651Z AUTO 11007KT 10SM CLR 07/04 A2981 RMK AO2 SLP084 T00720044 402500050
KBHM 210653Z 00000KT 10SM CLR 11/10 A3005 RMK AO2 SLP171 T01110100
KBID 210655Z AUTO 21007KT 10SM BKN070 16/08 A2996 RMK AO1
KBIE 210655Z AUTO 00000KT 7SM CLR 05/03 A3009 RMK AO2 T00530031
KBIF 210558Z AUTO 35006KT 10SM FEW090 BKN130 15/13 A3008 RMK AO2 LTG DSNT S SLP139 T01480132 10215 20148 50001 $
KBIH 210656Z AUTO VRB03KT 10SM CLR 12/M05 A2990 RMK AO2 SLP087 T01221050
KBIJ 210655Z AUTO 00000KT 7SM CLR 13/12 RMK AO2
KBIL 210653Z 23010KT 10SM CLR 14/M02 A2979 RMK AO2 SLP063 T01441017 402610044
KBIS 210652Z AUTO 10011KT 10SM CLR 12/02 A2990 RMK AO2 SLP123 T01220017
KBIV 210653Z AUTO 35005KT 10SM OVC016 09/06 A2998 RMK AO2 SLPNO T00940056
KBIX 210658Z AUTO 02002KT 10SM CLR 15/11 A3001 RMK AO2 SLP165 T01500112
KBJC 210655Z AUTO 23004KT 10SM CLR 12/02 A3006 RMK AO2
KBJI 210653Z AUTO 16004KT 10SM CLR 02/02 A3012 RMK AO2 T00200015
KBJJ 210656Z AUTO 26004KT 3SM BR OVC012 12/10 A2985 RMK AO2 SLP109 T01170100 TSNO
KBKB 210654Z AUTO 00000KT 9SM CLR 14/12 A3001 RMK AO2 SLP187 T01440117
KBKD 210655Z AUTO 16007KT 5SM HZ CLR 19/14 A3005 RMK AO2 T01880135
KBKE 210653Z AUTO 18006KT 10SM BKN036 OVC050 09/04 A2988 RMK AO2 RAE46 SLP104 P0000 T00890039
KBKF 210658Z 19016KT 10SM FEW100 13/04 A3007 RMK AO2A PK WND 19026/45 SLP118 T01340038 402390082
KBKL 210653Z 34013KT 10SM BKN018 OVC026 13/10 A2982 RMK AO2 SLP097 T01280100
KBKN 210655Z AUTO 00000KT 9SM OVC044 16/15 A3005 RMK AO2
KBKS 210655Z AUTO 00000KT 10SM CLR 21/20 A2996 RMK AO1 T02050197
KBKT 210655Z AUTO 20004KT 10SM OVC100 13/09 A2992 RMK AO1 T01270092
KBKV 210653Z AUTO 00000KT 10SM CLR 20/18 A2996 RMK AO2 SLP141 T02000183 $
KBKW 210651Z AUTO 22008KT 10SM CLR 09/07 A2995 RMK AO2 SLP132 T00940067 TSNO
KBLF 210652Z AUTO 24004KT 10SM BKN022 BKN033 11/07 A2997 RMK AO2 SLP131 T01110067
KBLH 210652Z AUTO 10004KT 10SM CLR 24/08 A2979 RMK AO2 SLP084 T02390083
KBLI 210653Z AUTO 16008KT 10SM BKN021 OVC026 14/11 A2975 RMK AO2 SLP081 T01390106
KBLM 210655Z AUTO 17004KT 10SM CLR 11/06 A2992 RMK AO1
KBLU 210652Z AUTO 17006KT 10SM BKN004 BKN014 04/02 A3008 RMK AO2 CIG 002V008 SLP154 T00390022
KBLV 210658Z AUTO 25002KT 10SM CLR 08/07 A3001 RMK AO2 SLP164 T00760068
KBMC 210655Z AUTO 06006KT 10SM BKN110 11/04 A2988 RMK AO1 T01110040 403670015
KBMG 210653Z AUTO 00000KT 10SM FEW060 08/06 A2998 RMK AO2 SLP149 T00780061 $
KBMI 210656Z AUTO 34004KT 10SM CLR 07/06 A3003 RMK AO2 T00660055 SLP168
KBML 210652Z AUTO 00000KT 10SM FEW075 OVC100 01/00 A2997 RMK AO2 SLP156 T00060000
KBMQ 210653Z AUTO 00000KT 10SM CLR 18/13 A3008 RMK AO2 SLP170 T01780133
KBMT 210655Z AUTO 00000KT 10SM CLR 13/13 A3002 RMK AO2 T01330130
KBNA 210653Z 00000KT 10SM CLR 12/09 A3001 RMK AO2 SLP160 T01170094
KBNL 210655Z AUTO 00000KT 10SM BKN044 12/12 A2998 RMK AO2
KBNO 210653Z AUTO 14003KT 10SM BKN090 BKN120 07/06 A2989 RMK AO2 RAE0559 PRESFR SLP102 P0000 T00670056
KBNW 210655Z AUTO 35004KT 10SM CLR 09/04 A3006 RMK AO2
KBOI 210653Z 35013KT 10SM -RA BKN075 OVC095 14/06 A2983 RMK AO2 RAB39 SLP081 P0000 T01390061 402500083
KBOK 210656Z AUTO 12004KT 6SM BR BKN016 OVC023 13/12 A3000 RMK AO2 T01270116 401610116 SLP159
KBOS 210654Z 17003KT 10SM CLR 10/07 A2999 RMK AO2 SLP156 T01000067
KBOW 210655Z AUTO 00000KT 10SM CLR 21/20 A2995 RMK AO2
KBPC 210655Z AUTO 00000KT 10SM CLR 11/10 A3007 RMK AO2
KBPG 210655Z AUTO 11007KT 10SM CLR 17/12 A3011 RMK AO2 T01730116
KBPI 210653Z AUTO 04003KT 10SM BKN100 01/M03 A3007 RMK AO2 SLP127 T00111033 402061050
KBPK 210653Z AUTO VRB03KT 5SM BR CLR 14/14 A3007 RMK AO2 SLP176 T01440139
KBPT 210653Z AUTO 02004KT 10SM CLR 15/13 A3001 RMK AO2 SLP161 T01500133
KBQK 210655Z AUTO 00000KT 10SM CLR 18/17 A2997 RMK AO1
KBQP 210655Z AUTO 00000KT 7SM CLR 12/11 A3005 RMK AO2 T01170112
KBRD 210653Z AUTO 00000KT 10SM CLR 01/01 A3013 RMK AO2 SLP213 I1000 T00060006
KBRL 210653Z AUTO 07005KT 10SM CLR 10/06 A3004 RMK AO2 SLP171 T01000061
KBRO 210653Z AUTO 04004KT 10SM CLR 23/21 A2992 RMK AO2 SLP129 T02280206
KBTA 210655Z AUTO 00000KT 10SM CLR 12/04 A3007 RMK AO2 T01190038
KBTL 210653Z 33006KT 10SM BKN018 OVC055 08/05 A2994 RMK AO2 SLP141 T00830050
KBTM 210653Z AUTO 21008KT 10SM CLR 11/01 A2982 RMK AO2 SLP057 T01060006 402221022
KBTP 210655Z AUTO 21005KT 10SM OVC009 09/08 A2985 RMK AO1
KBTR 210653Z AUTO 04004KT 10SM CLR 14/12 A3002 RMK AO2 SLP163 T01390117 TSNO
KBTV 210654Z 12004KT 10SM OVC055 08/03 A2992 RMK AO2 SLP134 T00830033
KBUF 210700Z 19009KT 7SM -RA FEW008 BKN012 OVC060 10/09 A2977 RMK AO2 P0000 T01000089
KBUR 210653Z 09003KT 10SM CLR 18/15 A2991 RMK AO2 SLP117 T01780150
KBUU 210655Z AUTO 34005KT 10SM SCT039 OVC050 08/04 A3003 RMK AO2 T00820040
KBUY 210654Z AUTO 00000KT 10SM BKN110 12/09 A2994 RMK AO2 SLP136 T01220094
KBVE 210651Z AUTO 03003KT 10SM CLR 22/17 A3000 RMK AO2 SLP159 T02170167
KBVN 210655Z AUTO 00000KT 10SM CLR 05/01 A3006 RMK AO2 T00450014
KBVO 210700Z AUTO 00000KT 1/2SM FG VV002 09/09 A3008 RMK AO2 T00940094
KBVS 210655Z AUTO 14006KT 10SM FEW020 BKN090 A2977 RMK A01 P000
KBVU 210655Z AUTO 00000KT 10SM CLR 22/09 A2987 RMK AO2
KBVX 210655Z AUTO 29003KT 10SM CLR 14/13 A3005 RMK AO1
KBVY 210653Z AUTO 00000KT 10SM CLR 07/04 A2999 RMK AO2 SLP151 T00670039
KBWD 210655Z AUTO 00000KT 10SM BKN045 15/13 A3007 RMK AO2
KBWG 210653Z AUTO 00000KT 10SM CLR 10/08 A3000 RMK AO2 SLP157 T01000083
KBWI 210654Z 00000KT 10SM FEW075 SCT110 BKN130 12/09 A2988 RMK AO2 RAE0558B27E36 SLP118 P0000 T01170094
KBWP 210655Z AUTO 12006KT 10SM CLR 05/00 A3007 RMK AO1
KBXA 210655Z AUTO 00000KT 10SM 11/09 A3004 RMK AO2 T01050087
KBXK 210635Z AUTO 06006KT 10SM CLR 19/08 A2985 RMK AO1
KBYG 210653Z AUTO 24009KT 10SM CLR 12/M04 A2989 RMK AO2 SLP073 T01171044 402610072
KBYI 210653Z AUTO 20011KT 10SM CLR 19/02 A2977 RMK AO2 SLP037 T01890022 402670056
KBYS 210655Z AUTO 21012G16KT 10SM CLR 21/02 A2990 RMK AO2 SLP083 T02080019 $
KBYY 210655Z AUTO 04003KT 5SM BR 18/18 A2999 RMK AO2 T01850185
KBZN 210656Z AUTO 10003KT 10SM FEW120 09/01 A2981 RMK AO2 SLP073 T00890011 402501017
KC09 210655Z AUTO 00000KT 10SM OVC050 09/06 A3001 RMK AO2 T00880063
KC29 210655Z AUTO 35003KT 10SM OVC040 09/05 A3006 RMK AO1 T00860046
KC35 210655Z AUTO 04005KT 10SM OVC042 09/04 A3006 RMK AO2 T00880040
KC75 210655Z AUTO 00000KT 10SM CLR 04/03 A3003 RMK AO2 T00410032
KCAD 210655Z AUTO 32005KT 2 1/2SM BR OVC005 06/06 A2993 RMK AO2 T00650061
KCAE 210656Z 00000KT 10SM CLR 12/10 A2997 RMK AO2 SLP146 T01170100
KCAG 210653Z AUTO 00000KT 10SM CLR 02/M01 A3012 RMK AO2 SLP158 T00221006 402281022
KCAK 210651Z 27004KT 3SM BR OVC003 11/09 A2984 RMK AO2 RAB08E40 SLP104 P0000 T01110094 $
KCAO 210655Z AUTO 24004KT 10SM CLR 12/07 A3015 RMK AO2 SLP161 T01170067 402220083
KCAR 210654Z AUTO 20003KT 10SM CLR M02/M04 A2998 RMK AO2 SLP161 T10171039
KCAV 210655Z AUTO 00000KT 10SM CLR 02/02 A3008 RMK AO2
KCBE 210647Z AUTO 00000KT 10SM SCT009 SCT019 BKN075 09/08 A2992 RMK AO1
KCBF 210655Z AUTO 00000KT 10SM CLR 13/03 A3007 RMK AO2
KCBG 210656Z AUTO 00000KT 10SM CLR 01/M02 A3011 RMK AO2
KCBK 210655Z AUTO 21006KT 10SM CLR 09/05 A3010 RMK AO2
KCBM 210658Z AUTO 36001KT 10SM CLR 09/09 A3003 RMK AO2 SLP171 T00920092 $
KCCO 210655Z AUTO 33003KT 10SM CLR 15/11 A3001 RMK AO2 T01460113
KCCR 210653Z 20006KT 10SM CLR 14/11 A3006 RMK AO2 SLP165 T01390106
KCCU 210657Z AUTO 18009KT 10SM CLR 05/M01 A3042 RMK AO2
KCCY 210655Z AUTO 04005KT 10SM CLR 06/04 A3009 RMK AO2
KCDC 210653Z AUTO 19009KT 10SM CLR 14/03 A3003 RMK AO2 SLP103 T01390028 402330044 TSNO
KCDD 210653Z AUTO 00000KT 10SM OVC021 04/01 A3018 RMK AO2
KCDH 210655Z AUTO 01003KT 5SM BR CLR 12/11 A3005 RMK AO2
KCDJ 210652Z AUTO 00000KT 07/06 A3008 RMK AO1 SLP185 T00670056
KCDN 210655Z AUTO 00000KT 10SM SCT050 11/10 A2998 RMK AO2 TSNO
KCDR 210653Z AUTO 22011KT 10SM CLR 17/04 A2992 RMK AO2 RAE00 SLP109 P0000 T01720044 402670000
KCDS 210653Z AUTO 19006KT 10SM CLR 18/13 A3007 RMK AO2 SLP159 T01780128
KCDW 210653Z AUTO 00000KT 10SM BKN085 08/06 A2993 RMK AO2 SLP139 T00830056 TSNO
KCEC 210656Z AUTO 17011KT 9SM FEW012 OVC017 13/12 A3000 RMK AO2 SLP159 T01330117
KCEF 210658Z AUTO 05003KT 10SM FEW049 BKN140 06/05 A2995 RMK AO2 CIG 055 RWY05 SLP149 T00550046
KCEU 210654Z AUTO 28003KT 10SM CLR 13/09 A2999 RMK AO2 SLP147 T01280094
KCEW 210653Z AUTO 00000KT 8SM CLR 09/09 A3001 RMK AO2 SLP162 T00940094
KCEY 210655Z AUTO 30003KT 10SM CLR 12/10 A3002 RMK AO1
KCEZ 210653Z AUTO 14003KT 10SM CLR 11/04 A3014 RMK AO2 SLP148 T01060044 402220022
KCFD 210655Z AUTO 00000KT 10SM CLR 16/15 A3004 RMK AO2 T01560145
KCFE 210655Z AUTO 00000KT 10SM CLR 03/01 A3013 RMK AO2 T00340014
KCFS 210655Z AUTO 33006G15KT 7SM OVC017 09/07 A2989 RMK AO2 T00900068
KCFV 210652Z AUTO 00000KT 5SM BR CLR 11/11 A3007 RMK AO2 SLP180 T01110106
KCGC 210655Z AUTO 00000KT 10SM CLR 19/17 A2996 RMK AO2 PWINO
KCGE 210645Z AUTO 14003KT 10SM CLR 12/10 A2991 RMK AO1
KCGF 210245Z 25010KT 4SM -RA BR BKN008 OVC012 12/12 A2985
KCGI 210653Z AUTO 00000KT 10SM CLR 08/07 A3003 RMK AO2 SLP168 T00780067 TSNO $
KCGS 210645Z AUTO 00000KT 10SM BKN120 12/11 A2989 RMK AO1
KCGZ 210655Z AUTO 00000KT 10SM CLR 22/09 A2987 RMK AO1
KCHA 210653Z AUTO 00000KT 10SM CLR 11/09 A3002 RMK AO2 SLP161 T01110094
KCHD 210347Z VRB04KT 15SM SKC 23/12 A2985 RMK LAST
KCHO 210653Z AUTO 00000KT 10SM CLR 12/09 A2989 RMK AO2 SLP118 T01170094
KCHS 210656Z 00000KT 10SM SCT041 18/16 A2995 RMK AO2 SLP142 T01780156
KCIC 210655Z AUTO 06003KT 10SM CLR 13/08 A3002 RMK AO1
KCID 210652Z AUTO 06005KT 10SM CLR 08/05 A3006 RMK AO2 SLP178 T00780050
KCIN 210655Z AUTO 00000KT 10SM OVC037 03/02 A3008 RMK AO2
KCIR 210655Z AUTO 00000KT 1/4SM FG VV002 09/08 A3003 RMK AO2 T00940080
KCIU 210655Z AUTO 01005KT 10SM OVC023 06/04 A3000 RMK AO1
KCJR 210655Z AUTO 00000KT 10SM CLR 11/09 A2989 RMK AO2
KCKB 210653Z 20004KT 10SM OVC036 11/09 A2989 RMK AO2 SLP114 T01110089 $
KCKC 210654Z AUTO 02005KT 10SM OVC015 01/M02 A3016 RMK AO2
KCKF 210655Z AUTO 00000KT 10SM CLR 14/12 A3000 RMK AO2 T01350123
KCKI 210655Z AUTO 00000KT 10SM CLR 13/13 A2996 RMK AO2
KCKM 210655Z AUTO 00000KT 10SM CLR 13/13 A3005 RMK AO1
KCKN 210654Z AUTO 13008KT 10SM CLR 04/03 A3007 RMK AO2
KCKP 210655Z AUTO 00000KT 10SM CLR 03/02 A3008 RMK AO2 T00270024
KCKV 210652Z AUTO 00000KT 10SM CLR 12/11 A3001 RMK AO2 SLP160 T01220111
KCLE 210651Z 30006KT 4SM -RA BR SCT009 BKN017 OVC065 12/11 A2985 RMK AO2 RAB0553E31B45 SLP110 P0001 T01170106 $
KCLI 210655Z AUTO 36004KT 10SM SCT049 06/02 A3007 RMK AO2
KCLK 210655Z AUTO 00000KT 10SM SCT090 16/13 A3007 RMK AO2
KCLL 210653Z AUTO 00000KT 10SM CLR 18/15 A3003 RMK AO2 SLP164 T01780150
KCLM 210653Z AUTO 00000KT 10SM SCT065 BKN100 11/11 A2975 RMK AO2 SLP074 T01110106 TSNO $
KCLS 210655Z AUTO 19006KT 10SM FEW046 BKN055 BKN065 13/12 A2981 RMK AO2
KCLT 210652Z 25003KT 7SM FEW110 14/10 A2996 RMK AO2 SLP141 T01390100
KCLW 210655Z AUTO 00000KT 10SM CLR 21/16 A2994 RMK AO2
KCMA 210655Z AUTO 32003KT 10SM CLR 16/13 A2990 RMK AO2 SLP132 T01560133
KCMD 210655Z AUTO 00000KT 7SM CLR 09/08 A3005 RMK AO2 T00850082
KCMH 210651Z 00000KT 4SM BCFG FEW070 BKN090 08/07 A2989 RMK AO2 SLP121 T00780072
KCMI 210653Z AUTO 8SM CLR 08/07 A3001 RMK AO2 SLP162 T00780067 $
KCMX 210653Z AUTO 03007KT 10SM OVC013 04/00 A3013 RMK AO2 SLP214 T00390000
KCMY 210655Z AUTO 00000KT 10SM CLR 01/01 A3010 RMK AO2 T00100007
KCNB 210654Z AUTO 00000KT 10SM CLR 02/01 A3007 RMK AO2 T00240007
KCNC 210655Z AUTO 30005KT 10SM CLR 09/05 A3006 RMK AO2
KCNI 210655Z AUTO 00000KT 10SM CLR 10/08 A3002 RMK AO2
KCNK 210655Z AUTO 00000KT 10SM CLR 09/06 A3008 RMK AO2 SLP178 T00890061
KCNM 210653Z AUTO 33005KT 9SM BKN018 OVC055 16/14 A3009 RMK AO2 SLP150 T01610144 402220161
KCNO 210653Z 00000KT 5SM BR CLR 15/13 A2993 RMK AO2 SLP131 T01500133
KCNU 210652Z AUTO 00000KT 10SM CLR 09/09 A3008 RMK AO2 SLP179 T00940089
KCNW 210350Z 00000KT 10SM SKC 17/13 A3006
KCNY 210653Z AUTO 00000KT 10SM BKN095 OVC120 13/03 A3000 RMK AO2 SLP116 T01330033 402500089
KCOD 210655Z AUTO 18007KT 10SM CLR 12/01 A2989 RMK AO1
KCOE 210655Z AUTO 25009G17KT 10SM OVC050 12/06 A2983 RMK AO1
KCOF 210658Z AUTO 18005KT 10SM FEW048 24/21 A2994 RMK AO2 SLP143 T02430209 $
KCOM 210655Z AUTO 19003KT 10SM CLR 17/14 A3008 RMK AO2 T01680135
KCON 210651Z AUTO 00000KT 10SM OVC100 07/06 A2999 RMK AO2 RAE0556 SLP157 P0000 T00720056
KCOQ 210656Z AUTO 08006KT 10SM OVC029 07/02 A3013 RMK AO2
KCOS 210654Z 07006KT 10SM CLR 08/04 A3016 RMK AO2 SLP161 T00780044 402060050
KCOT 210653Z AUTO 09004KT 10SM CLR 22/18 A3000 RMK AO2 SLP153 T02170178
KCOU 210654Z AUTO 27005KT 9SM CLR 11/06 A3007 RMK AO2 SLP177 T01110061
KCPC 210655Z AUTO 00000KT 10SM CLR 14/13 A2995 RMK AO2 T01350125
KCPK 210655Z AUTO 00000KT 10SM CLR 12/12 A2994 RMK AO2
KCPR 210653Z AUTO 22006KT 10SM CLR 09/01 A2997 RMK AO2 SLP100 T00940011 402391011
KCPS 210653Z AUTO 00000KT 10SM CLR 08/07 A3003 RMK AO2 SLP167 T00780067
KCPT 210655Z AUTO 00000KT 10SM CLR 18/16 A3006 RMK AO2
KCPW 210657Z AUTO 20011G18KT 7SM -SN SCT014 BKN020 OVC050 01/00 A3044 RMK AO2
KCQB 210655Z AUTO 12004KT 10SM CLR 17/17 A3006 RMK AO2
KCQC 210653Z AUTO 17006KT 10SM BKN004 BKN044 OVC060 08/07 A3023 RMK AO2 SLP165 T00830072 402000050
KCQF 210655Z AUTO 00000KT 10SM CLR 11/10 A3000 RMK AO2
KCQM 210655Z AUTO 09003KT 10SM OVC020 05/02 A3016 RMK AO2
KCQT 210647Z AUTO 00000KT 10SM BKN013 19/16 A2990 RMK AO2 SLP123 T01940161
KCQW 210655Z AUTO 00000KT 10SM FEW002 12/11 A2996 RMK AO2
KCQX 210652Z AUTO 13004KT 10SM OVC070 13/10 A3003 RMK AO2 SLP169 T01280100
KCRE 210653Z AUTO 00000KT 6SM BR CLR 13/13 A2995 RMK AO1 SLP141 T01330128
KCRG 210653Z AUTO 00000KT 10SM CLR 18/17 A2996 RMK AO2 SLP144 T01830167
KCRH 210425Z AUTO 06013KT 10SM CLR 25/17 A3000 RMK A01
KCRP 210651Z 06006KT 10SM SCT021 BKN250 23/21 A2996 RMK AO2 SLP144 T02280211
KCRQ 210653Z 11003KT 10SM OVC013 19/16 A2990 RMK AO2 SLP123 T01940161
KCRS 210653Z AUTO 09003KT 10SM CLR 16/14 A3005 RMK AO2 SLP172 T01610144
KCRW 210654Z 23009KT 7SM -RA SCT031 BKN060 11/10 A2993 RMK AO2 RAB15 SLP131 VLY FG P0004 T01110100
KCRX 210655Z AUTO 00000KT 2 1/2SM BR CLR 09/08 A3003 RMK AO2
KCSG 210651Z AUTO 00000KT 10SM CLR 12/11 A3001 RMK AO2 SLP158 T01220111
KCSM 210653Z AUTO 19008KT 10SM CLR 19/14 A3008 RMK AO2 SLP165 T01890139
KCSQ 210655Z AUTO 32005KT 10SM CLR 09/04 A3007 RMK AO2
KCSV 210653Z AUTO 25006KT 10SM FEW050 SCT070 11/08 A3002 RMK AO2 SLP156 T01110078
KCTB 210656Z AUTO 36006KT 10SM CLR 06/M01 A2968 RMK AO2 SLP032 T00611011 402560017
KCTJ 210655Z AUTO 00000KT 10SM CLR 10/10 A3002 RMK AO2
KCTY 210653Z AUTO 00000KT 17/16 A2997 RMK AO1 SLP147 T01720161
KCTZ 210655Z AUTO 00000KT 10SM CLR 13/13 A2995 RMK AO2 T01280128
KCUB 210653Z AUTO 00000KT 10SM CLR 13/11 A2998 RMK AO2 SLP150 T01280111
KCUH 210655Z AUTO 00000KT 10SM SCT048 SCT070 17/16 A3006 RMK AO2
KCUL 210655Z AUTO 26003KT 10SM CLR 09/08 A3000 RMK AO2 T00880078
KCUT 210653Z AUTO 25003KT 10SM CLR 13/01 A3000 RMK AO2 SLP099 T01280011 402170028
KCVB 210655Z AUTO 06003KT 10SM CLR 19/13 A3004 RMK AO2 T01910130
KCVC 210655Z AUTO 00000KT 5SM HZ CLR A2999 RMK AO2
KCVG 210652Z 30006KT 10SM SCT050 11/08 A2992 RMK AO2 SLP129 T01110083
KCVH 210655Z AUTO 00000KT 10SM CLR 12/12 A3008 RMK AO1
KCVN 210555Z AUTO 00000KT 10SM CLR 12/09 A3017 RMK AO1 10180 20120 57003
KCVO 210655Z AUTO 19008KT 10SM SCT055 OVC075 12/10 A2991 RMK AO1
KCVS 210658Z AUTO 30005KT 10SM CLR 13/11 A3015 RMK AO2 SLP166 T01280109 402440108 $
KCVW 210655Z AUTO 06004KT 10SM 17/15 A3004 RMK A01
KCVX 210655Z AUTO 03011KT 10SM OVC026 08/05 A3001 RMK AO2 T00820053
KCWA 210655Z AUTO 01007KT 10SM SCT038 05/03 A3009 RMK AO2
KCWC 210655Z AUTO 22005KT 10SM CLR 17/14 A3006 RMK AO2 T01710140
KCWF 210655Z AUTO 00000KT 10SM CLR 15/12 A3002 RMK AO2 T01510125
KCWI 210655Z AUTO 35006KT 10SM CLR 04/02 A3008 RMK AO1
KCWN 210656Z AUTO 33004KT 10SM CLR 09/02 A3016 RMK AO2 SLP154 T00920021 401840090
KCWV 210655Z AUTO 00000KT 7SM BKN033 16/16 A2998 RMK AO2
KCXO 210653Z AUTO 00000KT 9SM CLR 13/12 A3003 RMK AO2 SLP167 T01330122
KCXP 210655Z AUTO 00000KT 10SM FEW041 SCT050 BKN075 09/01 A3001 RMK AO2
KCXY 210656Z AUTO 00000KT 10SM -RA OVC070 12/11 A2989 RMK AO2 RAB45 SLP121 P0000 T01170106
KCYS 210653Z AUTO 26004KT 10SM CLR 05/01 A3007 RMK AO2 SLP125 T00500011 402220022
KCZT 210655Z AUTO 10003KT 10SM SCT085 20/17 A3000 RMK AO2
KCZZ 210652Z AUTO 05004KT 11/10 A2993 RMK AO1 SLP109 T01110100
KD07 210656Z AUTO 15014KT 11/04 A2983 RMK AO1 SLP098 T01110044 402390044
KD25 210655Z AUTO 04005KT 10SM OVC012 04/03 A3012 RMK AO2 T00370029
KD39 210653Z AUTO 07004KT 10SM CLR 03/02 A3011 RMK AO2 T00250019
KD50 210655Z AUTO 19010KT 10SM CLR 09/06 A2980 RMK AO2
KD55 210655Z AUTO 14016G20KT 10SM CLR 06/03 A2999 RMK AO2
KD60 210655Z AUTO 10005KT 10SM CLR 05/05 A2986 RMK AO2
KD95 210654Z AUTO 35005KT 10SM OVC015 09/06 A2989 RMK AO2 T00850061
KDAA 210658Z AUTO 00000KT 6SM R32/5000FT BR FEW110 SCT140 11/10 A2989 RMK AO2 SLP125 T01090103
KDAB 210653Z COR 24003KT 9SM OVC130 21/20 A2996 RMK AO2 SLP144 T02110200
KDAG 210650Z AUTO 29014KT 10SM CLR 21/04 A2989 RMK AO2 SLP100 T02110039
KDAL 210653Z 00000KT 10SM FEW300 19/14 A3004 RMK AO2 SLP167 T01890139
KDAN 210653Z AUTO 21005KT 10SM FEW070 BKN090 BKN110 13/09 A2994 RMK AO2 SLP129 T01280094
KDAW 210651Z AUTO 00000KT 10SM FEW100 07/04 A2999 RMK AO2 SLP156 T00670039
KDAY 210656Z 32007KT 8SM OVC075 11/09 A2992 RMK AO2 RAE08 SLP131 P0000 T01110094
KDBN 210655Z AUTO 00000KT 7SM SCT049 08/08 A3001 RMK AO2
KDBQ 210653Z AUTO 00000KT 10SM CLR 04/02 A3006 RMK AO2 SLP183 T00390022 $
KDCA 210652Z 21004KT 10SM FEW080 BKN110 14/09 A2989 RMK AO2 SLP122 T01390094
KDCU 210653Z AUTO 00000KT 8SM CLR 08/07 A3003 RMK AO2 SLP168 T00830072 $
KDCY 210655Z AUTO 30004KT 10SM CLR 11/07 A2998 RMK AO2 T01050072
KDDC 210652Z AUTO 16007KT 10SM SCT037 13/07 A3009 RMK AO2 SLP171 T01280072
KDDH 210654Z AUTO VRB04KT 10SM BKN060 OVC090 11/03 A2992 RMK AO2 SLP132 T01110033
KDEC 210654Z AUTO 04005KT 10SM CLR 07/06 A3002 RMK AO2 SLP165 T00720056 TSNO
KDED 210655Z AUTO 00000KT 10SM CLR 22/20 A2997 RMK AO1
KDEH 210655Z AUTO 00000KT 10SM BKN033 05/04 A3008 RMK AO2
KDEN 210653Z 19018KT 10SM CLR 14/04 A3005 RMK AO2 PK WND 18027/0607 SLP105 T01440039 402500083
KDEQ 210653Z AUTO 00000KT 1/4SM FG VV002 13/13 A3004 RMK AO2 SLP168 T01280128
KDET 210653Z 33007KT 10SM OVC024 11/07 A2989 RMK AO2 SLP122 T01060067
KDEW 210653Z AUTO 14006KT 10SM OVC065 11/07 A2983 RMK AO2 RAB27E50 SLP098 P0001 T01110072
KDFI 210653Z AUTO 32006KT 10SM FEW070 09/06 A2992 RMK AO2 SLP135 T00890056
KDFW 210653Z 00000KT 10SM CLR 18/14 A3004 RMK AO2 SLP165 T01830144
KDGW 210653Z AUTO 00000KT 10SM CLR 07/01 A2999 RMK AO2 SLP114 T00670006 402611006
KDHN 210653Z AUTO 00000KT 10SM CLR 12/11 A3003 RMK AO2 SLP167 T01220111 $
KDHT 210653Z AUTO 30003KT 10SM CLR 11/08 A3012 RMK AO2 SLP162 T01060078
KDIJ 210656Z AUTO 15005KT 10SM CLR 07/00 A2997 RMK AO2 T00660000 SLP077
KDIK 210656Z AUTO 16010KT 10SM CLR 09/03 A2982 RMK AO2 SLP091 T00890028 402330033
KDKB 210655Z AUTO 33003KT 10SM OVC044 08/05 A3004 RMK AO2 T00770049
KDKK 210653Z AUTO 21010G20KT 10SM -RA OVC014 11/09 A2979 RMK AO2 SLP088 P0006 T01060094
KDKR 210655Z AUTO 00000KT 3SM BR CLR 13/13 A3007 RMK AO2
KDLF 210658Z AUTO 13004KT 10SM OVC080 21/16 A3001 RMK AO2 SLP151 T02120156 $
KDLH 210655Z 08015KT 10SM BKN012 OVC020 07/03 A3014 RMK AO2 SLP217 T00670033
KDLL 210655Z AUTO 02003KT 10SM OVC038 09/04 A3007 RMK AO2 T00890036
KDLN 210653Z AUTO VRB04KT 10SM CLR 11/01 A2981 RMK AO2 SLP053 T01060006 402390044
KDLP 210655Z AUTO 09007KT 040V110 10SM CLR 25/16 A2999 RMK A01
KDLS 210653Z AUTO 00000KT 10SM BKN075 BKN120 11/09 A2987 RMK AO2 SLP115 T01110094
KDLZ 210656Z AUTO 30005KT 5SM BR OVC018 08/07 A2990 RMK AO2
KDMA 210658Z AUTO 11004KT 10SM CLR 19/10 A2994 RMK AO2 SLP102 T01930104 402800161 $
KDMH 210654Z AUTO 13/09 A2989 RMK AO1 SLP121 T01330089
KDMN 210653Z AUTO 11004KT 10SM BKN090 13/12 A3009 RMK AO2 SLP138 T01330122 402220111
KDMO 210653Z AUTO 22005KT 10SM CLR 09/07 A3008 RMK AO2 SLP184 T00890067
KDMW 210645Z AUTO 00000KT 10SM SCT070 SCT075 OVC110 12/10 A2988 RMK AO2
KDNL 210653Z AUTO 00000KT 10SM CLR 16/10 A2999 RMK AO2 SLP150 T01560100
KDNN 210655Z AUTO 00000KT 3/4SM BR BKN001 08/08 A3002 RMK AO2
KDNS 210655Z AUTO 00000KT 10SM CLR 04/04 A3006 RMK AO2
KDNV 210655Z AUTO 31003KT 7SM OVC060 09/08 A2998 RMK AO2 T00920083
KDOV 210658Z AUTO 16005KT 9SM R19/5500FT FEW060 BKN120 12/09 A2989 RMK AO2 SLP125 T01240091
KDPA 210652Z 34004KT 10SM OVC047 11/06 A3002 RMK AO2 SLP164 T01060061
KDPL 210655Z AUTO 00000KT 10SM CLR 11/11 A2996 RMK AO2 T01110106
KDQH 210655Z AUTO 00000KT 10SM CLR 17/15 A2999 RMK AO2
KDRA 210652Z AUTO 19010KT 10SM CLR 23/03 A2989 RMK AO2 SLP076 T02280028
KDRI 210655Z AUTO 00000KT 10SM CLR 13/12 A3004 RMK AO2 T01330118
KDRM 210655Z AUTO 03006KT 10SM OVC021 06/03 A2998 RMK AO2 T00620028
KDRO 210653Z AUTO 07004KT 10SM OVC065 09/07 A3022 RMK AO2 SLP177 T00940067 401940028 PWINO
KDRT 210653Z AUTO 10005KT 10SM OVC085 22/16 A3000 RMK AO2 SLP145 T02170156
KDSM 210654Z 34003KT 10SM CLR 10/05 A3006 RMK AO2 SLP178 T01000050
KDSV 210654Z AUTO 13005KT 10SM -RA OVC040 10/08 A2981 RMK AO2 SLP104 P0002 T01000078
KDTA 210655Z AUTO 17008KT 10SM SCT100 15/04 A2996 RMK AO1 T01480035 403510000
KDTL 210655Z AUTO 14007KT 10SM CLR 05/03 A3010 RMK AO2
KDTN 210653Z AUTO 00000KT 10SM CLR 14/13 A3004 RMK AO2 SLP169 T01440128
KDTO 210653Z AUTO 00000KT 8SM CLR 16/14 A3004 RMK AO2 SLP166 T01610144
KDTS 210653Z AUTO 36007KT 10SM CLR 18/13 A2999 RMK AO2 SLP156 T01830128 TSNO
KDTW 210653Z 32006KT 10SM BKN025 BKN050 OVC120 09/07 A2989 RMK AO2 SLP124 T00940067
KDUA 210655Z AUTO 00000KT 10SM CLR 16/15 A3005 RMK AO2
KDUB 210650Z AUTO 30010KT 10SM CLR 03/M03 A3004 RMK AO2
KDUC 210655Z AUTO 00000KT 10SM CLR 17/16 A3006 RMK AO2
KDUG 210656Z AUTO 10005KT 10SM CLR 14/08 A3003 RMK AO2 SLP118 T01440078 402500083
KDUH 210655Z AUTO 33006KT 10SM OVC042 10/07 A2990 RMK AO2
KDUJ 210653Z AUTO 21004KT 5SM BR OVC010 08/08 A2982 RMK AO2 RAB0559E15B38E48 CIG 005V013 SLP099 P0003 T00830078
KDUX 210655Z AUTO 19003KT 10SM CLR 11/08 A3011 RMK AO2 T01080075
KDVK 210655Z AUTO 28004KT 10SM BKN060 12/10 A2997 RMK AO2
KDVL 210655Z AUTO 14012KT 10SM CLR 08/03 A2996 RMK AO1
KDVN 210652Z AUTO 00000KT 10SM CLR 03/02 A3006 RMK AO2 SLP181 T00330022 TSNO
KDVO 210655Z AUTO 00000KT 10SM CLR 12/10 A3007 RMK AO2
KDVP 210654Z AUTO 00000KT 10SM CLR 04/01 A3009 RMK AO2 T00350009
KDVT 210653Z AUTO 04007KT 10SM CLR 22/08 A2987 RMK AO2 SLP092 T02220083 403060167
KDWH 210653Z 00000KT 10SM CLR 18/14 A3002 RMK AO2 SLP163 T01780139
KDWU 210655Z AUTO 00000KT 10SM FEW032 11/08 A2989 RMK AO1
KDWX 210655Z AUTO 00000KT 10SM CLR 06/01 A3013 RMK AO2 T00630014 403191042
KDXR 210653Z AUTO 00000KT 10SM CLR 07/M02 A2994 RMK AO2 SLP139 T00671017
KDXX 210653Z AUTO 00000KT 10SM CLR 05/02 A3007 RMK AO2
KDYA 210635Z AUTO 00000KT 10SM CLR 10/ A3003 RMK AO2 T0097
KDYB 210655Z AUTO 00000KT 10SM CLR 14/14 A2997 RMK AO1
KDYL 210654Z AUTO 16004KT 10SM -RA BKN060 OVC080 11/07 A2990 RMK AO2 RAB51 SLP126 P0000 T01110072
KDYR 210655Z 00000KT 10SM CLR 12/06 A3004 RMK AO1
KDYS 210658Z AUTO 16005KT 10SM CLR 16/12 A3006 RMK AO2 SLP146 T01580120
KDYT 210653Z AUTO 07020KT 10SM OVC037 09/06 A3015 RMK AO2
KDZB 210655Z AUTO 00000KT 10SM CLR 17/14 A3006 RMK AO2 T01650139
KE11 210655Z AUTO 00000KT 10SM CLR 14/11 A3010 RMK AO2 T01370105
KE16 210655Z AUTO 34003KT 10SM FEW019 11/11 A3009 RMK AO2
KE38 210655Z AUTO 00000KT 10SM SCT019 SCT024 15/13 A3016 RMK AO2 T01500127
KEAR 210655Z 16003KT 10SM CLR 09/04 A3007 RMK AO1
KEAT 210655Z AUTO 08004KT 10SM BKN012 BKN110 11/09 A2979 RMK AO2 SLP088 T01110089
KEAU 210656Z AUTO 05005KT 10SM CLR 03/02 A3010 RMK AO2 SLP199 T00280017
KEBG 210655Z AUTO 00000KT 4SM BR CLR 21/20 A2994 RMK AO2 T02120198
KEBS 210655Z AUTO 34003KT 10SM CLR 05/03 A3006 RMK AO2
KECG 210701Z AUTO 00000KT 1 1/2SM BR CLR 12/11 A2994 RMK AO2 TSNO
KECP 210653Z AUTO 00000KT 10SM CLR 14/12 A2998 RMK AO2 SLP163 T01390117
KECS 210655Z AUTO 11008KT 10SM CLR 15/01 A2993 RMK AO2
KECU 210650Z AUTO 00000KT 10SM CLR 17/13 A3009 RMK AO2
KEDC 210655Z AUTO 36003KT 10SM FEW030 BKN043 17/15 A3004 RMK AO2
KEDE 210655Z AUTO 00000KT 10SM CLR 12/12 A2994 RMK AO2 T01200117
KEDJ 210650Z AUTO 29003KT 5SM FEW021 BKN026 08/ A2991 RMK AO1
KEDN 210655Z AUTO 00000KT 10SM CLR 12/11 A3000 RMK AO2
KEDU 210655Z AUTO 00000KT 10SM 13/11 A3005 RMK AO1
KEDW 210658Z AUTO 25008KT 10SM CLR 15/05 A2994 RMK AO2 SLP120 T01530054
KEED 210656Z AUTO 00000KT 10SM CLR 25/07 A2981 RMK AO2 SLP067 T02500067
KEEN 210655Z AUTO 00000KT 10SM SCT065 07/02 A2997 RMK AO1
KEEO 210653Z AUTO 09007KT 10SM FEW080 07/02 A3013 RMK AO2 SLP138 T00670017 402170011
KEET 210653Z AUTO 00000KT 10SM CLR 12/10 A3003 RMK AO2 SLP164 T01170100
KEFD 210650Z 04005KT 10SM BKN250 20/17 A3002
KEFK 210655Z AUTO 00000KT 10SM SCT042 BKN090 OVC100 A2995 RMK AO2
KEFT 210655Z AUTO 36006KT 10SM CLR 07/04 A3005 RMK AO2
KEGE 210655Z AUTO 00000KT 10SM CLR 07/03 A3018 RMK AO1
KEGI 210658Z AUTO 00000KT 10SM CLR 12/11 A3000 RMK AO2 SLP161 T01160106 $
KEGV 210655Z AUTO 35003KT 10SM -SN OVC016 04/03 A3010 RMK AO2 T00350027
KEHA 210648Z AUTO 15008KT 11/09 RMK AO1 PK WND 08 000 T01060089
KEHC 210655Z AUTO 06016KT 10SM CLR 25/18 A2996 RMK A01
KEHO 210655Z AUTO 02003KT 2 1/2SM BR CLR 10/10 A2997 RMK AO2 T00970096
KEHR 210655Z AUTO 20004KT 10SM CLR A3000 RMK AO1
KEHY 210655Z AUTO 00000KT 10SM CLR 09/00 A3010 RMK AO2
KEIK 210655Z AUTO 12003KT 10SM CLR 08/04 A3003 RMK AO2 T00770037
KEIR 210655Z AUTO 06012KT 10SM 24/18 A2999 RMK A01
KEKN 210651Z AUTO 19003KT 10SM OVC050 09/08 A2991 RMK AO2 SLP132 T00940078 TSNO
KEKO 210656Z AUTO 24005KT 10SM CLR 14/M02 A2983 RMK AO2 SLP052 T01441022
KEKQ 210656Z AUTO 00000KT 10SM CLR 12/09 A3000 RMK AO2 T01160094 SLP161
KELD 210653Z AUTO 00000KT 10SM SCT090 13/12 A3005 RMK AO2 SLP173 T01280122
KELM 210653Z AUTO 00000KT 8SM OVC065 08/08 A2983 RMK AO2 SLP105 T00830078
KELN 210653Z AUTO 35004KT 8SM SCT060 08/06 A2981 RMK AO2 SLP094 T00830061
KELO 210653Z AUTO 00000KT 10SM OVC020 04/01 A3016 RMK AO2
KELP 210651Z 36008KT 10SM BKN050 BKN130 16/13 A3007 RMK AO2 SLP130 T01610128 402280139 $
KELY 210653Z AUTO 18015KT 10SM CLR 13/01 A2998 RMK AO2 SLP062 T01280011
KELZ 210656Z AUTO 19007KT 10SM -RA FEW021 SCT036 OVC055 08/06 A2981 RMK AO2 SLP101 P0001 T00780061
KEMK 210655Z AUTO 06017KT 10SM CLR 27/19 A2995 RMK A01
KEMM 210655Z AUTO 00000KT 10SM BKN090 07/00 A3008 RMK AO2
KEMP 210653Z AUTO 00000KT 10SM CLR 11/07 A3008 RMK AO2 SLP183 T01060072
KEMT 210247Z 21003KT 10SM CLR 20/15 A2991 RMK LAST
KEMV 210655Z AUTO 12003KT 10SM OVC110 12/11 A2994 RMK AO2
KEND 210658Z AUTO 11008KT 10SM CLR 18/ A3005 RMK AO2 SLP168 $
KENL 210655Z AUTO 00000KT 10SM CLR 08/06 A3001 RMK AO2 T00810057
KENV 210655Z AUTO 04007KT 10SM FEW110 12/03 A2984 RMK AO1
KENW 210653Z AUTO 35005KT 10SM FEW041 OVC048 09/06 A3002 RMK AO2 SLP168 T00940056
KEOE 210655Z AUTO 21003KT 10SM CLR 11/ A2999 RMK AO2
KEOK 210655Z AUTO 35004KT 10SM CLR 10/06 A3003 RMK AO2
KEPH 210653Z AUTO 21004KT 10SM FEW008 10/09 A2980 RMK AO2 SLP092 T01000089
KEQA 210655Z AUTO 12004KT 10SM CLR 12/08 A3008 RMK AO2
KEQY 210653Z AUTO 24003KT 10SM CLR 12/09 A2995 RMK AO2 SLP148 T01170094
KERI 210651Z AUTO 34005KT 7SM SCT015 OVC022 12/09 A2981 RMK AO2 RAE0553 SLP095 P0000 T01220089 $
KERV 210655Z AUTO 00000KT 10SM CLR 14/13 A3007 RMK AO2 T01410127
KERY 210654Z AUTO 36007KT 10SM OVC027 05/03 A3002 RMK AO2 T00500032
KESC 210655Z AUTO 33005KT 3SM BKN010 OVC014 06/04 A3006 RMK AO1
KESF 210653Z AUTO 00000KT 10SM CLR 12/11 A3003 RMK AO2 SLP168 T01220111 $
KESN 210700Z AUTO 00000KT 10SM CLR 13/11 A2995 RMK AO2 T01340112
KEST 210652Z AUTO 34003KT 10SM CLR 03/01 A3008 RMK AO2 SLP190 T00280006
KETB 210655Z AUTO 34004KT 10SM OVC049 06/03 A3004 RMK AO2
KETC 210655Z AUTO 00000KT 10SM CLR 13/12 A2995 RMK AO2 T01300123
KETH 210656Z AUTO 11008KT 10SM CLR M01/M02 A3009 RMK AO2
KEUF 210658Z AUTO 00000KT 3SM BR CLR 10/09 A3000 RMK AO2 SLP156 T01000094 $
KEUG 210654Z AUTO 19008KT 10SM FEW046 SCT090 12/10 A2992 RMK AO2 SLP133 T01170100
KEUL 210655Z AUTO 31014KT 10SM BKN090 OVC100 14/04 A2984 RMK AO1
KEVB 210147Z 09006KT 10SM FEW025 23/20 A2999 RMK LAST
KEVM 210651Z AUTO 00000KT 10SM BKN024 06/01 A3015 RMK AO2
KEVV 210654Z AUTO 22003KT 10SM CLR 10/07 A3000 RMK AO2 SLP156 T01000067
KEVW 210653Z AUTO 15005KT 10SM BKN100 09/01 A3006 RMK AO2 SLP102 T00940011 402000056 TSNO
KEWB 210653Z AUTO 00000KT 10SM SCT043 SCT050 BKN065 08/07 A2998 RMK AO2 SLP152 T00780067
KEWK 210655Z AUTO 10005KT 10SM CLR 12/04 A3010 RMK AO1
KEWN 210657Z AUTO 00000KT 1 3/4SM BR CLR 13/12 A2995 RMK AO2 VIS 1/2V5 T01330122
KEWR 210651Z 00000KT 10SM FEW055 BKN120 OVC140 12/07 A2993 RMK AO2 SLP133 T01220072
KEXX 210655Z AUTO 00000KT 10SM CLR 11/10 A2995 RMK AO2 T01090101
KEYE 210653Z AUTO 32005KT 10SM OVC060 10/08 A2997 RMK AO2 SLP146 T01000078
KEYF 210655Z AUTO 00000KT 10SM CLR 14/14 A2995 RMK AO2 T01430136
KEYW 210653Z AUTO 16008KT 10SM CLR 27/22 A2991 RMK AO2 SLP129 T02670222
KEZF 210655Z AUTO 00000KT 10SM CLR 13/09 A2989 RMK AO2 T01280089
KEZM 210655Z AUTO 00000KT 1/2SM FG OVC047 12/12 A3002 RMK AO2 T01200120
KEZS 210655Z AUTO 35004KT 10SM SCT021 SCT050 06/04 A3008 RMK AO2 T00640035
KF05 210656Z AUTO 18004KT 10SM CLR 18/13 A3006 RMK AO2
KF44 210655Z AUTO 00000KT 10SM CLR 12/12 A3004 RMK AO2
KF46 210655Z AUTO 16004KT 10SM CLR 17/14 A3004 RMK AO2 T01710135
KF70 210655Z AUTO 00000KT 4SM OVC003 16/15 A2993 RMK AO1
KFAF 210658Z AUTO 19005KT 10SM SCT110 BKN160 16/16 A2992 RMK AO2 SLP135 T01550155 $
KFAM 210655Z AUTO 00000KT 10SM CLR 08/06 A3007 RMK AO1
KFAR 210653Z 13010KT 10SM CLR 07/03 A3005 RMK AO2 SLP181 T00720033
KFAT 210653Z 30012KT 10SM SCT070 18/10 A3001 RMK AO2 SLP159 T01830100
KFAY 210653Z AUTO 25004KT 10SM CLR 14/13 A2995 RMK AO2 SLP135 T01440133
KFBG 210658Z AUTO 19003KT 9SM SCT120 BKN170 15/13 A2995 RMK AO2 SLP144 T01470128 $
KFBL 210654Z AUTO 00000KT 10SM CLR 01/00 A3011 RMK AO2
KFBR 210655Z AUTO 20009KT OVC100 12/01 A3009 RMK AO2 T01220012 PWINO
KFCI 210655Z AUTO 19003KT 10SM OVC090 A2993 RMK AO1
KFCM 210653Z AUTO 03003KT 10SM CLR 06/04 A3011 RMK AO2 SLP197 T00610039
KFCS 210658Z AUTO 33005KT 10SM CLR 08/04 A3013 RMK AO2 SLP177 T00760036 402140052
KFDK 210645Z AUTO 00000KT 4SM BR SCT080 SCT100 BKN120 12/10 A2992 RMK AO2
KFDR 210653Z AUTO 19004KT 10SM CLR 18/14 A3002 RMK AO2 SLP152 T01780139
KFDW 210655Z AUTO 22003KT 10SM CLR 14/11 A2997 RMK AO1
KFDY 210653Z AUTO 28005KT 8SM BKN016 BKN022 OVC034 11/09 A2988 RMK AO2 SLP116 T01110089
KFEP 210655Z AUTO 34005KT 10SM CLR 06/04 A3007 RMK AO2 T00560039
KFET 210655Z AUTO 00000KT 10SM CLR 06/05 A3007 RMK AO2 T00620048
KFEW 210656Z AUTO 25001KT 10SM CLR 03/M01 A3004 RMK AO2 SLP124 T00271011 $
KFFA 210655Z AUTO 00000KT 10SM SCT049 SCT090 18/16 A2993 RMK AO2 T01770162
KFFC 210653Z AUTO 00000KT 7SM CLR 09/08 A3002 RMK AO2 SLP164 T00940083
KFFL 210655Z AUTO 35005KT CLR 06/04 A3005 RMK AO2
KFFM 210654Z AUTO 12007KT 10SM CLR 07/02 A3009 RMK AO2
KFFO 210658Z 32005KT 10SM FEW060 BKN075 11/10 A2991 RMK AO2A SLP131 T01120099
KFFT 210653Z AUTO 28003KT 10SM BKN060 11/09 A2994 RMK AO2 SLP136 T01110094
KFFX 210653Z AUTO 33006KT 10SM OVC014 07/06 A2997 RMK AO2 T00730056
KFFZ 210153Z VRB04KT 40SM FEW150 29/08 A2983
KFGN 210654Z AUTO 15014KT 10SM CLR 06/03 A3011 RMK AO2
KFGX 210655Z AUTO 25003KT 10SM CLR 10/09 A2993 RMK AO2 T00950088
KFHB 210655Z AUTO 22003KT 10SM CLR 22/20 A2995 RMK AO1
KFHR 210653Z AUTO 00000KT 5SM BR OVC002 12/11 A2977 RMK AO2 SLP080 T01170111
KFHU 210655Z 15005KT 10SM CLR 13/07 A3006 RMK SLP134
KFIG 210654Z AUTO 19003KT 2 1/2SM +RA BR BKN014 OVC020 08/07 A2984 RMK AO2 RAB03 SLP109 P0008 T00780072
KFIT 210652Z AUTO 00000KT 10SM SCT085 BKN120 08/04 A2999 RMK AO2 SLP158 T00780044 TSNO
KFKA 210655Z AUTO 00000KT 10SM CLR 05/03 A3009 RMK AO2 T00520029
KFKL 210655Z 23006KT 7SM OVC004 09/07 A2983 RMK AO1 P0004
KFKN 210655Z AUTO 00000KT 10SM SCT110 13/12 A2994 RMK AO1
KFKR 210655Z AUTO 00000KT 5SM HZ CLR A2999 RMK AO2
KFKS 210652Z AUTO 35007KT 10SM -DZ BKN015 OVC023 09/06 A2998 RMK AO2 T00880058
KFLD 210653Z AUTO 36008KT 10SM OVC047 08/03 A3005 RMK AO2 SLP179 T00830028
KFLG 210657Z AUTO 00000KT 10SM CLR 04/02 A3018 RMK AO2 SLP152 T00390017 401780006 TSNO
KFLL 210653Z 00000KT 10SM FEW037 BKN055 BKN095 25/22 A2992 RMK AO2 SLP131 T02500222
KFLO 210653Z AUTO 30003KT 7SM CLR 13/12 A2996 RMK AO2 SLP142 T01280117 $
KFLP 210655Z AUTO 00000KT 1SM CLR 12/09 A3008 RMK AO1
KFLY 210654Z AUTO 00000KT 10SM CLR 07/05 A3019 RMK AO2 T00720045 401930032
KFME 210648Z AUTO 00000KT 10SM SCT075 SCT110 10/09 A2991 RMK AO1
KFMH 210655Z AUTO 00000KT 10SM FEW033 SCT065 BKN190 09/08 A3000 RMK AO2
KFMM 210655Z AUTO 14004KT 10SM CLR 11/04 A3004 RMK AO2 T01070044
KFMN 210653Z AUTO 10007KT 10SM FEW080 OVC110 13/07 A3013 RMK AO2 SLP164 T01280067 402280061
KFMY 210653Z AUTO 00000KT 10SM CLR 24/21 A2991 RMK AO2 SLP131 T02390211
KFNB 210653Z AUTO 00000KT 10SM CLR 06/03 A3008 RMK AO2 SLP183 T00610033
KFNL 210655Z AUTO 34006KT 10SM CLR 08/03 A3005 RMK AO1
KFNT 210653Z AUTO 32010KT 10SM BKN017 OVC024 10/06 A2991 RMK AO2 SLP128 T01000061
KFOA 210655Z AUTO 30003KT 10SM CLR 08/06 A3001 RMK AO2 T00780060
KFOD 210655Z AUTO 00000KT 10SM CLR 03/02 A3009 RMK AO1
KFOE 210653Z AUTO 00000KT 10SM CLR 07/05 A3008 RMK AO2 SLP181 T00670050
KFOK 210653Z 00000KT 10SM BKN060 OVC075 12/08 A2996 RMK AO2 SLP145 T01220083
KFOT 210650Z AUTO 15005KT 5SM SCT048 10/10 A3005 RMK AO1
KFOZ 210653Z AUTO 11003KT 10SM OVC021 03/02 A3014 RMK AO2
KFPK 210655Z AUTO 33005KT 10SM OVC019 09/06 A2991 RMK AO2 T00900060
KFPR 210653Z AUTO 00000KT 10SM CLR 20/18 A2994 RMK AO2 SLP137 T02000183
KFQD 210655Z AUTO 32003KT 1SM BR BKN002 10/10 A2998 RMK AO2 T00950095
KFRG 210653Z 00000KT 10SM CLR 11/08 A2994 RMK AO2 SLP140 T01110078
KFRI 210558Z AUTO 02003KT 10SM CLR 08/08 A3007 RMK AO2 SLP179 T00790077 10170 20071 402510066 58002
KFRM 210655Z AUTO 00000KT 10SM CLR 04/00 A3009 RMK AO1
KFRR 210655Z AUTO 00000KT 10SM OVC080 10/08 A2988 RMK AO1
KFSD 210656Z AUTO 00000KT 10SM CLR 05/02 A3006 RMK AO2 SLP181 T00500022
KFSE 210655Z AUTO 13007KT 10SM CLR 03/02 A3009 RMK AO2
KFSI 210658Z AUTO 19002KT 10SM CLR 18/15 A3004 RMK AO2 SLP165 T01750148
KFSM 210653Z AUTO 00000KT 7SM OVC044 16/14 A3006 RMK AO2 SLP178 T01560144
KFSO 210655Z AUTO 00000KT 10SM BKN045 OVC050 07/04 A2992 RMK AO2 T00660035
KFST 210653Z AUTO 12008KT 10SM CLR 17/14 A3006 RMK AO2 SLP142 T01720144 PNO $
KFSW 210655Z AUTO 00000KT 10SM CLR 09/06 A3005 RMK AO2
KFTK 210658Z AUTO 26004KT 10SM CLR 09/07 A2996 RMK AO2 SLP147 T00930073
KFTN 210750Z AUTO 11004KT 10SM OVC075 22/18 A3000 RMK AO1
KFTW 210653Z 12003KT 10SM CLR 20/14 A3004 RMK AO2 SLP164 T02000144
KFTY 210653Z 00000KT 9SM CLR 11/09 A3001 RMK AO2 SLP158 T01060094
KFUL 210653Z 08003KT 10SM CLR 19/16 A2990 RMK AO2 SLP122 T01890156 $
KFVE 210653Z AUTO 25006KT 10SM CLR M02/M04 A2995 RMK AO2 SLP150 T10171044
KFVX 210655Z AUTO 20003KT 10SM SCT060 SCT075 10/09 A2989 RMK AO2
KFWA 210654Z 28005KT 10SM FEW050 FEW065 08/05 A2995 RMK AO2 SLP142 T00830050
KFWB 210655Z AUTO 00000KT M1/4SM FG BKN042 13/13 A3009 RMK AO2
KFWC 210655Z AUTO 00000KT 10SM CLR 07/07 A2999 RMK AO1 T00730067
KFWN 210653Z AUTO 00000KT 10SM -RA OVC070 09/07 A2991 RMK AO2 RAE04B27 SLP128 P0000 T00940067
KFWS 210655Z AUTO 00000KT 7SM CLR 14/13 A3006 RMK AO2 T01420129
KFWZ 210655Z AUTO 10SM CLR 08/M01 A3007 RMK AO2
KFXE 210653Z 34003KT 10SM OVC095 24/22 A2992 RMK AO2 SLP134 T02440222
KFXY 210655Z AUTO 04003KT 10SM CLR 05/04 A3009 RMK AO2
KFYG 210635Z AUTO 32003KT 10SM FEW041 07/06 A3004 RMK AO2
KFYJ 210655Z AUTO 00000KT 10SM SCT070 OVC080 15/11 A2993 RMK AO2 T01520112
KFYM 210655Z AUTO 10SM CLR 08/07 A3002 RMK
KFYV 210653Z AUTO 00000KT 1/4SM FG VV002 11/11 A3009 RMK AO2 SLP186 T01060106
KFZG 210655Z AUTO 00000KT 7SM BKN050 14/13 A3001 RMK AO2 T01440130
KFZY 210654Z AUTO VRB03KT 10SM -RA SCT041 BKN050 OVC060 09/08 A2984 RMK AO2 SLP104 P0002 T00940078
KGAD 210655Z 00000KT 10SM CLR 09/07 A3003 RMK AO1
KGAF 210655Z AUTO 14008KT 10SM CLR 04/03 A3004 RMK AO2
KGAG 210653Z AUTO 12005KT 5SM BR CLR 15/14 A3006 RMK AO2 SLP160 T01500144
KGAI 210655Z 00000KT 10SM FEW110 11/09 A2992 RMK AO1
KGBD 210655Z AUTO 00000KT 10SM CLR 08/04 A3009 RMK AO1
KGBG 210655Z AUTO 00000KT 10SM CLR 05/04 A3004 RMK AO2 T00480038
KGBK 210655Z AUTO 07011G17KT 030V090 10SM FEW031 FEW045 28/20 A2993 RMK A01
KGCC 210653Z AUTO 20014KT 10SM CLR 14/00 A2987 RMK AO2 SLP073 T01390000 402610072 $
KGCD 210655Z AUTO 16004KT 10SM SCT040 OVC100 08/07 A2991 RMK AO2 T00810073
KGCK 210654Z AUTO 14006KT 10SM CLR 11/06 A3009 RMK AO2 SLP169 T01060056
KGCM 210655Z AUTO 00000KT 2 1/2SM BR CLR 12/12 A3010 RMK AO2
KGCN 210654Z AUTO 00000KT 10SM FEW080 03/M01 A3016 RMK AO2 SLP156 T00281006 402000000
KGDB 210652Z AUTO 09004KT 7SM CLR 05/02 A3010 RMK AO2 T00500021
KGDJ 210655Z AUTO 00000KT 10SM CLR 16/14 A3006 RMK AO2 T01590137
KGDP 210651Z AUTO 06012KT 9SM BKN009 BKN012 OVC019 13/12 A3017 RMK AO2 PK WND 04028/0612 SLP165 T01330117 401610122
KGDV 210655Z AUTO 00000KT 10SM CLR 08/04 A2979 RMK AO1
KGED 210654Z AUTO 00000KT 10SM BKN065 12/08 A2993 RMK AO2 SLP133 T01220078
KGEG 210653Z 20011KT 10SM OVC070 11/08 A2983 RMK AO2 RAE49 SLP096 P0001 T01060078
KGEU 210250Z 00000KT 20SM FEW070 26/12 A2983 RMK LAST
KGEV 210655Z AUTO 30005KT 10SM BKN027 OVC033 12/06 A2998 RMK AO2 T01150055
KGEY 210653Z AUTO 03005KT 10SM CLR 06/M03 A2985 RMK AO2 SLP094 T00611033 402500006
KGEZ 210653Z AUTO 32006KT 10SM FEW060 09/07 A2996 RMK AO2 SLP143 T00940072
KGFA 210656Z AUTO 20012KT 10SM CLR 16/01 A2969 RMK AO2 SLP034 T01620011
KGFK 210653Z AUTO 14008KT 10SM CLR 05/03 A3005 RMK AO2 SLP181 T00500028 TSNO
KGFL 210653Z AUTO 00000KT 10SM FEW065 FEW090 SCT120 07/04 A2992 RMK AO2 SLP136 T00670044
KGGE 210655Z AUTO 00000KT 10SM CLR 12/12 A2996 RMK AO2
KGGG 210653Z AUTO 00000KT 10SM CLR 14/12 A3004 RMK AO2 SLP169 T01390122
KGGI 210655Z AUTO 00000KT 10SM CLR 06/04 A3007 RMK AO2 T00580038
KGGP 210655Z AUTO 33005KT 10SM OVC050 10/06 A2998 RMK AO2
KGGW 210653Z AUTO 10011KT 10SM CLR 09/03 A2972 RMK AO2 SLP064 T00940028 402330050
KGHB 210700Z AUTO 07015KT 10SM FEW024 FEW029 25/20 A2996 RMK A01
KGHG 210630Z AUTO 00000KT 10SM BKN046 OVC070 A3001 RMK AO2
KGHW 210653Z AUTO 07006KT 10SM CLR 03/02 A3010 RMK AO2
KGIC 210655Z AUTO 34010KT 10SM OVC035 10/04 A2991 RMK AO1 T00970042 403111008
KGIF 210653Z AUTO 16004KT 10SM CLR 23/20 A2996 RMK AO2 SLP142 T02330200
KGJT 210653Z AUTO 12007KT 10SM BKN100 OVC110 15/04 A3004 RMK AO2 SLP121 T01500039 402220050
KGKJ 210653Z AUTO 25005KT 4SM -RA BR OVC002 09/08 A2981 RMK AO2 SLP097 P0004 T00940083 TSNO
KGKT 210655Z AUTO 00000KT 10SM CLR 10/08 A3000 RMK
KGKY 210653Z AUTO 00000KT 8SM CLR 14/13 A3004 RMK AO2 SLP167 T01440128 $
KGLD 210653Z AUTO 21008KT 10SM CLR 11/04 A3011 RMK AO2 SLP168 T01110044 402440039
KGLE 210655Z 10SM CLR 17/15 A3007 RMK AO2 T01690147
KGLH 210653Z AUTO 00000KT 8SM CLR 12/11 A3004 RMK AO2 SLP179 T01220111
KGLR 210653Z AUTO 03009KT 10SM SCT009 OVC018 06/04 A2995 RMK AO2 SLP149 T00610044
KGLS 210652Z AUTO 03008KT 9SM CLR 21/18 A3001 RMK AO2 SLP161 T02060178
KGLW 210655Z AUTO 00000KT 10SM CLR 09/09 A2999 RMK AO2 T00930092
KGLY 210655Z AUTO 00000KT 10SM CLR 08/07 A3009 RMK AO2
KGMJ 210655Z AUTO 00000KT 1/2SM FG VV005 11/11 A3009 RMK AO2
KGMU 210653Z AUTO 27003KT 10SM CLR 12/10 A2998 RMK AO2 SLP146 T01220100
KGNA 210656Z AUTO 04007KT 05/00 A3019 RMK AO1 SLP229 T00500000 $
KGNC 210655Z AUTO 00000KT 10SM SCT050 14/11 A3012 RMK AO2 T01350106
KGNR 210656Z AUTO 36003KT 04/00 A2996 RMK AO1 SLP157 T00440000
KGNT 210656Z AUTO 20005KT 10SM CLR 08/04 A3021 RMK AO2
KGNV 210653Z AUTO 26003KT 10SM CLR 18/17 A2997 RMK AO2 SLP146 T01780172
KGOK 210653Z AUTO 13006KT 10SM CLR 18/16 A3005 RMK AO2 SLP169 T01780156
KGON 210656Z AUTO 34005KT 10SM SCT041 BKN075 10/09 A2995 RMK AO2 RAB24E33 SLP143 P0000 T01000089
KGOO 210700Z AUTO 14004KT 10SM CLR 08/07 A3007 RMK AO1
KGOP 210655Z AUTO 00000KT 10SM CLR 16/14 A3007 RMK AO2
KGOV 210655Z AUTO 03007KT 5SM BR OVC008 08/08 A2995 RMK AO2 T00800077
KGPH 210655Z AUTO 00000KT 10SM CLR 06/06 A3008 RMK AO2
KGPI 210655Z AUTO 00000KT 10SM CLR 03/02 A2971 RMK AO2 SLP066 T00280022 402221028
KGPM 210655Z AUTO 00000KT 10SM CLR 19/15 A3006 RMK AO2 T01860150
KGPT 210653Z 00000KT 10SM CLR 13/11 A3001 RMK AO2 SLP161 T01280111
KGPZ 210655Z AUTO 00000KT 10SM BKN023 01/M01 A3013 RMK AO1
KGRB 210653Z AUTO 35008KT 10SM OVC049 07/03 A3006 RMK AO2 SLP182 T00720033
KGRD 210656Z AUTO 28004KT 10SM CLR 13/11 A2999 RMK AO2 SLP150 T01280106
KGRF 210658Z AUTO 15003KT 10SM CLR 10/10 A2980 RMK AO2 SLP095 P0000 T01030101 $
KGRI 210653Z AUTO 16006KT 10SM CLR 09/04 A3007 RMK AO2 SLP179 T00940039
KGRK 210655Z 00000KT 7SM FEW200 18/14 A3005 RMK SLP173
KGRR 210653Z AUTO 33007KT 10SM OVC017 09/06 A2995 RMK AO2 SLP143 T00890061
KGRY 210655Z AUTO VRB06G13KT 10SM SCT028 27/20 A2995 RMK A01
KGSB 210658Z AUTO 00000KT 10SM BKN150 14/13 A2993 RMK AO2 SLP138 T01360133 $
KGSH 210653Z AUTO 32006KT 10SM OVC047 09/06 A2996 RMK AO2 SLP145 T00940056 $
KGSO 210654Z 24004KT 10SM FEW065 SCT110 13/10 A2994 RMK AO2 SLP133 T01330100
KGSP 210653Z AUTO 00000KT 10SM CLR 12/11 A2996 RMK AO2 SLP138 T01170106
KGTB 210658Z AUTO 15009KT 10SM BKN030 OVC048 08/06 A2983 RMK AO2 RAE0620DZB0620E0634 SLP105 P0001 T00790064
KGTF 210653Z 19013KT 10SM CLR 16/01 A2968 RMK AO2 SLP022 T01610011 402560117
KGTR 210655Z AUTO 00000KT 10SM CLR 09/07 A3003 RMK AO1
KGTU 210655Z 00000KT 10SM CLR 15/13 A3004 RMK AO1
KGUC 210655Z AUTO 00000KT 10SM CLR 03/M02 A3027 RMK AO1
KGUL 210655Z AUTO 10SM CLR 26/21 A2993 RMK A01
KGUP 210653Z AUTO 00000KT 10SM CLR 06/04 A3018 RMK AO2 SLP144 T00610044 401890028
KGUR 210655Z AUTO 00000KT 10SM CLR 10/05 A2998 RMK AO2 T00970049 PWINO
KGUS 210658Z AUTO 32007KT 10SM OVC050 10/10 A2996 RMK AO2 SLP148 T01010101
KGUY 210653Z AUTO 00000KT 10SM CLR 12/11 A3008 RMK AO2 SLP155 T01220111
KGVL 210653Z AUTO 28003KT 10SM CLR 12/12 A3002 RMK AO2 SLP155 T01220117
KGVT 210655Z AUTO 00000KT 10SM CLR 15/13 A3005 RMK AO2
KGVX 210655Z AUTO 06013KT 10SM FEW023 FEW039 25/18 A2998 RMK A01
KGWB 210655Z AUTO 31004KT 10SM SCT055 08/05 A2995 RMK AO2
KGWO 210653Z AUTO 00000KT 9SM CLR 11/09 A3005 RMK AO2 SLP173 T01060094 TSNO
KGWR 210655Z AUTO 13008KT 10SM CLR 07/03 A3004 RMK A01 P000
KGWW 210655Z AUTO 00000KT 10SM CLR 13/13 A2995 RMK AO2 T01330128
KGXA 210655Z AUTO 25005KT 10SM CLR 16/07 A2997 RMK AO2 SLP120 T01560066 TSNO $
KGXF 210355Z COR 20001KT 10SM CLR 24/10 A2984 RMK SLP093 LAST COR 0447
KGXY 210655Z AUTO 00000KT 10SM CLR 07/00 A3003 RMK AO1
KGYB 210655Z AUTO 00000KT 10SM CLR 16/14 A3006 RMK AO2 T01640142
KGYH 210655Z AUTO 00000KT 7SM CLR 08/08 A2998 RMK AO2
KGYI 210655Z AUTO 00000KT 10SM CLR 17/16 A3006 RMK AO2 T01690156
KGYL 210654Z AUTO 00000KT 10SM CLR 04/03 A3010 RMK AO2 T00360028
KGYR 210347Z 00000KT 10SM SKC 24/12 A2985 RMK LAST
KGYY 210655Z AUTO 35010KT 10SM SCT024 SCT032 OVC050 12/06 A3001 RMK AO2 T01230064
KGZH 210653Z AUTO 00000KT 8SM CLR 10/09 A3002 RMK AO2 SLP162 T01000089
KGZL 210635Z AUTO 00000KT 6SM BR BKN048 14/13 A3007 RMK AO2
KH21 210655Z AUTO 00000KT 10SM CLR 11/07 A3008 RMK AO2
KHAE 210635Z AUTO 30003KT 10SM CLR 11/05 A3005 RMK AO2
KHAF 210655Z AUTO 00000KT 2 1/2SM BR OVC003 12/12 A3007 RMK AO2
KHAI 210654Z AUTO 33006KT 10SM OVC060 09/06 A2995 RMK AO2 T00870058
KHAO 210653Z AUTO 29003KT 10SM OVC065 12/10 A2993 RMK AO2 SLP135 T01170100
KHBG 210653Z AUTO 00000KT 10SM CLR 12/11 A3004 RMK AO2 SLP169 T01170106
KHBI 210655Z AUTO 00000KT 10SM CLR 13/11 A2998 RMK AO2 T01260105
KHBR 210653Z AUTO 20008KT 10SM CLR 16/13 A3006 RMK AO2 SLP165 T01610133
KHBV 210655Z AUTO 00000KT 7SM CLR 21/20 A2999 RMK AO2 T02050196 PWINO
KHCD 210653Z AUTO 05003KT 10SM CLR 04/03 A3012 RMK AO2 T00420031
KHCO 210652Z AUTO 14008KT 10SM CLR 05/03 A3005 RMK AO2
KHDC 210655Z AUTO 00000KT 10SM CLR 12/10 A3003 RMK AO2
KHDE 210655Z AUTO 00000KT 10SM CLR 10/05 A3007 RMK AO2 T01010048
KHDN 210655Z AUTO 12009KT 10SM CLR 07/01 A3012 RMK AO1
KHDO 210651Z AUTO 06004KT 10SM CLR 18/14 A3005 RMK AO2 SLP163 T01780139
KHEF 210655Z 00000KT 10SM FEW100 BKN120 11/11 A2988 RMK AO1
KHEI 210653Z AUTO 12007KT 10SM CLR 08/03 A2985 RMK AO2 SLP101 T00830033 402281011
KHEQ 210655Z AUTO 20007KT 10SM CLR 08/03 A3006 RMK AO2
KHEY 210653Z AUTO 00000KT 10SM CLR 11/10 A3000 RMK AO2 SLP047 T01110100
KHEZ 210655Z AUTO 00000KT 10SM CLR 12/10 A3004 RMK AO1
KHFD 210653Z AUTO 10SM CLR 08/07 A2995 RMK AO2 SLP143 T00830067 $
KHFF 210656Z AUTO 13001KT 10SM OVC095 12/12 A2997 RMK AO2 SLP149 T01210115
KHFJ 210655Z AUTO 00000KT M1/4SM FG OVC004 12/12 A3008 RMK AO2
KHGR 210653Z AUTO 00000KT 10SM BKN049 OVC055 12/09 A2987 RMK AO2 SLP125 T01170094
KHHF 210655Z AUTO 00000KT 7SM CLR 14/14 A3006 RMK AO2 T01410135
KHHG 210655Z AUTO 31003KT 10SM BKN060 09/07 A2995 RMK AO2 T00910069
KHHR 210653Z AUTO 00000KT 10SM SCT015 20/17 A2990 RMK AO2 SLP125 T02000172
KHHV 210655Z AUTO 08021KT 10SM CLR 28/21 A2993 RMK A01
KHHW 210655Z AUTO 00000KT 10SM CLR 17/15 A3005 RMK AO2 T01670151
KHIB 210653Z AUTO 11005KT 10SM OVC021 06/02 A3014 RMK AO2 SLP217 T00610017
KHIE 210652Z AUTO 00000KT 10SM OVC070 03/02 A2995 RMK AO2 SLP151 T00330017
KHIF 210658Z AUTO 16008KT 10SM BKN100 OVC120 17/03 A2991 RMK AO2 SLP076 T01650031 402400093
KHII 210655Z AUTO 13004KT 10SM CLR 25/07 A2981 RMK AO2
KHIO 210653Z 16009KT 10SM FEW043 OVC060 12/11 A2986 RMK AO2 SLP110 T01220111
KHJH 210655Z AUTO 00000KT 10SM CLR 05/04 A3008 RMK AO2 T00540036
KHJO 210653Z AUTO 32015KT 10SM -RA FEW070 17/10 A3000 RMK AO2 RAB38 SLP160 P0000 T01720100
KHKA 210653Z AUTO 00000KT 10SM CLR 13/12 A3003 RMK AO2 SLP168 T01280117
KHKS 210653Z AUTO 00000KT 10SM CLR 12/10 A3004 RMK AO2 SLP166 T01220100
KHKY 210653Z AUTO 27003KT 10SM CLR 11/10 A2996 RMK AO2 SLP130 T01110100 $
KHLC 210653Z AUTO 26004KT 10SM CLR 09/05 A3009 RMK AO2 SLP176 T00890050
KHLG 210653Z AUTO 23005KT 10SM OVC017 09/08 A2986 RMK AO2 RAE05 SLP115 P0000 T00940083
KHLN 210653Z AUTO VRB03KT 10SM CLR 13/02 A2973 RMK AO2 SLP063 T01280022 402440028
KHLR 210656Z 00000KT 10SM CLR 17/15 A3005 RMK AO2 SLPNO T01720150 $
KHLX 210655Z AUTO 29008KT 10SM OVC060 12/08 A2997 RMK AO2 T01170076
KHMN 210658Z AUTO 00000KT 10SM CLR 13/13 A3008 RMK AO2 SLP137 T01310131 402140118 $
KHNB 210655Z AUTO 00000KT 10SM CLR 11/06 A2999 RMK AO1
KHND 210656Z AUTO 15005KT 10SM CLR 22/05 A2988 RMK AO2 T02220050 403110166 SLP098
KHNR 210655Z AUTO 00000KT 10SM CLR 04/04 A3010 RMK AO2
KHNZ 210655Z AUTO 21004KT 10SM SCT120 12/09 A2994 RMK AO2 T01190092
KHOB 210655Z AUTO 03004KT 10SM CLR 15/15 A3012 RMK AO2
KHOE 210655Z AUTO 00000KT 10SM CLR 17/17 A2998 RMK AO2
KHON 210655Z AUTO 14007KT 10SM CLR 08/02 A3002 RMK AO2 SLP165 T00830017
KHOP 210658Z AUTO 29001KT 10SM CLR 12/12 A3001 RMK AO2 SLP162 T01180118
KHOT 210653Z AUTO 00000KT 9SM CLR 12/11 A3006 RMK AO2 SLP177 T01220111
KHOU 210653Z 00000KT 10SM BKN250 19/15 A3000 RMK AO2 SLP164 T01890150
KHPN 210656Z 00000KT 10SM FEW047 SCT120 09/06 A2993 RMK AO2 SLP135 T00940061
KHQM 210653Z AUTO 13011KT 9SM SCT020 BKN032 OVC040 14/13 A2978 RMK AO2 RAB03E13B42E52 SLP086 P0000 T01390128
KHQU 210655Z AUTO 00000KT 10SM CLR 11/11 A3003 RMK AO1 T01090109
KHQZ 210655Z AUTO 00000KT 10SM CLR 15/14 A3005 RMK AO1 T01510136
KHRI 210653Z AUTO 18005KT 10SM SCT080 12/10 A2986 RMK AO2 SLP108 T01170100
KHRJ 210655Z AUTO 00000KT 10SM BKN100 14/13 A2995 RMK AO2 T01350132
KHRL 210652Z AUTO 02005KT 10SM FEW060 22/22 A2992 RMK AO2 SLP130 T02220217
KHRO 210653Z AUTO 34004KT 4SM BR CLR 13/12 A3008 RMK AO2 SLP180 T01280122
KHRT 210658Z AUTO 01005KT 10SM CLR 14/11 A2998 RMK AO2 SLP154 T01380105 RVRNO $
KHRX 210655Z AUTO 21003KT 10SM CLR 12/11 A3013 RMK AO2 T01230111
KHSA 210155Z 00000KT 10SM CLR 15/13 A3002
KHSB 210655Z AUTO 00000KT 10SM CLR 08/07 A3002 RMK AO2 T00780067
KHSE 210651Z AUTO 26009G15KT 7SM -RA FEW043 OVC060 18/17 A2997 RMK AO2 WSHFT 0608 RAB10 SLP147 P0003 T01830167 TSNO
KHSI 210653Z AUTO 18006KT 10SM CLR 12/04 A3007 RMK AO2 SLP175 T01170039
KHSP 210655Z AUTO 26012KT 10SM BKN011 BKN015 BKN021 08/06 A2991 RMK AO2 T00810060
KHST 210658Z AUTO 18005KT 10SM FEW020 SCT030 SCT035 24/23 A2992 RMK AO2 LTG DSNT S SLP135 T02380227
KHSV 210653Z AUTO 10003KT 10SM CLR 11/09 A3003 RMK AO2 SLP164 T01110089 $
KHTL 210653Z AUTO 01007KT 10SM OVC011 07/06 A2993 RMK AO2 CIG 008V012 SLP140 T00720061
KHTS 210651Z 23003KT 10SM SCT029 BKN038 OVC075 10/09 A2992 RMK AO2 SLP130 T01000094
KHUF 210653Z 26003KT 10SM BKN060 09/07 A2999 RMK AO2 SLP155 T00890072 $
KHUL 210653Z AUTO 00000KT 10SM CLR M02/M04 A3000 RMK AO2 SLP165 T10221039
KHUM 210655Z AUTO 00000KT 7SM CLR 14/14 A3000 RMK AO2 T01420136
KHUT 210652Z AUTO 00000KT 10SM CLR 11/07 A3008 RMK AO2 SLP171 T01060067
KHVE 210655Z AUTO 00000KT 10SM CLR 10/02 A3003 RMK AO2
KHVN 210653Z AUTO 36005KT 10SM CLR 11/06 A2994 RMK AO2 SLP139 T01110061
KHVR 210653Z AUTO 00000KT 10SM CLR 07/04 A2965 RMK AO2 SLP038 T00670039 402720000
KHVS 210655Z AUTO 00000KT 10SM BKN050 15/10 A2997 RMK AO2
KHWD 210654Z AUTO 00000KT 10SM CLR 14/13 A3007 RMK AO2 SLP190 T01440128
KHWO 210653Z AUTO 00000KT 10SM BKN070 OVC090 24/22 A2993 RMK AO2 SLP136 T02440217
KHWV 210656Z AUTO 00000KT 10SM CLR 11/08 A2995 RMK AO2 SLP142 T01110078 TSNO
KHWY 210655Z AUTO 00000KT 10SM SCT120 12/11 A2988 RMK AO2 T01200110
KHXD 210635Z AUTO 07008G24KT 1/2SM +TSRA OVC001 19/18 A2996 RMK AO2 LTG DSNT N AND SE P0139
KHYA 210656Z AUTO 20004KT 10SM BKN070 14/09 A2999 RMK AO2 SLP156 T01440094
KHYI 210655Z 00000KT 10SM CLR 17/12 A3004 RMK AO1
KHYR 210653Z AUTO 06006KT 10SM OVC028 07/03 A3013 RMK AO2 SLP211 T00720033
KHYS 210655Z AUTO 00000KT 10SM CLR 09/04 A3008 RMK AO1
KHYW 210655Z AUTO 00000KT 7SM CLR 11/11 A2996 RMK AO2
KHYX 210655Z AUTO 34007KT 10SM OVC024 09/06 A2990 RMK AO2
KHZE 210655Z AUTO 15015G22KT 10SM CLR 13/00 A2985 RMK AO2
KHZL 210655Z AUTO 14003KT 10SM OVC060 10/08 A2991 RMK AO2
KHZR 210655Z AUTO 00000KT 10SM CLR 13/12 A3002 RMK AO2 T01300122
KHZX 210641Z AUTO 00000KT 10SM CLR 00/M01 A3013 RMK AO2
KHZY 210700Z AUTO 25003KT 2 1/2SM BR BKN016 BKN022 OVC080 10/10 A2983 RMK AO2 T01000100
KI16 210655Z AUTO 1/2SM FG OVC001 09/09 A3000 RMK AO2 T00850085
KI35 210655Z AUTO 00000KT 5SM BKN026 BKN038 OVC055 08/08 A2998 RMK AO1
KI39 210655Z AUTO 22006KT 10SM CLR 11/09 A2995 RMK AO2
KI67 210655Z AUTO 00000KT 10SM CLR 11/08 A2993 RMK AO1
KI69 210655Z AUTO 35004KT 10SM OVC049 13/11 A2991 RMK AO1
KI75 210655Z AUTO 00000KT 10SM CLR 08/04 A3006 RMK AO2 T00770044
KIAB 210658Z AUTO 06004KT 10SM CLR 14/09 A3008 RMK AO2 SLP181 T01350086
KIAD 210652Z 18003KT 10SM BKN110 BKN140 12/09 A2988 RMK AO2 SLP118 T01170089
KIAG 210653Z AUTO 01003KT 4SM -RA BR BKN008 OVC011 11/10 A2977 RMK AO2 SLP085 P0008 T01060100
KIAH 210653Z 02004KT 10SM BKN250 16/13 A3001 RMK AO2 SLP162 T01610133
KIBM 210655Z AUTO 17010KT 10SM CLR 10/05 A3002 RMK AO2 T00990046 402450027
KICL 210655Z AUTO 00000KT 10SM CLR 03/03 A3009 RMK AO2
KICR 210653Z AUTO 18017KT 10SM CLR 17/05 A2994 RMK AO2 SLP128 T01670050
KICT 210653Z 00000KT 10SM CLR 13/08 A3007 RMK AO2 SLP176 T01280083
KIDA 210653Z AUTO 24007KT 10SM BKN100 09/03 A2987 RMK AO2 SLP086 T00890028 402330006
KIDI 210655Z AUTO 24003KT 7SM BKN018 BKN041 OVC055 10/09 A2989 RMK A01
KIDP 210655Z AUTO 00000KT 10SM CLR 11/10 A3007 RMK AO2
KIEN 210652Z AUTO 20014G21KT 10SM CLR 16/04 A2993 RMK AO2 SLP109 T01560044 402670000 PWINO $
KIER 210655Z AUTO 00000KT 10SM CLR 13/12 A3003 RMK AO2 T01250123
KIFA 210655Z AUTO 00000KT 10SM CLR 03/02 A3008 RMK AO2 T00340017
KIFP 210655Z AUTO 00000KT 10SM CLR 23/07 A2982 RMK AO2 PWINO
KIGM 210651Z AUTO 16008KT 10SM CLR 17/07 A2997 RMK AO2 SLP086 T01670067 402720117 $
KIGQ 210655Z AUTO 36005KT 10SM OVC050 11/07 A3000 RMK AO2 T01100066
KIGX 210656Z AUTO 00000KT 10SM OVC100 13/11 A2995 RMK AO2 SLP137 T01280106
KIIB 210655Z AUTO 05003KT 10SM CLR 03/03 A3007 RMK AO2
KIIY 210655Z AUTO 26005KT 10SM CLR 15/13 A2999 RMK AO2
KIJD 210652Z AUTO 00000KT 10SM CLR 05/03 A2998 RMK AO2 SLP152 T00500033
KIJX 210655Z AUTO 33004KT 10SM CLR 09/06 A3003 RMK AO2 T00900061
KIKK 210655Z AUTO 32003KT 10SM OVC060 10/08 A3002 RMK AO2 T01010077
KIKT 210655Z AUTO 06008KT 10SM SCT025 SCT034 24/19 A2996 RMK A01
KIKV 210655Z AUTO 02004KT 10SM CLR 05/05 A3007 RMK AO2
KIKW 210652Z AUTO 33006KT 10SM SCT015 SCT028 OVC033 09/06 A2991 RMK AO2 T00900060
KILE 210655Z AUTO 00000KT 10SM CLR 16/12 A3003 RMK AO1
KILG 210651Z 00000KT 10SM BKN080 OVC120 12/07 A2992 RMK AO2 SLP130 T01220072
KILM 210653Z 00000KT 10SM CLR 13/12 A2995 RMK AO2 SLP140 T01280122
KILN 210654Z AUTO 33005KT 6SM BR BKN050 BKN070 OVC090 11/09 A2991 RMK AO2 RAB02E11 SLP132 P0000 T01110094
KIML 210653Z AUTO 19006KT 10SM CLR 11/03 A3007 RMK AO2 SLP164 T01060028 402500022
KIMM 210715Z AUTO 00000KT 7SM FEW090 23/ A2994 RMK A01 P000
KIMT 210654Z AUTO 01010KT 10SM OVC012 05/03 A3007 RMK AO2 SLP194 T00500028
KIND 210654Z 32006KT 10SM OVC065 09/07 A2997 RMK AO2 SLP149 T00890072
KINF 210655Z AUTO 00000KT 10SM CLR 19/18 A2996 RMK AO2
KINJ 210655Z AUTO 00000KT 10SM CLR 17/13 A3005 RMK AO2 T01710133
KINK 210653Z AUTO 07004KT 10SM FEW031 16/16 A3006 RMK AO2 SLP146 T01610156
KINL 210655Z AUTO 10006KT 10SM OVC018 05/01 A3015 RMK AO2 SLP221 T00500011
KINS 210658Z AUTO 17001KT 10SM CLR 20/03 A2988 RMK AO2 SLP076 T02020032
KINT 210654Z AUTO 00000KT 10SM SCT049 OVC065 14/09 A2996 RMK AO2 SLP138 T01390094
KINW 210656Z AUTO 11004KT 10SM CLR 11/06 A3008 RMK AO2 SLP139 T01060056 402330056
KIOB 210655Z AUTO 24005KT 7SM CLR 10/09 A2995 RMK AO2
KIOW 210652Z AUTO 00000KT 10SM CLR 08/05 A3007 RMK AO2 SLP183 T00830050
KIPJ 210655Z AUTO 00000KT 1SM BR VV007 09/09 A2996 RMK AO2 VIS 1/2V3 T00910089
KIPL 210653Z AUTO 25004KT 10SM CLR 24/12 A2977 RMK AO2 SLP081 T02390122
KIPN 210655Z AUTO 06010KT 10SM FEW028 SCT036 25/20 A2996 RMK A01
KIPT 210654Z AUTO 00000KT 10SM OVC080 09/06 A2984 RMK AO2 RAB38E53 SLP107 P0000 T00940061
KIRK 210655Z AUTO 29003KT 10SM CLR 07/06 A3007 RMK AO2 SLP184 T00670061
KIRS 210655Z AUTO 32006KT 10SM OVC055 08/06 A2994 RMK AO2
KISM 210150Z 12004KT 10SM FEW055 24/20 A2999 RMK LAST
KISN 210652Z AUTO 00000KT 10SM CLR 10/04 A2980 RMK AO2 SLP089 T01000044
KISO 210655Z AUTO 00000KT 10SM CLR 12/12 A2995 RMK AO2 T01220116
KISP 210656Z AUTO 00000KT 10SM CLR 11/07 A2993 RMK AO2 SLP135 T01060072
KISQ 210654Z AUTO 35007KT 10SM BKN017 OVC024 06/05 A3003 RMK AO2 T00570045
KISW 210654Z AUTO 02006KT 10SM FEW025 OVC033 08/04 A3010 RMK AO2 SLP196 T00830039
KITH 210656Z AUTO 00000KT 10SM OVC048 08/06 A2985 RMK AO2 T00770061 RAE38 P0001 SLP114
KITR 210653Z AUTO 19011KT 10SM CLR 11/05 A3010 RMK AO2 SLP155 T01110050 402390028
KIWA 210649Z 12003KT 20SM SKC 19/12 A2989 RMK LAST
KIWD 210655Z AUTO 01004KT 10SM OVC018 05/02 A3012 RMK AO1
KIWI 210653Z AUTO 00000KT 10SM OVC070 06/04 A3003 RMK AO2 SLP168 T00560039
KIXA 210655Z AUTO 00000KT 10SM BKN100 12/11 A2993 RMK AO2
KIXD 210653Z AUTO 00000KT 10SM CLR 08/06 A3009 RMK AO2 SLP184 T00830061
KIYA 210650Z AUTO 00000KT 10SM CLR 14/12 A3001 RMK AO2 T01360124
KIZA 210655Z AUTO 00000KT 10SM OVC012 16/13 A2997 RMK AO2
KIZG 210654Z AUTO 00000KT 10SM OVC060 04/03 A3000 RMK AO2 RAB18E34 SLP162 P0000 T00440028
KJAC 210655Z AUTO 35004KT 10SM SCT090 02/M01 A3001 RMK AO1
KJAN 210654Z AUTO 00000KT 10SM CLR 10/09 A3004 RMK AO2 SLP170 T01000094
KJAS 210655Z AUTO 00000KT 7SM CLR 11/11 A3005 RMK AO2 T01120108
KJAX 210656Z 00000KT 10SM FEW250 18/18 A2996 RMK AO2 SLP144 T01780178
KJBR 210653Z AUTO 33004KT 10SM CLR 16/14 A3003 RMK AO2 SLP166 T01560139
KJCT 210651Z AUTO 30003KT 8SM CLR 14/12 A3007 RMK AO2 SLP151 T01390122
KJDD 210655Z AUTO 00000KT 3SM BR CLR 14/13 A3005 RMK AO2
KJDN 210648Z AUTO 27003KT 04/01 A2974 RMK AO1 SLP070 T00440006 402671006
KJEF 210653Z AUTO 00000KT 10SM CLR 07/06 A3007 RMK AO2 SLP171 T00720061
KJER 210653Z AUTO 08008KT 10SM -RA FEW060 SCT080 OVC100 17/03 A2975 RMK AO2 RAB14 SLP037 P0000 T01670028 402720089
KJES 210655Z AUTO 00000KT 10SM BKN021 BKN030 OVC036 20/19 A2997 RMK AO2
KJFK 210651Z 22004KT 10SM SCT050 BKN140 OVC210 13/08 A2994 RMK AO2 SLP139 T01330078
KJFX 210655Z AUTO 00000KT 6SM BR CLR 08/08 A3004 RMK A02 P-128
KJFZ 210655Z AUTO 25006KT 10SM BKN031 BKN039 OVC120 12/10 A2998 RMK AO2 T01240095
KJGG 210655Z AUTO 00000KT 10SM SCT090 16/13 A2993 RMK AO1
KJHW 210655Z AUTO 22006KT 7SM OVC003 08/07 A2980 RMK AO1 P0004
KJKA 210655Z AUTO 00000KT 10SM CLR 11/11 A3000 RMK AO2 T01100105
KJKJ 210654Z AUTO 12006KT 10SM CLR 07/06 A3007 RMK AO2
KJKL 210653Z AUTO VRB03KT 10SM SCT029 BKN038 BKN085 11/09 A2995 RMK AO2 RAB0557E15 SLP139 P0001 T01060089
KJLN 210653Z AUTO 18005KT 4SM BR CLR 11/11 A3009 RMK AO2 SLP184 T01110111
KJMR 210655Z AUTO 00000KT 10SM CLR 01/00 A3014 RMK AO2
KJMS 210656Z AUTO 14008KT 10SM CLR 08/04 A2999 RMK AO2 SLP159 T00780039
KJNX 210655Z AUTO 00000KT 10SM BKN100 11/11 A2995 RMK AO2
KJOT 210655Z AUTO 00000KT 10SM OVC050 09/05 A3002 RMK AO2 T00890053
KJQF 210655Z AUTO 00000KT 10SM CLR 10/09 A2999 RMK AO2
KJSO 210655Z AUTO 00000KT 10SM CLR 16/13 A3006 RMK AO2 T01640136
KJST 210654Z AUTO 21008KT 10SM BKN019 OVC024 09/06 A2985 RMK AO2 SLP109 T00940056
KJSV 210655Z AUTO 00000KT 7SM SCT046 15/14 A3007 RMK AO2
KJTC 210655Z AUTO 13004KT 10SM CLR 04/02 A3021 RMK AO2
KJVL 210655Z AUTO 01003KT 10SM OVC046 10/05 A3004 RMK AO2
KJVW 210635Z AUTO 5SM BR CLR 10/08 A3004 RMK AO2
KJWG 210655Z AUTO 00000KT 4SM BR CLR 15/15 A3007 RMK AO2 T01530153
KJWY 210655Z AUTO 00000KT 10SM CLR 15/15 A3006 RMK AO2 T01450145
KJXN 210656Z 33005KT 10SM BKN016 OVC028 08/06 A2991 RMK AO2 SLP133 T00830061
KJYG 210655Z AUTO 00000KT 10SM CLR 03/01 A3010 RMK AO2
KJYL 210655Z AUTO 00000KT 10SM CLR 16/16 A2998 RMK AO2 LTG DSNT SE T01580155
KJYM 210655Z AUTO 33006KT 10SM BKN028 OVC048 09/07 A2991 RMK AO2 T00890072
KJYO 210655Z AUTO 00000KT 10SM BKN110 12/11 A2989 RMK AO2
KJYR 210655Z AUTO 21005KT 10SM CLR 09/03 A3008 RMK AO2
KJZI 210655Z AUTO 00000KT 10SM BKN075 BKN085 19/18 A2995 RMK A02 LTG DSNT SW P000
KKLS 210655Z AUTO 16008KT 10SM OVC050 13/09 A2987 RMK AO1
KL18 210655Z AUTO 00000KT 10SM OVC009 18/16 A2992 RMK AO2
KL35 210655Z AUTO 00000KT 10SM CLR 05/M02 A3014 RMK AO2
KL38 210655Z AUTO 00000KT 10SM CLR 14/14 A3000 RMK AO2 T01350135
KLAA 210653Z AUTO 00000KT 8SM CLR 10/08 A3008 RMK AO2 SLP154 T01000078 402440028
KLAF 210654Z AUTO 31005KT 6SM BR CLR 07/06 A2999 RMK AO2 SLP154 T00670061 TSNO
KLAL 210655Z AUTO 00000KT 10SM SCT060 21/19 A2995 RMK AO2
KLAM 210655Z AUTO 20007KT 10SM SCT025 SCT033 11/06 A3027 RMK AO2 T01090057
KLAN 210653Z 33008KT 10SM OVC018 08/06 A2993 RMK AO2 SLP137 T00830056
KLAR 210653Z AUTO 19006KT 10SM CLR 03/M01 A3013 RMK AO2 SLP131 T00331006 402061011
KLAS 210656Z 18012KT 10SM BKN200 26/04 A2981 RMK AO2 SLP071 T02560044
KLAW 210653Z AUTO 00000KT 8SM CLR 15/13 A3005 RMK AO2 SLP168 T01500133
KLAX 210653Z 00000KT 10SM FEW011 19/18 A2990 RMK AO2 SLP122 T01940178
KLBB 210653Z 19005KT 10SM FEW140 FEW280 14/11 A3010 RMK AO2 SLP157 T01390106
KLBE 210655Z AUTO 20006KT 10SM FEW027 BKN034 OVC045 11/09 A2986 RMK A02 P000
KLBF 210653Z AUTO 14003KT 10SM CLR 08/03 A3005 RMK AO2 SLP163 T00830033
KLBL 210655Z AUTO 10006KT 10SM CLR 14/11 A3009 RMK AO1
KLBT 210654Z AUTO 00000KT 10SM CLR 13/12 A2995 RMK AO2 SLP140 T01280122
KLBX 210653Z AUTO 03005KT 10SM CLR 16/16 A3000 RMK AO2 SLP157 T01610161 $
KLCG 210655Z AUTO 00000KT 10SM CLR 03/01 A3008 RMK AO2 T00260009
KLCH 210653Z AUTO 05005KT 10SM CLR 15/12 A3002 RMK AO2 SLP172 T01500122
KLCI 210655Z AUTO 24003KT 10SM OVC065 07/05 A2997 RMK AO1
KLCK 210655Z AUTO 24003KT 7SM BKN095 08/08 A2988 RMK AO2 T00780075
KLCQ 210655Z AUTO 00000KT 1 1/4SM BR VV007 16/16 A2997 RMK AO2
KLDJ 210655Z AUTO 00000KT 10SM CLR 13/09 A2994 RMK AO2 T01320087
KLDM 210655Z AUTO 35006KT 10SM -RA SCT014 BKN021 OVC030 08/07 A2999 RMK AO2 T00750065
KLEB 210653Z AUTO 00000KT 10SM OVC075 07/04 A2995 RMK AO2 SLP143 T00670039
KLEE 210653Z AUTO 17003KT 10SM CLR 22/21 A2996 RMK AO2 SLP144 T02170206
KLEW 210655Z AUTO 17004KT 10SM OVC060 05/02 A3000 RMK AO1
KLEX 210654Z 25004KT 10SM BKN060 12/09 A2994 RMK AO2 SLP136 T01170094
KLFI 210658Z AUTO 23009KT 10SM CLR 16/14 A2993 RMK AO2 SLP142 T01620139 $
KLFK 210653Z AUTO 00000KT 9SM CLR 14/11 A3003 RMK AO2 SLP166 T01390111
KLFT 210653Z 02003KT 10SM CLR 14/13 A3001 RMK AO2 SLP163 T01440128
KLGA 210651Z 19004KT 10SM FEW050 BKN140 OVC200 14/07 A2992 RMK AO2 SLP133 T01390067
KLGB 210653Z AUTO 13003KT 10SM OVC015 19/17 A2990 RMK AO2 SLP124 T01890167 TSNO
KLGC 210655Z AUTO 00000KT 5SM BR CLR 11/10 A3002 RMK AO2 T01050100
KLGD 210655Z AUTO 01010KT 10SM OVC070 10/02 A2988 RMK AO1
KLGU 210651Z AUTO 00000KT 10SM CLR 07/03 A2989 RMK AO2 SLP094 T00720033 402390011 TSNO
KLHB 210655Z AUTO 00000KT 10SM CLR 17/15 A3004 RMK AO2 T01730151
KLHM 210655Z AUTO 15005KT 10SM CLR 11/07 A3003 RMK AO1
KLHQ 210653Z AUTO 11005KT 9SM OVC065 09/08 A2988 RMK AO2 SLP118 T00890078
KLHW 210658Z AUTO 00000KT 10SM OVC024 19/17 A2995 RMK AO2 SLP145 T01890174
KLHX 210653Z AUTO 09004KT 10SM CLR 11/08 A3009 RMK AO2 SLP148 T01110078 402440061
KLHZ 210655Z AUTO 00000KT 10SM OVC095 12/12 A2995 RMK AO2
KLIC 210655Z AUTO 17010KT 10SM CLR 11/07 A3013 RMK AO2 SLP146 T01060072 402170011
KLIT 210653Z 26004KT 10SM CLR 14/12 A3005 RMK AO2 SLP178 T01390117
KLJF 210653Z AUTO 00000KT 10SM CLR 06/04 A3011 RMK AO2
KLKR 210655Z AUTO 00000KT 10SM -RA FEW110 12/12 A2997 RMK AO2
KLKU 210655Z AUTO 17003KT 10SM SCT050 SCT070 BKN075 13/09 A2988 RMK AO2
KLKV 210655Z AUTO 17005KT 10SM CLR 02/01 A2997 RMK AO1
KLLJ 210655Z AUTO 30005KT 10SM FEW120 10/05 A2981 RMK AO2 SLP056 T01000050 402390000
KLLQ 210653Z AUTO 00000KT 9SM CLR 13/12 A3004 RMK AO2 SLP172 T01280117
KLMO 210653Z AUTO 00000KT 7SM CLR 08/04 A3005 RMK AO2 T00820043
KLMT 210653Z AUTO 18006KT 10SM SCT025 BKN046 04/02 A2997 RMK AO2 SLP137 T00390022
KLNC 210655Z AUTO 00000KT 10SM CLR 14/11 A3005 RMK AO2 T01370114
KLND 210653Z AUTO 00000KT 10SM CLR 13/M01 A2994 RMK AO2 SLP089 T01281006 402170033 TSNO
KLNK 210654Z 00000KT 9SM CLR 05/02 A3009 RMK AO2 SLP189 T00500022
KLNL 210655Z AUTO 01004KT 10SM BKN008 OVC016 04/03 A3012 RMK AO2 T00370030
KLNP 210655Z AUTO 25006KT 10SM SCT020 OVC100 10/10 A3000 RMK AO2
KLNR 210656Z AUTO 25003KT 10SM CLR 06/02 A3007 RMK AO2 SLP180 T00560022
KLNS 210653Z 10004KT 7SM -RA FEW047 SCT055 OVC070 11/10 A2989 RMK AO2 SLP122 P0003 T01110100
KLOL 210653Z AUTO 27009G15KT 10SM BKN075 OVC100 13/03 A2994 RMK AO2 SLP112 T01330028
KLOM 210655Z AUTO 00000KT 10SM SCT060 BKN075 11/08 A2990 RMK AO1
KLOR 210653Z AUTO 00000KT 6SM BR CLR 11/09 A3000 RMK AO2 SLP155 T01060094 TSNO $
KLOT 210655Z AUTO 36004KT 10SM OVC048 10/06 A3002 RMK AO2 T01020055
KLOU 210653Z AUTO 00000KT 10SM CLR 10/09 A2997 RMK AO2 SLP146 T01000089
KLOZ 210653Z AUTO 00000KT 10SM FEW075 10/08 A2997 RMK AO2 SLP146 T01000078
KLPC 210655Z AUTO 25004KT 10SM CLR 16/12 A2998 RMK AO1
KLPR 210653Z AUTO 36006KT 3SM -RA BR BKN006 OVC019 11/11 A2985 RMK AO2 RAE27B48 SLP108 P0002 T01110106 TSNO
KLQK 210655Z AUTO 7SM SCT075 08/09 A2997 RMK AO2 T00840085
KLRD 210656Z AUTO 00000KT 10SM FEW013 21/19 A3000 RMK AO2 T02110194 SLP149
KLRF 210658Z AUTO 25003KT 10SM CLR 12/10 A3004 RMK AO2 SLP174 T01150102
KLRJ 210655Z AUTO 00000KT 10SM CLR 02/02 A3007 RMK AO2
KLRO 210655Z AUTO 00000KT 8SM SCT042 BKN049 17/17 A2996 RMK AO2 PWINO PNO
KLRU 210655Z AUTO 36003KT 10SM SCT031 SCT039 BKN055 14/13 A3012 RMK AO2 T01380126
KLSB 210655Z AUTO 10SM SCT120 12/10 A3008 RMK AO2
KLSE 210653Z AUTO 00000KT 10SM CLR 05/03 A3009 RMK AO2 SLP192 T00500033
KLSF 210658Z AUTO 00000KT 1/2SM R33/1400FT FG CLR 10/10 A3000 RMK AO2 SLP161
KLSV 210658Z AUTO 18007KT 10SM CLR 24/06 A2983 RMK AO2 SLP080 T02410063 $
KLTS 210658Z AUTO 09004KT 10SM CLR 15/14 A3005 RMK AO2 SLP165 T01470138 $
KLUA 210655Z AUTO 00000KT 10SM SCT110 11/11 A2989 RMK AO2
KLUD 210655Z AUTO 18006KT 10SM CLR 19/14 A3006 RMK AO2 T01900136
KLUF 210658Z AUTO 36007KT 10SM CLR 20/11 A2985 RMK AO2 SLP097 T01980112 403080162 $
KLUK 210653Z 30003KT 10SM OVC050 13/09 A2993 RMK AO2 SLP133 T01330094
KLUM 210700Z AUTO 00000KT 10SM CLR 05/04 A3011 RMK AO2 T00510037
KLUX 210655Z AUTO 28005KT 10SM CLR 13/13 A2998 RMK AO2
KLVJ 210653Z AUTO 00000KT 10SM CLR 19/15 A3002 RMK AO2 SLP163 T01890150
KLVK 210653Z AUTO 31004KT 10SM CLR 14/11 A3006 RMK AO2 SLP178 T01390111
KLVL 210655Z AUTO 00000KT 10SM BKN100 12/10 A2993 RMK AO1 T01190098
KLVM 210653Z AUTO 26013KT 10SM CLR 17/02 A2981 RMK AO2 SLP049 T01720017 402560022
KLVN 210649Z AUTO 00000KT 7SM CLR 01/01 A3011 RMK AO2
KLVS 210653Z AUTO 24007KT 10SM CLR 08/06 A3024 RMK AO2 SLP164 T00780061 401940033
KLWA 210655Z AUTO 02004KT 10SM OVC050 09/07 A2997 RMK AO2 T00870071
KLWB 210655Z AUTO 00000KT 10SM BKN028 BKN035 OVC080 09/08 A2994 RMK AO2 T00910079
KLWC 210652Z AUTO 00000KT 9SM CLR 04/03 A3009 RMK AO2 SLP186 T00440033
KLWD 210653Z AUTO 28004KT 10SM CLR 09/04 A3007 RMK AO2 SLP181 T00890044
KLWM 210654Z AUTO 00000KT 10SM BKN120 08/05 A3001 RMK AO2 SLP162 T00830050
KLWS 210656Z AUTO 03005KT 10SM OVC065 13/07 A2985 RMK AO2 SLP104 T01330067
KLWT 210654Z AUTO 11004KT 10SM CLR 11/00 A2977 RMK AO2 SLP051 T01060000 402560050
KLWV 210653Z AUTO 32004KT 10SM CLR 08/07 A3000 RMK AO2 SLP156 T00830067
KLXL 210658Z AUTO 00000KT 5SM BR CLR 01/00 A3012 RMK AO2
KLXN 210655Z AUTO 00000KT 10SM CLR 10/05 A3006 RMK AO2 T01000050
KLXT 210653Z AUTO 00000KT 10SM CLR 13/07 A3008 RMK AO2 SLP184 T01280067
KLXV 210653Z AUTO 00000KT 10SM CLR 01/M02 A3032 RMK AO2 SLP145 T00061017 401331033
KLXY 210655Z AUTO 00000KT 10SM CLR 16/15 A3004 RMK AO2 T01620146
KLYH 210654Z 00000KT 10SM CLR 11/10 A2993 RMK AO2 SLP129 T01110100
KLYV 210654Z AUTO 00000KT 10SM CLR 04/02 A3008 RMK AO2
KLZZ 210655Z AUTO 00000KT 10SM CLR 15/14 A3005 RMK AO2 T01450136
KM19 210656Z AUTO 31003KT 9SM CLR 14/13 A3005 RMK AO2 T01380133 SLP172
KM25 210655Z AUTO 00000KT 10SM CLR 11/11 A3003 RMK AO2
KM30 210655Z AUTO 00000KT 10SM CLR 09/09 A3001 RMK AO2 T00920092
KM40 210655Z AUTO 00000KT 5SM HZ CLR 09/01 A3005 RMK AO2
KM63 210656Z AUTO M 10SM BKN055 BKN075 15/12 A3009 RMK AO2 SLP139 P0001 T01450118 402200124 $
KMAE 210653Z AUTO 10SM CLR 17/09 A3002 RMK AO2 SLP164 T01720094 $
KMAF 210653Z AUTO 16005KT 10SM CLR 17/11 A3008 RMK AO2 SLP150 T01670106
KMAI 210653Z AUTO 00000KT 10SM CLR 14/14 A2999 RMK AO2 SLP153 T01390139 $
KMAN 210655Z AUTO 33012G20KT 10SM FEW038 SCT055 BKN075 15/05 A2981 RMK AO1
KMAO 210655Z AUTO 00000KT 10SM CLR 14/14 A2996 RMK AO2
KMBG 210652Z AUTO 15012KT 10SM CLR 14/02 A2988 RMK AO2 SLP114 T01390022
KMBL 210655Z AUTO 35007KT 10SM BKN021 OVC026 08/05 A2999 RMK AO1
KMBS 210653Z 33009KT 10SM OVC022 09/06 A2991 RMK AO2 SLP131 T00940061
KMCB 210653Z AUTO 01004KT 10SM CLR 16/10 A3003 RMK AO2 SLP163 T01560100
KMCD 210658Z AUTO 03010G15KT 10SM OVC025 07/03 A2999 RMK AO2 T00660029
KMCE 210653Z AUTO 32010KT 10SM CLR 17/10 A3004 RMK AO2 SLP170 T01720100
KMCF 210658Z AUTO 03004KT 10SM CLR 21/18 A2994 RMK AO2 SLP142 T02080183
KMCI 210653Z 12003KT 10SM CLR 12/05 A3007 RMK AO2 SLP178 T01170050
KMCJ 210655Z AUTO 00000KT 10SM CLR 19/13 A2998 RMK AO1
KMCK 210653Z AUTO 23009KT 10SM CLR 10/04 A3007 RMK AO2 SLP170 T01000044
KMCN 210653Z AUTO 30003KT 7SM CLR 10/10 A3000 RMK AO2 SLP155 T01000100 TSNO
KMCO 210653Z 00000KT 10SM SCT040 BKN060 OVC140 22/20 A2996 RMK AO2 SLP143 T02220200
KMCW 210653Z AUTO 06004KT 10SM CLR 03/02 A3010 RMK AO2 SLP192 T00280022
KMCX 210655Z AUTO 33004KT 10SM OVC050 09/08 A2997 RMK AO2 T00900079
KMDD 210655Z AUTO 12005KT 10SM CLR 17/12 A3009 RMK AO2 T01720115
KMDH 210652Z AUTO 00000KT 4SM CLR 08/07 A3002 RMK AO2 SLP165 T00780067
KMDJ 210655Z AUTO 05012KT 10SM CLR 23/19 A3001 RMK A01
KMDQ 210655Z AUTO 00000KT 10SM CLR 07/05 A3003 RMK AO2
KMDS 210655Z AUTO 00000KT 10SM CLR 07/03 A3006 RMK AO2
KMDT 210656Z 14003KT 10SM BKN075 OVC095 11/10 A2988 RMK AO2 RAB42E52 SLP119 P0000 T01110100
KMDW 210653Z 35006KT 10SM FEW025 OVC050 12/07 A3001 RMK AO2 SLP161 T01170072
KMDZ 210655Z AUTO 03006KT 10SM SCT014 OVC030 06/04 A3010 RMK AO2 T00560035
KMEB 210652Z AUTO 00000KT 10SM FEW110 12/11 A2996 RMK AO2 SLP145 T01220111
KMEH 210656Z AUTO 00000KT 10SM FEW038 BKN070 OVC090 07/06 A2990 RMK AO2 RAB02E46 SLP110 P0000 T00670056
KMEI 210658Z AUTO 00000KT 10SM CLR 10/09 A3004 RMK AO2 SLP170 T01000089
KMEM 210654Z 00000KT 10SM FEW100 13/11 A3003 RMK AO2 SLP166 T01330111
KMER 210655Z AUTO 01006KT 10SM CLR 15/12 A3005 RMK AO1
KMEV 210655Z AUTO 24005KT 10SM FEW060 08/00 A3002 RMK AO2
KMEZ 210655Z AUTO 00000KT 3SM CLR 13/13 A3006 RMK AO2
KMFD 210652Z AUTO 00000KT 5SM BR OVC011 11/10 A2986 RMK AO2 SLP113 T01060100
KMFE 210653Z AUTO 35004KT 10SM SCT055 23/21 A2994 RMK AO2 SLP137 T02280211
KMFI 210654Z AUTO 04007KT 10SM BKN020 OVC029 07/04 A3008 RMK AO2 SLP193 T00720039
KMFR 210653Z AUTO 17004KT 10SM BKN055 10/07 A2998 RMK AO2 SLP150 T01000072
KMFV 210655Z AUTO 20005KT 10SM CLR 15/12 A2993 RMK AO2
KMGC 210655Z AUTO 35009G15KT 7SM -RA BKN019 BKN029 OVC050 10/06 A2999 RMK AO2
KMGE 210658Z AUTO 00000KT 10SM CLR 12/10 A3001 RMK AO2 SLP159 T01160102 $
KMGG 210655Z AUTO 00000KT 10SM CLR 02/02 A3013 RMK AO2 T00240018
KMGJ 210654Z AUTO 00000KT 10SM OVC100 08/05 A2992 RMK AO2 RAB0558E08 SLP132 P0000 T00780050 TSNO
KMGM 210653Z 00000KT 10SM CLR 11/09 A3001 RMK AO2 SLP162 T01060094
KMGN 210655Z AUTO 02007KT 10SM SCT021 OVC026 07/04 A2998 RMK AO2 T00720042
KMGR 210655Z AUTO 00000KT 7SM CLR 15/15 A3000 RMK AO2
KMGW 210653Z AUTO 21003KT 10SM FEW028 BKN035 OVC060 11/08 A2988 RMK AO2 SLP117 T01110083 TSNO
KMGY 210653Z AUTO 34004KT 9SM OVC075 11/09 A2991 RMK AO2 SLP125 T01110094
KMHE 210653Z AUTO 14005KT 10SM CLR 07/02 A3003 RMK AO2 SLP170 T00670017
KMHK 210652Z AUTO 00000KT 10SM CLR 06/04 A3008 RMK AO2 SLP184 T00560044 TSNO
KMHR 210555Z 00000KT 10SM SKC 12/11 A3003
KMHS 210656Z AUTO 00000KT 10SM BKN050 03/02 A3000 RMK AO2 SLP176 T00280017
KMHT 210653Z 00000KT 10SM OVC100 09/03 A2998 RMK AO2 SLP164 T00940028
KMHV 210655Z AUTO 28022G36KT 10SM 18/09 A2995 RMK AO1
KMIA 210653Z 00000KT 10SM SCT055 BKN100 OVC200 24/22 A2993 RMK AO2 SLP135 T02440217
KMIB 210658Z AUTO 14009KT 10SM CLR 07/03 A2986 RMK AO2 SLP119 T00690026 CHINO RWY29 $
KMIC 210653Z AUTO 00000KT 10SM CLR 03/02 A3011 RMK AO2 SLP200 T00330017
KMIE 210653Z AUTO 31006KT 10SM OVC050 09/08 A2995 RMK AO2 SLP137 T00940078
KMIS 210655Z AUTO 08009KT 10SM CLR 28/13 A2999 RMK A01
KMIV 210654Z AUTO 00000KT 10SM SCT050 11/09 A2992 RMK AO2 SLP130 T01060089
KMIW 210653Z AUTO 00000KT 10SM CLR 04/03 A3006 RMK AO2 SLP181 T00440028
KMJQ 210653Z AUTO 00000KT 10SM CLR 03/01 A3009 RMK AO2
KMJX 210655Z AUTO 00000KT 10SM CLR 07/04 A2993 RMK AO1
KMKC 210654Z AUTO 00000KT 10SM CLR 11/08 A3008 RMK AO2 SLP181 T01060083
KMKE 210652Z 34007KT 10SM OVC050 09/05 A3003 RMK AO2 SLP172 T00940050
KMKG 210655Z AUTO 34010KT 10SM OVC024 09/06 A2999 RMK AO2 SLP156 T00890056
KMKJ 210655Z AUTO 25006KT 10SM BKN030 11/09 A3000 RMK AO2 T01060090
KMKL 210653Z AUTO 23003KT 10SM FEW043 13/11 A3002 RMK AO2 SLP163 T01280106
KMKN 210655Z AUTO 12004KT 10SM CLR 16/15 A3007 RMK AO2 T01570145
KMKO 210653Z AUTO 04003KT 7SM CLR 15/14 A3008 RMK AO2 SLP180 T01500144
KMKS 210655Z AUTO 00000KT 7SM CLR 14/14 A2995 RMK AO2
KMKT 210655Z AUTO 10004KT 10SM CLR 07/02 A3010 RMK AO1
KMLB 210653Z AUTO 16003KT 10SM CLR 24/20 A2994 RMK AO2 SLP136 T02390200
KMLC 210653Z AUTO 00000KT 5SM BR FEW070 15/14 A3006 RMK AO2 SLP173 T01500139
KMLE 210655Z AUTO 00000KT 7SM CLR 07/06 A3007 RMK AO2 T00650059
KMLF 210652Z AUTO 20008KT 10SM CLR 12/03 A2998 RMK AO2 SLP101 T01220028 402500039 TSNO
KMLI 210652Z AUTO 00000KT 10SM CLR 04/03 A3005 RMK AO2 SLP179 T00440033
KMLJ 210655Z AUTO 00000KT 7SM CLR 12/12 A2999 RMK AO2
KMLP 210653Z AUTO 00000KT 1/4SM FG VV001 05/05 A2987 RMK AO2 SLP041 T00500050
KMLS 210653Z AUTO 14005KT 10SM CLR 13/06 A2976 RMK AO2 SLP067 T01330061 402500067
KMLT 210653Z AUTO 00000KT 10SM BKN075 01/M01 A3002 RMK AO2 SLP175 T00111006
KMLU 210653Z AUTO 00000KT 10SM CLR 13/13 A3004 RMK AO2 SLP173 T01330128
KMMH 210655Z AUTO 22021G30KT 10SM CLR 11/M12 A3005 RMK AO1
KMMI 210655Z AUTO 00000KT 3SM BKN002 07/07 A3003 RMK
KMMK 210653Z AUTO 31003KT 10SM CLR 07/05 A2995 RMK AO2 SLP144 T00670050 TSNO
KMML 210655Z AUTO 00000KT 10SM CLR 02/M01 A3006 RMK AO1
KMMT 210658Z AUTO 32004KT 10SM FEW060 11/11 A2997 RMK AO2 SLP151 T01140110
KMMU 210655Z AUTO 00000KT 10SM BKN080 07/06 A2992 RMK AO2
KMMV 210653Z AUTO 16007KT 10SM BKN048 OVC060 13/11 A2987 RMK AO2 RAB0557E06 SLP115 P0000 T01280106
KMNE 210655Z AUTO 00000KT 10SM CLR 13/12 A3004 RMK AO2
KMNH 210652Z AUTO 18010KT 10SM CLR 08/04 A3016 RMK AO2
KMNI 210655Z AUTO 00000KT 10SM CLR 13/ A2996 RMK AO2
KMNM 210655Z AUTO 01007KT 10SM OVC060 07/03 A3005 RMK AO1
KMNN 210653Z AUTO 30007KT 3SM BR OVC016 10/08 A2988 RMK AO2 SLP121 T01000083 TSNO
KMNZ 210655Z AUTO 14004KT 10SM CLR 17/14 A3007 RMK AO2 T01710137
KMOB 210656Z AUTO 35003KT 10SM CLR 12/11 A3002 RMK AO2 SLP161 T01170111
KMOD 210653Z AUTO 31005KT 10SM CLR 16/11 A3005 RMK AO2 SLP176 T01560111
KMOP 210658Z AUTO 32005KT 10SM OVC018 08/06 A2993 RMK AO2 T00820058
KMOR 210655Z AUTO 19003KT 10SM FEW032 12/10 A3000 RMK
KMOT 210654Z AUTO 10008KT 10SM CLR 07/01 A2986 RMK AO2 SLP115 T00720011
KMOX 210645Z AUTO 10007KT 10SM CLR 04/02 A3007 RMK AO2
KMPO 210653Z AUTO 23005KT 10SM -RA BKN045 OVC060 09/07 A2989 RMK AO2 RAB19 SLP127 P0000 T00940067 TSNO
KMPV 210651Z AUTO 00000KT 10SM OVC070 04/03 A2997 RMK AO2 SLP157 T00390028 $
KMPZ 210655Z AUTO 02004KT 10SM CLR 06/04 A3005 RMK AO2 T00640041
KMQB 210655Z AUTO 04004KT 10SM CLR 07/05 A3006 RMK AO2 T00680050
KMQE 210654Z AUTO 16007KT 10/07 A2998 RMK AO1 SLP163 T01000067
KMQI 210655Z AUTO 00000KT 10SM SCT044 BKN050 OVC085 16/15 A2994 RMK AO2 T01550150
KMQJ 210654Z AUTO 33006KT 10SM OVC065 09/09 A2997 RMK AO1
KMQS 210655Z AUTO 00000KT 8SM -RA FEW038 BKN047 BKN065 10/09 A2991 RMK AO2
KMQY 210656Z AUTO 00000KT 10SM CLR 08/08 A3002 RMK AO2 T00830083 SLP175
KMRB 210653Z AUTO 00000KT 6SM BR BKN060 OVC120 11/09 A2988 RMK AO2 SLP118 T01110089 TSNO
KMRC 210655Z AUTO 00000KT 8SM FEW041 BKN050 OVC075 A3000 RMK
KMRF 210655Z AUTO 09008KT 10SM FEW018 SCT048 OVC120 13/13 A3014 RMK AO1 LTG DSNT SW
KMRH 210658Z AUTO 09003KT 10SM FEW048 SCT060 BKN075 18/17 A2994 RMK AO2 RAB11E50 SLP138 P0001 T01780172 TSNO
KMRJ 210655Z AUTO 00000KT 10SM CLR 05/03 A3007 RMK AO2
KMRN 210655Z AUTO 00000KT 2SM BR CLR 07/07 A3001 RMK AO2 VIS 1V5 T00670067
KMRT 210654Z AUTO 31004KT 7SM SCT018 BKN070 BKN085 10/08 A2990 RMK AO2 T00950081
KMRY 210654Z AUTO 09003KT 10SM CLR 12/11 A3008 RMK AO2 SLP196 T01220106
KMSL 210653Z AUTO 00000KT 7SM CLR 09/08 A3004 RMK AO2 SLP170 T00940083
KMSN 210653Z AUTO 34004KT 10SM OVC044 09/04 A3006 RMK AO2 SLP180 T00890044
KMSO 210653Z AUTO 03003KT 10SM BKN110 08/04 A2976 RMK AO2 SLP076 T00830044 402111011
KMSP 210653Z 00000KT 10SM CLR 06/04 A3012 RMK AO2 SLP201 T00560039
KMSS 210653Z AUTO 08008KT 7SM -RA SCT026 BKN040 OVC055 07/05 A2990 RMK AO2 RAB20 SLP129 P0000 T00670050
KMSV 210655Z AUTO 06004KT 10SM FEW042 FEW048 BKN060 07/06 A2991 RMK AO1
KMSY 210653Z 00000KT 10SM FEW250 17/13 A3000 RMK AO2 SLP162 T01720128
KMTC 210658Z AUTO 31006KT 10SM OVC012 09/09 A2986 RMK AO2 OVC V BKN SLP117 T00920091 $
KMTH 210653Z AUTO 19005KT 10SM CLR 24/ A2990 RMK AO2 RAE23 SLP124 P0001 T0244 $
KMTJ 210653Z AUTO 13009KT 10SM OVC110 12/03 A3013 RMK AO2 SLP141 T01170033 402330056
KMTN 210645Z AUTO 00000KT 10SM -DZ SCT010 SCT014 SCT050 12/12 A2991 RMK AO2 P0001
KMTO 210653Z AUTO 36003KT 10SM CLR 08/06 A3000 RMK AO2 SLP158 T00830056
KMTP 210654Z AUTO 20006KT 17/11 A2997 RMK AO1 SLP147 T01670106
KMTV 210655Z AUTO 00000KT 10SM CLR 09/09 A2996 RMK AO2 T00860086
KMTW 210656Z AUTO 34009KT 10SM BKN019 OVC050 08/06 A3004 RMK AO2 SLP199 T00780056
KMUI 210658Z AUTO 02001KT 4SM BR OVC065 10/10 A2989 RMK AO2 SLP125 P0001 T01000100 $
KMUO 210658Z AUTO 32032G38KT 8SM R30/5500FT -RA FEW018 BKN095 OVC110 17/05 A2973 RMK AO2 RAB0634E0650DZB0650 SLP045 P0000 T01660051 402750115
KMUT 210655Z AUTO 00000KT 10SM CLR 07/05 A3006 RMK AO2
KMVE 210654Z AUTO 15007KT 10SM CLR 04/02 A3009 RMK AO2
KMVL 210654Z AUTO 00000KT 10SM OVC060 04/02 A2996 RMK AO2 SLP149 T00390022
KMVN 210655Z AUTO 00000KT 7SM CLR 07/04 A3001 RMK AO1
KMVY 210653Z AUTO 22005KT 10SM OVC070 15/11 A3000 RMK AO2 SLP159 T01500106
KMWA 210655Z AUTO 20003KT 10SM CLR 10/08 A3002 RMK AO2
KMWC 210655Z AUTO 35006KT 10SM OVC050 08/03 A3004 RMK AO2
KMWH 210652Z 18013KT 10SM FEW007 11/09 A2981 RMK AO2 SLP094 T01060094
KMWK 210655Z AUTO 00000KT 10SM BKN080 10/09 A2996 RMK AO2 T00980085
KMWL 210653Z AUTO 15004KT 7SM CLR 17/14 A3004 RMK AO2 SLP161 T01720139
KMWM 210654Z AUTO 00000KT 10SM CLR 02/00 A3009 RMK AO2
KMWN 210647Z 28024KT 1/16SM FZFG VV000 M03/M03 RMK VRY LGT ICG
KMWO 210655Z AUTO 00000KT 10SM SCT075 BKN080 13/09 A2993 RMK AO2 T01250086
KMWS 210645Z 24504G05KT 13/00 RMK SNOW DEPTH 3.00
KMWT 210700Z AUTO 00000KT 3SM BR OVC002 12/12 A3004 RMK AO2 T01220117
KMXF 210658Z AUTO 00000KT 9SM CLR 12/12 A3001 RMK AO2 SLP164 T01150115
KMXO 210655Z AUTO 00000KT 10SM CLR 03/03 A3007 RMK AO2
KMYF 210653Z AUTO 36003KT 10SM OVC013 20/16 A2992 RMK AO2 SLP126 T02000161 TSNO
KMYL 210651Z AUTO 00000KT 10SM BKN095 OVC110 07/01 A2978 RMK AO2 SLP056 T00720011 402061011
KMYP 210651Z AUTO 21016KT 10SM CLR 02/M02 A3053 RMK AO2
KMYR 210655Z AUTO 00000KT 10SM CLR 16/13 A2995 RMK AO1
KMYV 210653Z AUTO 11004KT 10SM CLR 12/07 A3003 RMK AO2 SLP173 T01220072
KMYZ 210655Z AUTO 00000KT 10SM CLR 07/05 A3009 RMK AO2
KMZG 210655Z AUTO 05010G18KT 8SM FEW024 OVC090 27/21 A2995 RMK A01
KMZH 210653Z AUTO 00000KT 10SM OVC028 05/02 A3012 RMK AO2
KMZZ 210655Z AUTO 32004KT 10SM OVC060 10/07 A2996 RMK AO2 T00950070
KN03 210655Z AUTO 00000KT 10SM OVC050 07/07 A2986 RMK AO2
KN38 210655Z AUTO 00000KT 10SM OVC055 07/05 A2984 RMK AO2
KN60 210652Z AUTO 00000KT 11/02 A2988 RMK AO1 SLP117 T01060022
KNAK 210654Z AUTO 15005KT 10SM FEW060 BKN090 OVC120 14/08 A2988 RMK AO2 RAE00 SLP120 P0000 T01440083
KNBC 210656Z AUTO 34003KT 10SM SCT032 BKN046 OVC075 19/18 A2996 RMK AO2 RAB26E47 SLP145 T01890183 PNO $
KNBG 210655Z AUTO 00000KT CLR 13/12 A3000 RMK AO2 SLP158 T01330117 TSNO $
KNBT 210656Z AUTO 12003KT 7SM BKN060 OVC075 19/16 A2994 RMK AO2 SLP142 T01940161 PNO
KNCA 210656Z AUTO 00000KT 10SM CLR 12/12 A2994 RMK AO2 SLP141 T01220117
KNDZ 210656Z AUTO 00000KT 10SM CLR 11/09 A3000 RMK AO2 SLP145 T01110094 $
KNEW 210653Z AUTO 05010KT 10SM CLR 22/13 A3001 RMK AO2 SLP154 T02170133 TSNO
KNFE 210656Z AUTO 00000KT 10SM CLR 13/10 A2993 RMK AO2 SLP138 T01330100
KNFG 210654Z AUTO VRB03KT 7SM OVC015 20/16 A2990 RMK AO2 SLP125 T02000156 $
KNFL 210656Z AUTO 28010KT 10SM CLR 14/02 A2995 RMK AO2 SLP114 T01390022
KNFW 210652Z AUTO 18003KT 10SM CLR 21/14 A3008 RMK AO2 SLP170 T02060139 CHINO N VISNO N $
KNGP 210656Z AUTO 07010KT 10SM FEW020 24/23 A2995 RMK AO2 SLP142 T02440228 $
KNGU 210659Z 22006KT 10SM BKN150 17/13 A2994 RMK AO2 SLP137 T01720128 $
KNHK 210652Z AUTO 20006KT 10SM FEW060 BKN090 OVC110 13/09 A2990 RMK AO2 RAB0558E30 SLP125 P0000 T01330089
KNID 210656Z AUTO 20012G20KT 10SM CLR 21/04 A2987 RMK AO2 SLP098 T02060044 $
KNIP 210653Z 26004KT 10SM BKN230 22/19 A2997 RMK AO2 SLP143 T02220189
KNJK 210656Z AUTO 26004KT 10SM CLR 24/09 A2977 RMK AO2 SLP096 T02390094 $
KNJM 210657Z AUTO 33003KT 10SM SCT033 SCT041 15/14 A2995 RMK AO2 SLP145 T01500139 TSNO $
KNKT 210654Z 11003KT 10SM BKN041 BKN055 14/13 A2995 RMK AO2 SLP140 T01440133 $
KNKX 210655Z 00000KT 10SM OVC013 20/16 A2992 RMK AO2 SLP125 T02000156
KNLC 210656Z 33017KT 10SM FEW065 FEW260 17/09 A3002 RMK AO2 SLP164 RH/62 T01670094
KNMM 210656Z AUTO 00000KT 10SM CLR 11/09 A3004 RMK AO2 SLP181 T01060094 $
KNOG 210656Z AUTO 06006KT 10SM CLR 22/21 A2998 RMK AO2 SLP132 T02170206
KNPA 210656Z AUTO 00000KT 10SM CLR 12/12 A3000 RMK AO2 SLP159 T01220117 $
KNQA 210650Z 00000KT 10SM SCT060 12/13 A3003
KNQI 210656Z AUTO 03005KT 10SM CLR 22/22 A2996 RMK AO2 SLP140 T02170217
KNQX 210653Z AUTO 17006KT 10SM CLR 25/23 A2991 RMK AO2 SLP126 T02500228 $
KNRB 210652Z AUTO 26003KT 10SM CLR 22/19 A2996 RMK AO2 SLP144 T02170194
KNRS 210656Z AUTO 00000KT 10SM OVC016 20/17 A2991 RMK AO2 SLP129 T02000167
KNSE 210656Z AUTO 36004KT 10SM CLR 12/10 A3001 RMK AO2 SLP147 T01170100 $
KNSI 210657Z AUTO 31027G35KT 10SM CLR A2991 RMK AO2 PK WND 31035/0656 SLPNO $
KNTD 210656Z AUTO 01004KT 10SM -RA CLR 18/15 A2990 RMK AO2 RAB0557 SLP125 P0000 T01780150 $
KNTU 210656Z 21005KT 10SM FEW055 BKN240 16/12 A2993 RMK AO2 SLP136 T01610122
KNUC 210120Z 28009KT 10SM BKN015 OVC200 19/15 A2991 RMK LAST
KNUI 210653Z AUTO 08003KT 10SM -RA SCT060 BKN075 OVC095 14/10 A2990 RMK AO2 RAB02 SLP125 P0000 T01390100
KNUQ 210656Z 23003KT 10SM FEW032 14/12 A3008 RMK AO2 SLP188 T01440122
KNUW 210656Z 15013KT 10SM FEW010 SCT020 BKN100 15/11 A2976 RMK AO2 SLP082 T01500111 402000139 $
KNXF 210656Z AUTO 14004KT 9SM OVC015 A2991 RMK AO2 SLPNO $
KNXP 210656Z AUTO 27010KT 10SM CLR 22/03 A2995 RMK AO2 SLP108 T02220028
KNY0 210655Z AUTO 05004KT 10SM SCT055 BKN100 OVC120 06/03 A2990 RMK AO2 T00620026
KNYC 210651Z AUTO 24005KT 10SM CLR 14/06 A2995 RMK AO2 SLP132 T01440061 $
KNYG 210656Z AUTO 22005KT 10SM BKN110 14/08 A2990 RMK AO2 SLP126 T01390083 $
KNYL 210657Z 14004KT 10SM CLR 26/16 A2979 RMK AO2 SLP084 T02560156 403440228
KNZY 210652Z 35005KT 10SM OVC017 21/17 A2990 RMK AO2 SLP126 T02060167 $
KO22 210655Z AUTO 00000KT 10SM CLR 09/08 A3006 RMK AO1
KO54 210655Z AUTO 21003KT 10SM BKN043 07/05 A3002 RMK AO1
KO69 210655Z AUTO 00000KT 10SM BKN022 OVC028 10/09 A3008 RMK AO1
KO86 210655Z AUTO 00000KT 10SM BKN011 BKN019 BKN040 07/06 A3002 RMK AO1
KOAJ 210655Z AUTO 00000KT 10SM CLR 11/08 A2995 RMK AO1
KOAK 210653Z 31007KT 10SM FEW024 15/11 A3007 RMK AO2 SLP180 T01500106
KOBE 210655Z AUTO 19/18 RMK AO2
KOCF 210655Z AUTO 10SM CLR 19/18 A2997 RMK AO1
KOCH 210655Z AUTO 00000KT 9SM CLR 11/09 A3005 RMK AO1
KOCQ 210655Z AUTO 34004KT 10SM OVC023 07/04 A3005 RMK AO1 T00650040
KOCW 210655Z AUTO 00000KT 10SM CLR 12/11 A2995 RMK AO2 T01170113
KODO 210653Z AUTO 14005KT 10SM CLR 17/11 A3009 RMK AO2 SLP154 T01670106
KODX 210653Z AUTO 12003KT CLR 05/02 A3005 RMK AO2 SLP177 T00500022 $
KOEB 210654Z AUTO 33007KT 10SM BKN017 OVC050 09/06 A2993 RMK AO2 T00880062
KOEO 210655Z AUTO 00000KT 7SM SCT002 01/01 A3014 RMK AO2 T00060006
KOFF 210658Z AUTO 00000KT 8SM CLR 04/04 A3007 RMK AO2 SLP187 T00440044
KOFK 210656Z AUTO 00000KT 10SM CLR 06/02 A3006 RMK AO2 SLP180 T00560017
KOFP 210654Z AUTO 17004KT 10SM SCT085 13/08 A2992 RMK AO2 SLP132 T01330078
KOGA 210655Z AUTO 00000KT 10SM CLR 07/03 A3005 RMK AO2 T00730032 402630000
KOGB 210653Z AUTO 00000KT 5SM BR FEW060 13/12 A2997 RMK AO2 SLP146 T01280117
KOGD 210653Z 16012KT 10SM CLR 16/03 A2988 RMK AO2 SLP069 T01610028 402500089
KOJA 210655Z AUTO 00000KT 7SM CLR 15/15 A3006 RMK AO2
KOJC 210653Z AUTO 00000KT 10SM CLR 10/07 A3008 RMK AO2 SLP180 T01000072
KOKB 210652Z AUTO 00000KT 10SM OVC015 21/16 A2990 RMK AO2 SLP124 T02060161
KOKC 210652Z 18004KT 10SM SCT060 17/15 A3005 RMK AO2 SLP164 T01720150
KOKK 210655Z AUTO 32007KT 10SM OVC050 10/07 A2997 RMK AO1
KOKM 210655Z AUTO 28003KT 10SM CLR 15/14 A3006 RMK AO2 T01480143
KOKV 210655Z AUTO 00000KT 10SM SCT075 SCT090 BKN120 11/08 A2988 RMK AO2
KOKZ 210655Z AUTO 00000KT 10SM CLR 10/10 A3001 RMK AO2 T01010101
KOLE 210655Z AUTO 21003KT 3SM -RA OVC003 06/06 A2979 RMK AO2
KOLF 210653Z AUTO 00000KT 10SM CLR 07/03 A2975 RMK AO2 SLP075 T00720033 402670011
KOLG 210655Z AUTO 06005KT 10SM BKN015 OVC027 06/04 A3014 RMK AO1
KOLM 210654Z AUTO 19006KT 10SM SCT070 SCT080 12/10 A2980 RMK AO2 SLP092 T01170100
KOLS 210654Z AUTO 06005KT 10SM CLR 15/08 A3000 RMK AO2 SLP104 T01500078 402560111
KOLU 210655Z AUTO 00000KT 10SM CLR 04/01 A3008 RMK AO1
KOLV 210655Z AUTO 00000KT 10SM CLR 12/12 A3003 RMK A01 P000
KOLY 210655Z AUTO 00000KT 10SM CLR 07/06 A3000 RMK AO2
KOLZ 210655Z AUTO 06005KT 10SM CLR 06/04 A3008 RMK AO2
KOMA 210652Z 00000KT 10SM CLR 07/06 A3008 RMK AO2 SLP186 T00720056
KOMH 210655Z AUTO 17003KT 10SM SCT110 11/09 A2990 RMK AO2
KOMK 210653Z AUTO 19005KT 10SM OVC024 12/09 A2977 RMK AO2 SLP082 T01170089
KONA 210655Z AUTO 00000KT 10SM CLR 04/03 A3011 RMK AO2
KONL 210655Z AUTO 16006KT 10SM CLR 10/06 A3004 RMK AO2 T01010055
KONM 210655Z AUTO 00000KT 10SM BKN065 OVC100 13/10 A3015 RMK AO2 T01260103
KONO 210653Z AUTO 30010KT 10SM -RA BKN085 BKN110 14/06 A2984 RMK AO2 PK WND 32031/0556 RAB53 SLP100 P0000 T01440056 402440011
KONP 210655Z AUTO 19016G19KT 4SM +RA BKN009 BKN015 OVC022 13/12 A2990 RMK AO2
KONT 210653Z 26005KT 8SM FEW160 SCT250 17/15 A2992 RMK AO2 SLP122 T01720150
KONX 210655Z AUTO 00000KT 10SM CLR 13/12 A2995 RMK AO2 T01270117
KONZ 210654Z AUTO 32005KT 10SM SCT055 OVC075 09/07 A2987 RMK AO2
KOOA 210655Z AUTO 34005KT 10SM CLR 06/04 A3006 RMK AO2 T00590035
KOPF 210653Z AUTO 00000KT 10SM BKN065 OVC095 25/22 A2993 RMK AO2 SLP135 T02500222
KOPL 210655Z AUTO 00000KT 10SM CLR 11/11 A3001 RMK AO2 T01130111
KOPM 210655Z AUTO 04017KT 10SM SCT022 SCT027 SCT031 26/22 A2992 RMK A01
KOPN 210655Z AUTO 36003KT 10SM CLR 12/11 A3002 RMK AO2
KOQT 210653Z AUTO 22003KT 10SM FEW090 12/09 A3001 RMK AO2 SLP156 T01170094
KORB 210653Z AUTO 00000KT 10SM OVC020 05/00 A3013 RMK AO2
KORC 210655Z AUTO 07004KT 10SM CLR 09/03 A3007 RMK AO2
KORD 210651Z 35005KT 10SM FEW027 OVC048 11/06 A3001 RMK AO2 SLP162 T01060061 $
KORE 210652Z AUTO 00000KT 10SM FEW055 BKN070 OVC120 07/05 A2996 RMK AO2 SLP149 T00670050
KORF 210651Z AUTO 19005KT 10SM CLR 15/13 A2993 RMK AO2 SLP134 T01500128 TSNO
KORG 210655Z AUTO 36004KT 10SM CLR A3003 RMK AO2
KORH 210654Z AUTO 23004KT 10SM BKN120 08/04 A2996 RMK AO2 SLP150 T00780044
KORL 210653Z AUTO 22004KT 10SM FEW055 23/20 A2996 RMK AO2 SLP146 T02330200
KORS 210655Z AUTO 19007KT 10SM FEW060 SCT075 13/12 A2973 RMK AO2
KOSA 210655Z AUTO 00000KT 1/2SM VV005 15/15 A3007 RMK AO1 T01480147
KOSC 210653Z AUTO 36010KT 10SM SCT012 BKN080 OVC085 07/06 A2990 RMK AO2 T00730065
KOSH 210653Z AUTO 35009KT 10SM OVC048 08/03 A3005 RMK AO2 SLP177 T00780033
KOSU 210653Z AUTO 29006KT 4SM BR BKN065 OVC090 09/08 A2989 RMK AO2 SLP121 T00890083
KOTG 210655Z AUTO 00000KT 10SM CLR 03/00 A3009 RMK AO1
KOTH 210655Z 16005KT 10SM SCT025 12/12 A2994 RMK AO1
KOTM 210653Z AUTO 31004KT 10SM CLR 06/04 A3005 RMK AO2 SLP177 T00610039
KOUN 210655Z AUTO 17003KT 10SM OVC055 17/17 A3007 RMK AO2
KOVE 210653Z AUTO 12004KT 10SM CLR 12/08 A3004 RMK AO2 SLP173 T01220083 $
KOVL 210654Z AUTO 09005KT 10SM CLR 05/02 A3009 RMK AO2
KOVS 210653Z AUTO 00000KT 3SM BR CLR 02/01 A3009 RMK AO2 SLP192 T00220011
KOWA 210655Z AUTO 00000KT 10SM CLR 02/01 A3011 RMK AO2
KOWB 210656Z AUTO 00000KT 10SM CLR 11/07 A3000 RMK AO2 TSNO T01110072 SLP156
KOWD 210653Z AUTO 00000KT 10SM FEW055 04/03 A2999 RMK AO2 SLP154 T00390033
KOWP 210655Z AUTO 00000KT 10SM BKN039 BKN047 18/16 A3007 RMK AO2 T01770159
KOXB 210653Z AUTO 24003KT 10SM CLR 13/11 A2993 RMK AO2 SLP134 T01330106 TSNO
KOXC 210655Z 00000KT 10SM CLR 09/05 A2995 RMK AO1
KOXI 210655Z AUTO 30004KT 10SM SCT023 BKN030 OVC050 10/07 A2997 RMK AO1 T00960065
KOXR 210651Z AUTO 03003KT 10SM CLR 17/14 A2990 RMK AO2 SLP124 T01720144
KOXV 210655Z AUTO 33004KT 10SM CLR 08/04 A3005 RMK AO2
KOZA 210655Z AUTO 00000KT 10SM CLR 15/13 A3010 RMK AO2
KOZR 210658Z AUTO 00000KT 10SM CLR 12/11 A3000 RMK AO2 SLP160 T01230109
KOZW 210655Z AUTO 32006KT 10SM BKN016 OVC023 08/06 A2990 RMK AO2 T00830061
KP28 210656Z AUTO 00000KT 12/09 A3007 RMK AO1 SLP172 T01170089 $
KP53 210656Z AUTO 02018KT 08/04 A3006 RMK AO1 SLP184 T00780044
KP58 210651Z AUTO 01013G18KT 09/07 A2987 RMK AO1 SLP115 P0001 T00940072
KP59 210651Z AUTO 06/02 A3015 RMK AO1 SLP214 T00560022
KP60 210656Z AUTO 32003KT M01/M02 A3007 RMK AO1 SLP148 T10061022 401671044
KP68 210653Z AUTO 19011KT 16/M01 A2991 RMK AO1 SLP049 T01561006
KP69 210652Z AUTO 00000KT 12/09 A2984 RMK AO1 SLP099 T01220094
KP92 210653Z AUTO 00000KT 17/15 A3000 RMK AO1 SLP158 T01670150
KPAE 210653Z AUTO 17009KT 10SM FEW015 SCT048 BKN055 12/11 A2980 RMK AO2 RAE13 SLP090 P0001 T01220111
KPAH 210653Z AUTO 00000KT 5SM BR CLR 09/08 A3001 RMK AO2 SLP161 T00890078
KPAM 210658Z AUTO 03003KT 10SM CLR 18/14 A2999 RMK AO2 SLP159 T01750141 $
KPAN 210655Z AUTO 07003KT 10SM CLR 14/06 A3011 RMK AO2
KPAO 210347Z VRB06KT 10SM FEW020 16/13 A3002
KPBF 210653Z AUTO 00000KT 10SM OVC041 15/13 A3005 RMK AO2 SLP175 T01500133
KPBG 210653Z AUTO 00000KT 10SM OVC050 06/04 A2992 RMK AO2 SLP132 T00610044
KPBH 210655Z AUTO 04006KT 10SM SCT014 OVC031 05/03 A3011 RMK AO2 T00450025
KPBI 210653Z 00000KT 10SM FEW070 BKN250 24/21 A2992 RMK AO2 SLP131 T02440206
KPBX 210655Z AUTO 27005KT 10SM BKN050 BKN065 OVC095 12/09 A2996 RMK AO2 T01190085
KPCM 210655Z AUTO 00000KT 10SM CLR 22/ A2996 RMK AO2
KPCW 210638Z AUTO 35013KT 10SM SCT012 BKN017 OVC040 12/11 A2985 RMK AO2
KPCZ 210655Z AUTO 00000KT 10SM BKN048 07/05 A3007 RMK AO2 T00740046
KPDC 210655Z AUTO 00000KT 10SM CLR 04/03 A3008 RMK AO2 T00420028
KPDK 210653Z AUTO 00000KT 6SM BR CLR 10/09 A3001 RMK AO2 SLP157 T01000089
KPDT 210653Z AUTO 19004KT 10SM FEW060 SCT080 OVC100 10/09 A2986 RMK AO2 RAE04 SLP104 P0001 T01000089
KPDX 210653Z 12006KT 10SM FEW030 BKN050 BKN065 13/11 A2987 RMK AO2 SLP115 T01280111
KPEA 210655Z AUTO 00000KT 10SM CLR 08/06 A3008 RMK AO2 T00760055
KPEO 210653Z AUTO 18005KT 9SM -RA OVC041 09/07 A2982 RMK AO2 SLP101 P0001 T00940072
KPEQ 210655Z AUTO 05003KT 7SM OVC060 17/16 A3006 RMK AO2 P0001 T01710163
KPEX 210654Z AUTO 00000KT 10SM CLR 02/02 A3011 RMK AO2 T00200015
KPEZ 210655Z AUTO 00000KT 10SM CLR 18/15 A3002 RMK AO2 T01810146
KPGD 210653Z AUTO 10003KT 10SM CLR 23/21 A2994 RMK AO2 SLP140 T02280206
KPGV 210650Z AUTO 00000KT 10SM CLR 12/12 A2996 RMK AO2
KPHD 210653Z AUTO 00000KT 6SM BR OVC012 10/09 A2986 RMK AO2 SLP112 T01000094
KPHF 210654Z 23006KT 10SM BKN110 17/13 A2993 RMK AO2 SLP135 T01670128
KPHL 210654Z 16003KT 10SM SCT120 BKN190 OVC240 13/08 A2992 RMK AO2 SLP132 T01280078
KPHN 210656Z AUTO 31006KT 4SM BR OVC008 08/08 A2987 RMK AO2
KPHP 210655Z AUTO 15003KT 10SM CLR 13/04 A2987 RMK AO2 SLP100 T01330039 402670000
KPHT 210655Z AUTO 00000KT 10SM CLR 08/08 A3002 RMK
KPHX 210651Z 09005KT 10SM CLR 23/13 A2985 RMK AO2 SLP091 T02330128 403220189
KPIA 210654Z 00000KT 10SM CLR 08/06 A3004 RMK AO2 SLP171 T00830056
KPIB 210655Z AUTO 35003KT 10SM CLR 11/09 A3004 RMK AO1
KPIE 210653Z AUTO 01006KT 10SM CLR 24/17 A2994 RMK AO2 SLP139 T02390167
KPIH 210653Z AUTO 18013G18KT 10SM -RA FEW120 19/01 A2982 RMK AO2 RAB49 SLP049 P0000 T01940011 402611006
KPIL 210653Z AUTO 08009KT 10SM -RA FEW027 25/21 A2992 RMK AO2 SLP130 P0000 T02500211
KPIR 210653Z AUTO 11010KT 10SM CLR 12/03 A2990 RMK AO2 SLP118 T01170033
KPIT 210655Z 23005KT 10SM -RA BKN007 BKN012 OVC018 10/09 A2985 RMK AO2 P0000 T01000094
KPKB 210653Z AUTO 23004KT 10SM FEW110 10/08 A2992 RMK AO2 SLP130 T01000083
KPKD 210653Z AUTO 11004KT 10SM CLR 03/02 A3011 RMK AO2 SLP207 T00280017 TSNO
KPKV 210655Z AUTO 06006KT 10SM CLR 21/19 A2999 RMK AO2 T02100191
KPLN 210654Z AUTO 02010KT 10SM OVC023 07/04 A2999 RMK AO2 SLP160 T00720039
KPMD 210653Z 29019KT 10SM CLR 18/08 A2997 RMK AO2 SLP121 T01830083
KPMP 210653Z AUTO 13004KT 10SM FEW028 SCT045 SCT095 27/21 A2992 RMK AO2 SLP134 T02720206
KPMV 210655Z AUTO 00000KT 10SM CLR 11/03 A3007 RMK AO2 T01140028
KPNA 210655Z AUTO 00000KT 10SM BKN095 01/M01 A3008 RMK AO2
KPNC 210653Z AUTO 00000KT 5SM BR CLR 14/13 A3006 RMK AO2 SLP170 T01390128
KPNE 210654Z 00000KT 10SM FEW080 BKN120 13/07 A2993 RMK AO2 SLP133 T01280067 $
KPNM 210654Z AUTO 00000KT 10SM CLR 02/01 A3013 RMK AO2
KPNS 210653Z AUTO 01005KT 10SM CLR 15/12 A3000 RMK AO2 SLP159 T01500117
KPNT 210655Z AUTO 32003KT 10SM SCT060 08/07 A3002 RMK AO2
KPOB 210658Z AUTO 31002KT 10SM BKN130 15/12 A2995 RMK AO2 SLP144 T01450123
KPOE 210658Z AUTO 35002KT 10SM CLR 13/12 A3002 RMK AO2 SLP166 T01330121
KPOU 210653Z AUTO 00000KT 10SM SCT070 BKN120 09/06 A2993 RMK AO2 SLP130 T00940056 TSNO
KPOV 210658Z AUTO 26004KT 3SM BR OVC004 11/ A2983 RMK AO2 T0105
KPOY 210655Z AUTO 14007KT 10SM CLR 13/M05 A2987 RMK AO2
KPPA 210655Z AUTO 21007KT 10SM CLR 13/11 A3010 RMK AO2 T01320110 PNO
KPPF 210652Z AUTO 00000KT 6SM BR CLR 10/09 A3009 RMK AO2 SLP182 T01000094
KPPO 210655Z AUTO 36010G14KT 10SM SCT022 SCT031 OVC050 11/08 A2999 RMK AO2 T01120076
KPPQ 210655Z AUTO 29005KT 10SM CLR 09/06 A3004 RMK AO2 T00900062
KPQI 210655Z AUTO 00000KT 10SM CLR M02/M04 A2999 RMK AO1
KPQL 210653Z AUTO 00000KT 7SM CLR 09/09 A3001 RMK AO2 SLP164 T00940089 TSNO
KPQN 210654Z AUTO 12005KT 10SM CLR 07/02 A3006 RMK AO2
KPRB 210653Z AUTO 31012KT 10SM CLR 15/11 A3002 RMK AO2 SLP162 T01500106 TSNO
KPRC 210653Z AUTO 19007KT 10SM CLR 10/04 A3008 RMK AO2 SLP125 T01000044 402330067
KPRG 210655Z AUTO 00000KT 10SM BKN055 08/08 A3001 RMK AO2 T00820075
KPRN 210656Z AUTO 00000KT 10SM CLR 11/08 A3001 RMK AO2 SLP159 T01060083
KPRO 210655Z AUTO 32004KT 10SM CLR 04/04 A3007 RMK AO2 T00440035
KPRS 210655Z AUTO 02009KT 10SM SCT039 OVC100 19/15 A3003 RMK AO2 LTG DSNT NW T01900149
KPRX 210655Z 00000KT 10SM CLR 16/12 A3006 RMK AO1
KPSC 210653Z AUTO 11010KT 10SM CLR 12/12 A2985 RMK AO2 PRESRR SLP107 T01220117
KPSF 210654Z AUTO 00000KT 10SM OVC055 06/05 A2992 RMK AO2 RAE21 SLP127 P0001 T00560050
KPSK 210655Z AUTO 24004KT 10SM SCT065 SCT070 11/09 A2997 RMK AO2 T01080088
KPSM 210658Z 00000KT 10SM OVC100 07/04 A2999 RMK AO2A SLP159 T00710036
KPSN 210650Z AUTO 00000KT 10SM CLR 14/13 A3005 RMK AO2 T01450138
KPSO 210655Z AUTO 00000KT 10SM OVC050 08/04 A3028 RMK AO2 T00750039
KPSP 210653Z AUTO 00000KT 10SM CLR 24/12 A2982 RMK AO2 SLP096 T02440122 TSNO
KPSX 210653Z AUTO 01004KT 5SM BR CLR 19/18 A2999 RMK AO2 SLP154 T01890178
KPTB 210655Z AUTO 00000KT 10SM OVC090 11/09 A2993 RMK AO2 T01120085
KPTK 210653Z AUTO 31007KT 10SM BKN021 OVC026 08/06 A2988 RMK AO2 SLP121 T00830061
KPTN 210155Z AUTO 00000KT VV000 128/128 A65408 RMK AO1 PNO
KPTS 210655Z AUTO 00000KT 10SM CLR 11/11 A3007 RMK AO2 T01110112
KPTT 210655Z AUTO 14004KT 10SM CLR 14/06 A3009 RMK AO2
KPTV 210655Z 00000KT 10SM CLR 17/09 A3001 RMK AO1
KPTW 210654Z AUTO 00000KT 10SM SCT090 OVC110 11/08 A2992 RMK AO2 RAE07B31E42 SLP128 P0000 T01060083
KPUB 210653Z AUTO 34003KT 10SM CLR 10/06 A3009 RMK AO2 SLP149 T01000056 402390056
KPUC 210653Z AUTO 04007KT 10SM FEW110 10/02 A3007 RMK AO2 SLP141 T01000022 402110056 TSNO
KPUJ 210655Z AUTO 31003KT 10SM CLR 13/11 A3002 RMK AO2
KPUW 210653Z AUTO 03004KT 10SM FEW005 OVC050 09/07 A2987 RMK AO2 SLP109 T00940072
KPVB 210655Z AUTO 00000KT 10SM CLR 05/03 A3007 RMK AO1 T00450031
KPVC 210655Z 11004KT 10SM BKN033 BKN041 OVC049 13/08 A3001 RMK AO1
KPVD 210651Z 00000KT 10SM BKN033 BKN065 08/06 A2998 RMK AO2 SLP153 T00780056
KPVE 210655Z AUTO 00000KT 10SM CLR 10/09 A3001 RMK
KPVF 210655Z AUTO 17004KT 10SM FEW012 SCT038 09/09 A3009 RMK AO1
KPVG 210655Z AUTO 22003KT 10SM CLR 12/10 A2995 RMK AO1
KPVJ 210655Z AUTO 00000KT 10SM CLR 17/16 A3005 RMK AO2 T01660156
KPVU 210655Z AUTO 15013KT 10SM BKN095 17/04 A2995 RMK AO1
KPVW 210655Z AUTO 00000KT 10SM CLR 13/11 A3010 RMK AO2 T01270111
KPWA 210653Z AUTO 07003KT 6SM BR CLR 18/16 A3005 RMK AO2 SLP164 T01780156
KPWC 210653Z AUTO 00000KT 5SM BR CLR M01/M02 A3016 RMK AO2
KPWG 210655Z AUTO 00000KT 10SM CLR 16/12 A3006 RMK AO1
KPWK 210652Z AUTO 35003KT 10SM FEW023 OVC050 11/06 A3003 RMK AO2 SLP167 T01110061
KPWM 210651Z 30003KT 10SM BKN075 OVC100 08/04 A3001 RMK AO2 SLP163 T00830044
KPWT 210655Z AUTO 18009KT 10SM BKN005 OVC013 12/12 A2982 RMK AO1 P0001
KPXE 210655Z AUTO 00000KT 7SM CLR 13/11 A3001 RMK AO2 T01270111
KPYM 210652Z AUTO 00000KT 10SM -RA SCT029 BKN036 OVC048 09/08 A3000 RMK AO2 RAB20 SLP160 P0003 T00890083
KPYX 210655Z AUTO 10006KT 4SM CLR 14/13 A3007 RMK AO2 T01350125
KQA4 210555Z VRB04KT 9999 CLR 27/04 A3014 RMK SLP173 WND DATA ESTMD ALSTG/SLP ESTMD Q1020 51012
KQAJ 210555Z 36010G15KT 9999 CLR 25/13 A3002 RMK AO2A SLP158 T02490125 10297 20213 52026
KQAY 210655Z AUTO 33007G15KT 9000 FEW004 28/09 A2998 RMK AO2 DZB0555E0603SHRAB0603E0615 SLP150 T02750086 $
KQBF 210655Z AUTO 31003KT 9000 HZ CLR 27/18 A2997 RMK AO2 SLP132 T02650179 TSNO $
KQBL 210656Z AUTO 01001KT 10SM FEW240 16/11 A3001 RMK AO2 SLP169 T01550114
KQEA 210552Z AUTO VRB04KT 31/22 A2983 RMK AO2 SLP100 PWINO TSNO $
KQEB 210655Z AUTO VRB02KT 9999 FEW021 BKN065 20/13 Q1025 RMK AO2 SLP196 T02030131
KQEI 210700Z AUTO 33003KT 9999 BKN005 10/09 A3013 RMK A02 TSNO
KQEJ 210700Z AUTO 20001KT 9999 FEW025 BKN038 11/09 A3009 RMK A02 TSNO
KQEL 210700Z AUTO 05004KT 9999 FEW015 OVC031 12/09 A3013 RMK A02 TSNO
KQEN 210700Z AUTO M0400 -RA FG CLR / / RMK A02 TSNO
KQEP 210700Z AUTO 15004G10KT 9999 CLR 13/09 A2999 RMK A02 TSNO
KQEQ 210700Z AUTO 10003KT 9999 OVC085 13/11 A2990 RMK A02 TSNO
KQER 210700Z AUTO 17002KT / /CLR 11/09 A3005 RMK A02 TSNO
KQES 210700Z AUTO 02008G22KT 4800 // FEW012 BKN050 14/12 A3002 RMK A02 TSNO
KQEV 210700Z AUTO 06006G15KT 6000 RA CLR 14/12 A2995 RMK A02 TSNO
KQEW 210700Z AUTO 01005G10KT 9999 OVC013 15/13 A2998 RMK A02 TSNO
KQEX 210700Z AUTO 01003KT 9999 CLR 17/14 A2999 RMK A02 TSNO
KQEY 210700Z AUTO 20002KT 9999 OVC011 16/14 A2993 RMK A02 TSNO
KQFG 210655Z AUTO VRB03KT 9999 CLR 26/10 A3014 RMK AO2 SLP182 T02590096
KQFQ 210555Z AUTO VRB03KT 7SM RA FEW037 BKN045 13/13 A3003 RMK AO2 RAB0455 SLP169 P0010 60032 T01290126 10149 20134 56010 $
KQFS 210656Z AUTO 10009G20KT 9999 FEW013 SCT018 BKN060 17/15 A2996 RMK AO2 SLPNO T01680151
KQFT 210700Z AUTO 36004G10KT 9999 FEW004 SCT006 BKN007 BKN021 13/09 A3003 RMK A02 TSNO
KQFU 210700Z AUTO 20005KT 6000 // CLR 13/10 A3006 RMK A02 TSNO
KQFV 210700Z AUTO 17006KT 8000 HZ CLR 11/08 A3009 RMK A02 TSNO
KQFX 210700Z AUTO 07002KT 6000 HZ FEW011 BKN015 12/10 A3003 RMK A02 TSNO
KQGV 210555Z 34013G18KT 9999 FEW150 24/11 A3000 RMK SLPNO QNH1016MB PA +391 52027
KQGX 210658Z AUTO 15011KT 9999 CLR 36/13 A2998 RMK AO2 SLPNO T03560131 $
KQHY 210656Z AUTO 03002KT 10SM CLR 15/11 A3001 RMK AO2 SLP169 T01540114
KQIR 210658Z 16014KT 9999 CLR 34/19 A2994 RMK AO2A SLP139 T03390190 $
KQL5 210655Z 04003KT 9999 FEW120 28/09 A3010 RMK SLP171 T02770091
KQLP 210655Z AUTO 33002KT 20/13 Q1026 RMK AO2 SLP190 T01990133 PWINO TSNO $
KQQY 210655Z AUTO 00000KT 9999 FEW036 SCT046 BKN120 23/21 A2996 RMK AO2 SLP122 T02310209 $
KQRH 210655Z AUTO VRB06KT 9999 CLR 32/20 A2998 RMK AO2 SLP150 T03190203
KQSA 210658Z VRB03KT 6000 HZ CLR 21/07 A3022 RMK AO2A SLP163 T02050073
KQTH 210655Z 10010G16KT 9999 CLR 33/00 A3008 RMK AO2A SLP158 T03301003
KQTZ 210655Z 24005KT 9999 FEW060 BKN080 BKN120 18/07 A3000 RMK SLP156 WND DATA ESTMD ALSTG/SLP ESTMD
KQUD 210655Z AUTO 05002KT 10SM CLR 25/18 A3027 RMK AO2 SLP202 T02460178
KQVF 210655Z AUTO VRB05KT 9999 FEW023 BKN120 29/21 A3005 RMK AO2 SLP173 T02900212
KQWM 210655Z 32012KT 9999 CLR 24/10 A3001 RMK SLP156 QNH1016
KQXT 210655Z 34002KT 9999 CLR 30/03 A3012 RMK SLP161 WND DATA ESTMD ALSTG/SLP ESTMD Q1020
KRAC 210653Z AUTO 35008KT 10SM OVC050 09/06 A3003 RMK AO2 SLP172 T00940056
KRAL 210653Z AUTO 00000KT 9SM CLR 18/15 A2992 RMK AO2 SLP117 T01780150
KRAP 210652Z AUTO 13004KT 10SM CLR 12/06 A2987 RMK AO2 SLP100 T01170056 402500033
KRAS 210655Z AUTO 07008KT 10SM BKN020 BKN026 24/21 A2996 RMK AO2 T02420208
KRBD 210653Z 00000KT 10SM CLR 18/14 A3004 RMK AO2 SLP164 T01780139
KRBG 210653Z AUTO 00000KT 10SM OVC060 13/08 A2995 RMK AO2 RAB17E27 SLP140 P0000 T01280083 $
KRBL 210654Z AUTO 00000KT 10SM CLR 12/06 A3001 RMK AO2 SLP161 T01170056
KRBW 210655Z AUTO 00000KT 10SM SCT034 16/ A2997 RMK AO2 LTG DSNT S
KRCA 210558Z AUTO 19007KT 10SM CLR 14/07 A2986 RMK AO2 SLP098 T01430066 10198 20143 57010 $
KRCE 210655Z AUTO 16006KT BKN050 17/16 A3007 RMK AO2
KRCM 210635Z AUTO 00000KT 10SM CLR 07/06 A3008 RMK AO2
KRCR 210655Z AUTO 32003KT 10SM OVC050 11/08 A2997 RMK AO2
KRCV 210650Z AUTO 26010KT 10SM CLR 06/01 A3027 RMK AO2 T00560005 401760035
KRCX 210655Z AUTO 05005KT 10SM OVC031 08/03 A3013 RMK AO2 T00750034
KRCZ 210655Z AUTO 00000KT 10SM SCT110 12/11 A2996 RMK AO2 T01210108
KRDD 210653Z AUTO 00000KT 10SM CLR 11/10 A3000 RMK AO2 SLP157 T01060100
KRDG 210654Z AUTO 13003KT 10SM -RA FEW028 FEW055 OVC070 12/11 A2989 RMK AO2 SLP128 P0002 T01170106
KRDK 210655Z AUTO 00000KT 8SM CLR 04/03 A3008 RMK AO2
KRDM 210656Z AUTO 00000KT 4SM BR CLR 05/04 A2990 RMK AO2 SLP124 T00500044
KRDR 210658Z AUTO 18005KT 10SM CLR 04/04 A3005 RMK AO2 SLP186 T00390035
KRDU 210651Z 23003KT 10SM BKN090 BKN160 BKN250 14/10 A2995 RMK AO2 SLP140 T01390100
KREO 210652Z AUTO 23009G22KT 10/03 A2990 RMK AO1 PK WND 23031/0635 SLP102 P0001 T01000033
KRFD 210654Z 33005KT 10SM OVC044 08/05 A3006 RMK AO2 SLP179 T00830050
KRFI 210655Z AUTO 00000KT 10SM CLR 13/13 A3006 RMK AO2 T01270126
KRGK 210655Z AUTO 00000KT 10SM CLR 03/02 A3010 RMK AO2
KRHI 210653Z AUTO 02003KT 10SM OVC015 04/02 A3011 RMK AO2 SLP206 T00390017
KRHP 210655Z AUTO 00000KT 1/4SM FG OVC002 08/08 A3004 RMK AO2 P0001 T00770077
KRHV 210450Z 00000KT 10SM FEW025 18/13 A3006 RMK LAST
KRIC 210654Z 20003KT 10SM OVC100 14/08 A2991 RMK AO2 SLP134 T01390083
KRIL 210653Z AUTO 00000KT 10SM SCT120 08/03 A3010 RMK AO2 SLP153 T00780028 402220033
KRIV 210658Z AUTO 00000KT 10SM CLR 14/12 A2993 RMK AO2 SLP127 T01440121
KRIW 210653Z AUTO 32007KT 10SM CLR 08/M01 A2996 RMK AO2 SLP107 T00781011 402110022
KRKD 210655Z AUTO 00000KT 10SM BKN055 06/04 A3001 RMK AO1
KRKP 210653Z AUTO 07006KT 10SM CLR 23/21 A2997 RMK AO2 SLP150 T02330206
KRKR 210655Z AUTO 00000KT 1/4SM FG OVC002 14/13 A3006 RMK AO2 T01360129
KRKS 210654Z AUTO 15008KT 10SM CLR 10/01 A3007 RMK AO2 SLP121 T01000006 402000028
KRME 210653Z AUTO 12003KT 10SM -RA BKN048 OVC060 08/06 A2988 RMK AO2 RAB0554E06B33 SLP119 P0000 T00830061
KRMG 210653Z AUTO 05003KT 9SM CLR 09/08 A3002 RMK AO2 SLP158 T00940083
KRMN 210655Z AUTO 00000KT 10SM SCT120 11/11 A2993 RMK AO2 T01060106
KRMY 210653Z AUTO 33003KT 10SM BKN018 OVC022 08/05 A2992 RMK AO2 T00800053
KRNC 210655Z AUTO 00000KT 10SM CLR 09/09 A3002 RMK
KRND 210658Z AUTO 05004KT 10SM CLR 19/14 A3003 RMK AO2 SLP163 T01900143
KRNH 210655Z AUTO 00000KT 10SM CLR 02/02 A3011 RMK AO2 T00150015
KRNM 210653Z AUTO VRB03KT 5SM BR OVC006 17/15 A2994 RMK AO2 SLP124 T01670150 TSNO
KRNO 210655Z 27010KT 10SM FEW065 09/02 A3000 RMK AO2 RAE02 SLP122 P0000 T00940022
KRNP 210654Z AUTO 31006KT 10SM BKN019 OVC025 09/07 A2991 RMK AO2 T00860065
KRNT 210653Z AUTO 00000KT 8SM BKN075 12/12 A2980 RMK AO2 SLP097 T01220117
KRNV 210655Z AUTO 00000KT 10SM CLR 13/13 A3004 RMK AO2 T01310130
KROA 210654Z 28012KT 10SM CLR 13/07 A2994 RMK AO2 RAE07 SLP131 P0000 T01330072
KROC 210654Z 19005KT 10SM -RA OVC026 11/09 A2979 RMK AO2 RAB20 SLP094 PCPN VRY LGT P0000 T01060089
KROG 210657Z AUTO 12003KT 3SM CLR 11/11 A3010 RMK AO2 SLP186 T01110106
KROS 210655Z AUTO 00000KT 10SM CLR 02/01 A3012 RMK AO2 T00170007
KROW 210651Z AUTO 01006KT 10SM -RA FEW045 BKN070 OVC090 15/13 A3011 RMK AO2 RAB37 SLP150 P0000 T01500133 402330111
KROX 210654Z AUTO 13007KT 10SM CLR 03/01 A3010 RMK AO2
KRPD 210655Z AUTO 00000KT 10SM OVC030 07/03 A3013 RMK AO2 T00730028
KRPH 210650Z AUTO 00000KT 10SM CLR 17/14 A3004 RMK AO2 T01710142
KRPJ 210655Z AUTO 00000KT 10SM OVC044 08/06 A3004 RMK AO2 T00790055
KRQB 210654Z AUTO 33005KT 10SM BKN010 OVC014 07/07 A2994 RMK AO2 T00720072
KRQO 210655Z AUTO 14004KT 7SM CLR 15/14 A3006 RMK AO2
KRRL 210655Z AUTO 02006KT 10SM BKN021 05/02 A3010 RMK AO2 T00450018
KRRT 210654Z AUTO 12007KT 10SM CLR 03/01 A3011 RMK AO2
KRSL 210653Z AUTO 17009KT 10SM CLR 10/07 A3007 RMK AO2 SLP174 T01000067
KRSN 210655Z AUTO 00000KT 10SM CLR 12/12 A3008 RMK AO2 T01210121
KRSP 210554Z AUTO VRB05KT 10SM SCT055 OVC095 11/08 RMK AO2 SLPNO 60005 T01060078 10122 20094 $
KRST 210654Z AUTO 01004KT 10SM CLR 06/03 A3010 RMK AO2 SLP198 T00560033
KRSV 210655Z AUTO 00000KT 10SM CLR 09/07 A3001 RMK AO2 T00870072
KRSW 210653Z 13003KT 10SM CLR 23/21 A2992 RMK AO2 SLP128 T02280211
KRTN 210653Z AUTO 06003KT 10SM FEW041 07/03 A3021 RMK AO2 SLP167 T00720033 402220039
KRTS 210655Z AUTO 26012KT 10SM CLR 06/00 A3002 RMK AO2
KRUE 210653Z AUTO 00000KT 4SM BR CLR 12/11 A3006 RMK AO2 SLP174 T01220111
KRUG 210655Z AUTO 14010KT 10SM CLR 08/04 A2992 RMK AO2
KRUQ 210655Z AUTO 00000KT 10SM SCT120 11/10 A2995 RMK AO2 T01050102
KRUT 210655Z 12005KT 10SM OVC090 08/02 A2993 RMK AO1
KRVS 210653Z AUTO 00000KT 4SM BR FEW046 16/15 A3007 RMK AO2 SLP187 T01560150
KRWF 210653Z AUTO 09006KT 10SM CLR 07/03 A3009 RMK AO2 SLP191 T00720028
KRWI 210653Z AUTO 00000KT 10SM CLR 13/12 A2994 RMK AO2 SLP137 T01330122
KRWL 210653Z AUTO 24006KT 10SM CLR 09/01 A3009 RMK AO2 SLP113 T00940011 402061011
KRWV 210650Z AUTO 00000KT 10SM CLR 16/16 A3006 RMK AO2
KRXE 210653Z AUTO 00000KT 10SM CLR 07/02 A2986 RMK AO2 SLP089 T00670017 402170006
KRYN 210245Z 25004KT 10SM CLR 23/12 A2992
KRYT 210653Z AUTO 00000KT 8SM OVC060 10/09 A2986 RMK AO2 SLP113 T01000094 $
KRYV 210655Z AUTO 36005KT 10SM OVC048 09/06 A3004 RMK AO2 T00850058
KRYW 210655Z AUTO 11004KT 10SM CLR 19/15 A3006 RMK AO2 T01890147
KRYY 210247Z 00000KT 10SM SCT150 13/10 A3004
KRZL 210655Z AUTO 00000KT 7SM BKN050 08/08 A2999 RMK AO2
KRZN 210655Z AUTO 00000KT 10SM CLR 03/02 A3013 RMK AO2 T00290023
KRZR 210655Z AUTO 00000KT 8SM CLR 07/06 A3002 RMK
KRZT 210654Z AUTO 00000KT 10SM SCT020 BKN030 OVC070 10/09 A2990 RMK AO2
KSAA 210655Z AUTO 15009KT 10SM CLR 06/01 A3013 RMK AO2
KSAC 210653Z AUTO 00000KT 10SM CLR 13/09 A3004 RMK AO2 SLP173 T01330094
KSAD 210651Z AUTO 09008KT 10SM CLR 17/10 A3001 RMK AO2 SLP124 T01670100 402560122
KSAF 210653Z AUTO 14003KT 10SM BKN030 BKN037 10/07 A3022 RMK AO2 SLP161 T01000072 402280056
KSAN 210651Z 00000KT 10SM BKN016 21/16 A2992 RMK AO2 SLP133 T02060161
KSAR 210655Z AUTO 27004KT 10SM CLR 11/07 A3003 RMK AO2 T01120065
KSAT 210651Z 03003KT 10SM BKN230 20/15 A3003 RMK AO2 SLP152 T02000150
KSAV 210653Z AUTO 02004KT 10SM SCT033 SCT050 BKN075 19/17 A2996 RMK AO2 RAE45 SLP145 P0032 T01940172 TSNO
KSAW 210656Z AUTO 36011G17KT 2SM -RA OVC006 04/03 A3007 RMK AO2 T00410034
KSAZ 210653Z AUTO 00000KT 10SM CLR 02/01 A3012 RMK AO2
KSBA 210653Z AUTO 00000KT 10SM CLR 16/12 A2988 RMK AO2 SLP118 T01610122
KSBD 210349Z 25005KT 10SM SKC 19/14 A2992
KSBM 210653Z AUTO 35007KT 10SM OVC050 07/04 A3003 RMK AO2 SLP174 T00720044
KSBN 210654Z 35004KT 10SM SCT040 OVC049 09/07 A2998 RMK AO2 RAE03B26E43 SLP154 P0000 T00940072
KSBO 210655Z AUTO 2 1/2SM BR SCT002 SCT044 13/13 A2999 RMK AO2
KSBP 210656Z 32011G20KT 10SM CLR 18/11 A2998 RMK AO2 SLP149 T01780106
KSBS 210654Z AUTO 00000KT 10SM CLR 04/01 A3015 RMK AO1 T00390007
KSBY 210654Z AUTO 00000KT 10SM SCT065 13/09 A2992 RMK AO2 SLP134 T01280094
KSCD 210655Z AUTO 00000KT 5SM BR CLR 11/11 A3003 RMK AO2 T01050105
KSCF 210655Z AUTO 06015KT 10SM CLR 23/15 A2998 RMK A01
KSCH 210150Z 00000KT 10SM OVC090 10/02 A2994
KSCK 210655Z AUTO 24005KT 10SM CLR 12/09 A3005 RMK AO2 SLP175 T01220089
KSDA 210655Z AUTO 00000KT 10SM CLR 04/04 A3009 RMK AO2
KSDB 210648Z AUTO 34022G33KT 8SM FEW006 12/09 A3006 RMK AO2 PK WND 36033/0642 SLP132 T01220089
KSDF 210656Z 24005KT 10SM FEW070 12/08 A2996 RMK AO2 SLP144 T01220083
KSDL 210653Z 00000KT 10SM CLR 22/12 A2988 RMK AO2 SLP098 T02170117 403110178
KSDM 210653Z AUTO 00000KT 10SM OVC014 19/16 A2992 RMK AO2 SLP126 T01890156 TSNO $
KSDY 210655Z AUTO 00000KT 10SM CLR 06/03 A2980 RMK AO1
KSEA 210653Z 17006KT 10SM BKN065 13/11 A2981 RMK AO2 SLP100 T01280106
KSEE 210655Z AUTO 00000KT 10SM OVC015 19/16 A2994 RMK AO2
KSEG 210653Z AUTO 00000KT 10SM SCT055 BKN070 OVC080 11/07 A2987 RMK AO2 SLP115 T01110072
KSEM 210655Z AUTO 00000KT 10SM CLR 10/09 A3002 RMK AO2
KSEP 210655Z AUTO 00000KT 10SM CLR 17/13 A3009 RMK AO2 T01650132
KSET 210654Z AUTO 00000KT 10SM CLR 08/07 A3002 RMK AO1 SLP165 T00780072
KSEZ 210655Z AUTO 03008KT 10SM CLR 15/06 A3007 RMK AO2
KSFB 210653Z AUTO 00000KT 10SM SCT060 23/20 A2996 RMK AO2 SLP143 T02280200
KSFF 210653Z AUTO 00000KT 10SM OVC060 13/07 A2984 RMK AO2 SLP097 T01280067
KSFM 210655Z AUTO 00000KT 10SM SCT110 07/02 A3000 RMK AO1
KSFO 210656Z 00000KT 10SM FEW024 18/14 A3007 RMK AO2 SLP181 T01780139
KSFQ 210655Z AUTO 24003KT 10SM 13/12 A2994 RMK AO2 T01320120
KSFY 210655Z AUTO 00000KT 10SM CLR 06/04 A3005 RMK AO2 T00570041
KSFZ 210655Z 13003KT 10SM BKN045 07/03 A2997 RMK AO1
KSGF 210652Z 00000KT 5SM BR CLR 09/08 A3009 RMK AO2 SLP183 T00940083
KSGH 210656Z AUTO VRB06KT 4SM BR FEW031 OVC070 11/10 A2992 RMK AO2 T01050100 RAB30E48 P0000 SLP130
KSGJ 210658Z AUTO 26004KT 10SM CLR 21/19 A2996 RMK AO2 SLP145 T02060194
KSGR 210653Z AUTO 00000KT 10SM CLR 18/14 A3000 RMK AO2 SLP161 T01780144
KSGS 210650Z AUTO 00000KT 10SM CLR 05/03 A3011 RMK AO2 T00500033
KSGT 210655Z AUTO 26003KT 10SM CLR 14/12 A3005 RMK AO1
KSGU 210655Z AUTO 12009KT 10SM OVC120 21/03 A2992 RMK AO1
KSHD 210655Z AUTO 16004KT 10SM SCT110 11/08 A2992 RMK AO2 T01110076
KSHL 210655Z AUTO 09003KT 10SM CLR 02/01 A3007 RMK AO2
KSHM 210656Z AUTO 03004KT 10SM CLR 09/05 A3017 RMK AO2 SLP170 T00920051
KSHN 210653Z AUTO 00000KT 10SM BKN038 OVC050 12/11 A2978 RMK AO2 SLP083 T01170111 TSNO
KSHR 210653Z AUTO 20004KT 10SM CLR 05/M01 A2982 RMK AO2 SLP083 T00501011 402611011 TSNO
KSHV 210656Z 26003KT 10SM CLR 13/12 A3003 RMK AO2 SLP167 T01330122
KSIF 210655Z AUTO 00000KT 10SM SCT075 11/10 A2994 RMK AO2 T01080099
KSIY 210653Z AUTO 16003KT 10SM FEW038 OVC050 08/06 A3000 RMK AO2 SLP167 T00780061
KSJC 210653Z 00000KT 10SM FEW012 SCT024 13/10 A3008 RMK AO2 SLP184 T01280100
KSJN 210654Z AUTO 00000KT 10SM CLR 09/07 A3013 RMK AO2 SLP149 T00890072 402060044
KSJS 210655Z AUTO 24006KT 10SM -RA BKN055 OVC085 12/10 A2995 RMK AO2 T01180098
KSJT 210651Z AUTO 00000KT 10SM CLR 16/11 A3007 RMK AO2 SLP165 T01560106
KSJX 210656Z AUTO 03009KT 10SM SCT018 OVC026 08/05 A3001 RMK AO2 T00780045
KSKA 210658Z AUTO 19010KT 10SM OVC070 10/07 A2983 RMK AO2 RAE0623DZB0556E0558B0623E0626 SLP099 P0000 T00990073
KSKF 210658Z AUTO 05003KT 10SM CLR 20/14 A3001 RMK AO2 SLP156 T01970144 $
KSKX 210655Z AUTO 28003KT 10SM CLR 09/03 A3026 RMK AO1
KSLB 210655Z AUTO 07004KT 10SM CLR 08/06 A3009 RMK AO2
KSLC 210653Z 14009KT 10SM FEW110 SCT120 18/04 A2990 RMK AO2 SLP077 T01780044 402610089
KSLE 210656Z AUTO 19013KT 10SM SCT040 BKN047 BKN060 13/11 A2988 RMK AO2 SLP116 T01330106
KSLG 210655Z AUTO 00000KT 1/4SM OVC003 10/07 A3010 RMK AO1
KSLH 210656Z AUTO 02008KT 10SM OVC023 07/03 A2998 RMK AO2 T00700036
KSLI 210558Z AUTO 11002KT 10SM CLR 17/16 A2991 RMK AO2 SLP131 T01730164 10224 20172 50004
KSLK 210651Z AUTO 03004KT 10SM OVC036 05/03 A2987 RMK AO2 SLP123 T00500028 $
KSLN 210653Z AUTO 00000KT 10SM CLR 09/08 A3008 RMK AO2 SLP181 T00890078
KSLO 210655Z AUTO 00000KT 10SM CLR 11/08 A3001 RMK AO2 T01070084
KSLR 210655Z AUTO 00000KT 10SM 17/14 A3007 RMK AO2 T01700140
KSME 210655Z AUTO 00000KT 10SM CLR 08/08 A2998 RMK AO2
KSMF 210653Z 14005KT 10SM CLR 14/07 A3003 RMK AO2 SLP168 T01390072
KSMN 210655Z AUTO 19009KT 10SM BKN100 BKN120 16/03 A2976 RMK AO1
KSMO 210651Z AUTO 05003KT 10SM CLR 18/16 A2990 RMK AO2 SLP123 T01780156
KSMQ 210653Z AUTO 32004KT 10SM BKN090 08/06 A2991 RMK AO2 SLP128 T00780056
KSMS 210655Z AUTO 00000KT 10SM BKN055 11/11 A2997 RMK AO2
KSMX 210651Z AUTO 00000KT 8SM CLR 15/13 A2998 RMK AO2 SLP153 T01500128
KSNA 210653Z AUTO 00000KT 10SM CLR 20/16 A2991 RMK AO2 SLP126 T02000156 TSNO
KSNC 210635Z AUTO 00000KT 10SM CLR 07/06 A2996 RMK AO2
KSNH 210655Z AUTO 00000KT 10SM CLR 08/08 A3003 RMK
KSNK 210655Z AUTO 16007KT 10SM CLR 16/12 A3009 RMK AO2 T01580115
KSNL 210655Z AUTO 00000KT 18/18 A3007 RMK AO2 PWINO
KSNS 210653Z AUTO 00000KT 10SM FEW009 14/12 A3007 RMK AO2 SLP190 T01440117
KSNT 210651Z AUTO 14003KT 07/03 A2986 RMK AO1 SLP034 T00670028 402061044
KSNY 210653Z AUTO 20009KT 10SM CLR 11/05 A3005 RMK AO2 SLP140 T01110050 402500017
KSOA 210655Z AUTO 00000KT 10SM CLR 18/13 A3011 RMK AO2
KSOP 210655Z AUTO 24004KT 10SM OVC100 13/09 A2995 RMK AO1
KSOW 210655Z AUTO 18006KT 10SM CLR 07/02 A3018 RMK AO2
KSPA 210715Z AUTO 00000KT 10SM CLR 12/ A2997 RMK AO2
KSPB 210653Z AUTO 20004KT 10SM BKN055 OVC075 11/10 A2985 RMK AO2 SLP109 T01110100
KSPD 210656Z AUTO 23005KT 07/07 A3012 RMK AO1 SLP160 T00720072 402220044
KSPF 210655Z AUTO 00000KT 10SM CLR 14/03 A2987 RMK AO2
KSPG 210653Z AUTO 36005KT 10SM CLR 24/18 A2992 RMK AO2 SLP133 T02440178
KSPI 210652Z AUTO 01003KT 10SM CLR 07/06 A3002 RMK AO2 SLP165 T00720061
KSPL 210655Z AUTO 07010KT 4SM CLR 26/22 A2992 RMK AO1
KSPR 210655Z AUTO 07014KT 9SM CLR 25/17 A2996 RMK A01
KSPS 210652Z AUTO 17008KT 10SM CLR 17/14 A3004 RMK AO2 SLP162 T01720139 TSNO
KSPW 210653Z AUTO 00000KT 10SM CLR 03/01 A3009 RMK AO2 SLP191 T00280006 TSNO
KSQE 210655Z AUTO 07015G21KT 10SM BKN025 BKN036 25/20 A2996 RMK A01
KSQI 210655Z AUTO 29004KT 10SM CLR 06/03 A3005 RMK AO1
KSQL 210655Z AUTO 00000KT 10SM CLR 14/10 A3008 RMK AO2
KSRB 210655Z AUTO 00000KT 10SM FEW033 09/09 A3001 RMK
KSRC 210656Z AUTO 00000KT 1SM BR CLR 12/11 A3005 RMK AO2 VIS 1/4V4 SLP182 T01170111 TSNO
KSRQ 210653Z 03003KT 10SM CLR 22/18 A2992 RMK AO2 SLP129 T02220178
KSRR 210635Z AUTO 13003KT 10SM BKN030 BKN035 OVC060 08/08 A3024 RMK AO2
KSSC 210658Z AUTO 00000KT 10SM FEW055 15/12 A2995 RMK AO2 SLP142 T01480122 $
KSSF 210653Z AUTO 03004KT 10SM CLR 19/15 A3001 RMK AO2 SLP153 T01940150
KSSI 210653Z AUTO 24006KT 10SM CLR 18/18 A2996 RMK AO2 SLP143 T01830183
KSTC 210653Z AUTO 05003KT 10SM CLR 03/01 A3012 RMK AO2 SLP212 T00330011
KSTE 210655Z AUTO 33004KT 10SM SCT038 06/03 A3008 RMK AO2 T00570028
KSTF 210655Z AUTO 00000KT 10SM CLR 08/08 A3004 RMK AO2
KSTJ 210701Z AUTO 00000KT 3SM R35/3000VP6000FT BR CLR 04/03 A3009 RMK AO2 T00390028
KSTK 210655Z AUTO 17006KT 10SM CLR 12/07 A3003 RMK AO2
KSTL 210651Z 27003KT 10SM CLR 11/07 A3003 RMK AO2 SLP164 T01110067
KSTP 210653Z AUTO 00000KT 10SM CLR 04/03 A3013 RMK AO2 SLP203 T00390028
KSTS 210653Z AUTO 00000KT 10SM CLR 12/10 A3005 RMK AO2 SLP169 T01170100
KSUA 210655Z AUTO 00000KT 10SM CLR 23/18 A2994 RMK AO2
KSUE 210655Z AUTO 36013KT 10SM OVC017 07/03 A3004 RMK AO1
KSUN 210655Z AUTO 25004KT 10SM -RA SCT060 BKN085 OVC110 14/05 A2985 RMK AO2
KSUS 210654Z 00000KT 10SM CLR 08/07 A3003 RMK AO2 SLP167 T00780067
KSUT 210655Z AUTO 00000KT 10SM CLR 16/14 A2995 RMK AO2 T01560141
KSUU 210658Z AUTO 25006KT 10SM CLR 13/12 A3004 RMK AO2 SLP179 T01320117 $
KSUW 210655Z AUTO 06009G14KT 10SM SCT015 OVC035 08/06 A3015 RMK AO2 T00800055
KSUX 210652Z 00000KT 10SM CLR 03/02 A3007 RMK AO2 SLP185 T00330017
KSVC 210655Z AUTO 35004KT 10SM SCT047 11/10 A3015 RMK AO2
KSVH 210655Z AUTO 00000KT 7SM CLR 10/10 A2995 RMK AO2 T00970095
KSVN 210658Z AUTO 32007KT 9SM -RA FEW028 SCT033 BKN042 19/19 A2994 RMK AO2 RAB0616DZB0638E0640 SLP141 P0009 T01940189
KSWF 210645Z 00000KT 10SM BKN050 11/06 A2993
KSWO 210653Z AUTO 10003KT 8SM BKN050 OVC060 17/15 A3006 RMK AO2 SLP169 T01720150
KSWW 210655Z AUTO 16007KT 10SM CLR 16/12 A3012 RMK AO2 T01610119
KSXS 210656Z AUTO 33002KT 10SM CLR 12/11 A3003 RMK AO2 SLP169 T01170112
KSXT 210656Z AUTO 19012G17KT 1/4SM FG VV002 04/04 A2996 RMK AO2 SLP142 T00440044
KSYF 210655Z AUTO 21008KT 10SM CLR 09/03 A3009 RMK AO2 T00870030
KSYI 210655Z AUTO 00000KT 10SM CLR 08/08 A3003 RMK
KSYM 210650Z AUTO 23007KT 10SM OVC055 11/10 A2995 RMK AO2
KSYN 210654Z AUTO 00000KT 10SM CLR 01/00 A3010 RMK AO2 T00120000
KSYR 210654Z 00000KT 9SM -DZ SCT030 OVC055 10/08 A2986 RMK RAE08DZB08 SLP109 T01020084
KSZL 210558Z 21003KT 10SM CLR 08/07 A3007 RMK AO2A SLP184 T00820069 10167 20079 50007 $
KSZT 210655Z AUTO 20005KT 10SM SCT029 BKN065 OVC075 13/09 A2978 RMK AO2
KT20 210655Z AUTO 07003KT 10SM CLR 19/16 A3001 RMK AO2 T01870160
KT35 210655Z AUTO 00000KT 10SM CLR 17/16 A3004 RMK AO2 T01700159
KT65 210655Z AUTO 34003KT 7SM CLR 22/20 A2993 RMK AO2 T02150197
KT82 210655Z AUTO 00000KT 10SM CLR 14/13 A3007 RMK AO2 T01400126
KTAD 210654Z AUTO 24012KT 10SM CLR 13/04 A3015 RMK AO2 SLP146 T01280044 402280056
KTAN 210652Z AUTO 00000KT 9SM -RA SCT032 BKN047 BKN065 07/06 A2999 RMK AO2 RAB0557E13B51 SLP155 P0000 T00720061
KTAZ 210655Z AUTO 00000KT 10SM CLR 07/06 A3002 RMK AO2
KTBN 210658Z AUTO 22001KT 10SM CLR 07/07 A3008 RMK AO2 SLP186 T00690069
KTBR 210655Z AUTO 00000KT 10SM SCT039 14/14 A2998 RMK AO2 T01370137
KTBX 210655Z AUTO 13006KT 10SM CLR 12/M03 A3012 RMK AO2
KTCC 210653Z AUTO 24003KT 10SM CLR 12/08 A3012 RMK AO2 SLP155 T01220083 402670094
KTCL 210653Z AUTO 00000KT 10SM CLR 11/09 A3004 RMK AO2 SLP169 T01060094
KTCM 210658Z AUTO 12002KT 10SM FEW065 11/11 A2981 RMK AO2 SLP098 T01110109 $
KTCS 210653Z AUTO 32006KT 10SM SCT047 13/12 A3012 RMK AO2 SLP142 T01330122 402170100 TSNO
KTDF 210655Z AUTO 00000KT 10SM SCT120 11/11 A2996 RMK AO2
KTDR 210656Z AUTO M 10SM CLR 17/15 A2997 RMK AO2 SLP152 T01680149 $
KTDZ 210653Z AUTO 32008KT 10SM OVC020 10/07 A2990 RMK AO2 SLP124 T01000067 TSNO
KTEB 210651Z 00000KT 10SM CLR 12/06 A2992 RMK AO2 SLP130 T01170061
KTEW 210652Z AUTO 33008KT 10SM OVC015 08/06 A2991 RMK AO2 T00830058
KTEX 210655Z AUTO 00000KT 10SM SCT060 SCT085 BKN090 08/01 A3030 RMK AO2 T00820011 401560035
KTFP 210655Z AUTO 06005KT 10SM CLR 23/21 A2996 RMK AO2 T02290211
KTHA 210655Z AUTO 00000KT 7SM CLR 07/07 A3003 RMK
KTHV 210653Z AUTO 00000KT 9SM BKN060 OVC070 11/11 A2988 RMK AO2 SLP121 T01110106
KTIF 210655Z AUTO 20006KT 10SM CLR 13/05 A3003 RMK AO2 T01290049
KTIK 210658Z AUTO 15005KT 10SM CLR 18/16 A3005 RMK AO2 SLP173 T01800156 $
KTIP 210650Z AUTO 30003KT 5SM BR BKN055 08/06 A3001 RMK AO2 T00800063
KTIW 210653Z AUTO 17006KT 10SM OVC065 13/10 A2981 RMK AO2 SLP092 T01280100
KTKC 210653Z AUTO 00000KT 10SM CLR 06/03 A3008 RMK AO2 T00570025
KTKI 210653Z AUTO 00000KT 10SM CLR 17/15 A3005 RMK AO2 SLP174 T01670150
KTKV 210655Z AUTO 02003KT 10SM OVC020 05/01 A3011 RMK AO2 T00460010
KTLH 210653Z AUTO 00000KT 10SM CLR 17/14 A2997 RMK AO2 SLP149 T01670139 $
KTMA 210650Z AUTO 00000KT 10SM CLR 14/14 A2999 RMK AO2 T01410138 TSNO
KTMB 210653Z AUTO 00000KT 10SM OVC090 24/22 A2993 RMK AO2 LTG DSNT S SLP134 T02440222
KTME 210655Z AUTO 07003KT 10SM CLR 15/ A3002 RMK AO2
KTMK 210655Z AUTO 16011KT 10SM -RA SCT029 BKN037 OVC050 13/11 A2985 RMK AO2
KTNB 210655Z AUTO 27004KT 10SM SCT035 09/08 A2999 RMK AO2 T00860077
KTNU 210655Z AUTO 03005KT 10SM CLR 10/05 A3006 RMK AO2
KTOA 210247Z 27007KT 10SM FEW015 20/17 A2990 RMK LAST
KTOB 210654Z AUTO 00000KT 10SM CLR 04/02 A3010 RMK AO2
KTOC 210655Z AUTO 00000KT 10SM CLR 10/09 A2999 RMK AO2 T01000093
KTOI 210653Z AUTO 00000KT 10SM CLR 09/09 A3002 RMK AO2 SLP162 T00940089
KTOL 210652Z 35009KT 10SM SCT043 OVC070 09/07 A2990 RMK AO2 SLP125 T00940067 $
KTOP 210653Z AUTO 00000KT 1/4SM FG VV002 07/07 A3008 RMK AO2 SLP185 T00670067 $
KTOR 210653Z AUTO 13009KT 10SM CLR 13/03 A2997 RMK AO2 SLP110 T01280028 402780006
KTPA 210653Z 01004KT 10SM BKN150 OVC240 22/17 A2995 RMK AO2 SLP141 T02220167
KTPH 210656Z AUTO 09006KT 10SM CLR 10/M02 A2996 RMK AO2 SLP091 T01001017
KTPL 210655Z AUTO 00000KT 10SM CLR 17/13 A3004 RMK AO1
KTQE 210654Z AUTO 28003KT 10SM CLR 04/03 A3008 RMK AO2 SLP181 T00440028
KTQH 210655Z AUTO 00000KT 7SM BKN050 12/12 A3009 RMK AO2
KTRI 210653Z 00000KT 6SM BR CLR 08/08 A2999 RMK AO2 SLP141 T00830078
KTRK 210655Z AUTO 26004KT 10SM BKN040 02/00 A3007 RMK AO2
KTRL 210653Z AUTO 00000KT 10SM CLR 16/13 A3005 RMK AO2 SLP172 T01560133
KTRM 210652Z AUTO 32009KT 10SM CLR 26/13 A2976 RMK AO2 SLP080 T02610128 TSNO
KTTA 210655Z AUTO 00000KT 10SM -DZ SCT090 12/12 A2995 RMK AO2 T01190119
KTTD 210653Z AUTO 13004KT 10SM BKN055 OVC070 12/11 A2987 RMK AO2 SLP114 T01170106
KTTF 210656Z AUTO 33004KT 10SM BKN024 OVC070 09/07 A2988 RMK AO2
KTTN 210653Z AUTO 00000KT 10SM OVC075 11/07 A2991 RMK AO2 SLP124 T01060067
KTTS 210658Z AUTO 19002KT 10SM SCT200 SCT220 21/20 A2994 RMK AO2 SLP142 T02060196 VISNO RWY33 CHINO RWY33 $
KTUL 210653Z 00000KT 9SM SCT055 16/15 A3006 RMK AO2 SLP173 T01610150
KTUP 210653Z AUTO 00000KT 10SM CLR 11/09 A3003 RMK AO2 SLP166 T01110094 PWINO $
KTUS 210653Z 12010KT 10SM CLR 21/10 A2996 RMK AO2 SLP103 T02110100 402940161
KTVC 210653Z 35006KT 10SM BKN010 BKN016 OVC023 09/07 A2995 RMK AO2 RAB22E49 SLP145 P0001 T00890067
KTVF 210655Z AUTO 12008KT 10SM CLR 03/02 A3009 RMK AO1
KTVI 210655Z AUTO 00000KT 5SM BR CLR 16/16 A2999 RMK AO2
KTVK 210655Z AUTO 28003KT 10SM CLR 04/04 A3007 RMK AO2
KTVL 210653Z AUTO 20009KT 8SM -RA FEW019 BKN026 OVC033 05/02 A3003 RMK AO2 SLP131 P0000 T00500017
KTVR 210653Z AUTO 00000KT 10SM CLR 11/10 A3004 RMK AO2 SLP180 T01060100 $
KTWF 210653Z AUTO 18010G20KT 10SM BKN120 20/01 A2975 RMK AO2 SLP012 T02000011 402830056
KTWM 210655Z AUTO 08009KT 10SM OVC022 08/M02 A3015 RMK AO2
KTXK 210653Z AUTO 00000KT 10SM CLR 15/13 A3005 RMK AO2 SLP170 T01500128
KTYQ 210655Z AUTO 32005KT 10SM BKN065 09/07 A2998 RMK AO2 T00900066
KTYR 210653Z AUTO 20003KT 10SM CLR 15/12 A3005 RMK AO2 SLP168 T01500122
KTYS 210653Z 21006KT 10SM BKN036 12/09 A3000 RMK AO2 SLP152 T01170094
KTZR 210655Z AUTO 29004KT 5SM BR OVC065 10/09 A2990 RMK AO2 T00950093
KU16 210458Z AUTO 13012KT 10SM CLR 18/02 A2984 RMK AO2 SLP734 T01780022 $
KU68 210655Z AUTO 05004KT 10SM CLR 07/M05 A2985 RMK AO2 PWINO
KUAO 210653Z AUTO 18007KT 10SM FEW042 SCT055 BKN070 12/10 A2988 RMK AO2 SLP119 T01220100
KUBE 210655Z AUTO 06003KT 10SM OVC028 06/02 A3011 RMK AO2
KUCP 210656Z AUTO 00000KT 3SM BR 09/09 A2985 RMK AO2 TSNO T00940094 RAE26 P0000 SLP123 $
KUCY 210655Z AUTO 03003KT 10SM CLR 09/09 A3001 RMK
KUDG 210655Z AUTO 00000KT 10SM BKN060 13/10 A2997 RMK AO1
KUES 210655Z AUTO 35005KT 10SM OVC049 07/03 A3004 RMK AO2
KUGN 210655Z AUTO 35005KT 10SM SCT031 OVC040 09/04 A3001 RMK AO2 SLP162 T00940044
KUIL 210653Z AUTO 14004KT 6SM BR BKN023 OVC032 12/12 A2973 RMK AO2 RAE38 SLP068 P0008 T01220117
KUIN 210654Z AUTO 31006KT 10SM CLR 08/06 A3004 RMK AO2 SLP169 T00830056
KUKF 210655Z AUTO 00000KT 10SM CLR 08/08 A3000 RMK AO2
KUKI 210656Z AUTO 00000KT 10SM CLR 11/08 A3006 RMK AO2 SLP174 T01060083
KUKT 210655Z AUTO 00000KT 10SM FEW039 SCT049 OVC065 10/08 A2992 RMK AO1
KULM 210654Z AUTO 08006KT 10SM CLR 08/04 A3009 RMK AO2
KUNI 210655Z AUTO 00000KT 10SM SCT026 BKN035 BKN041 10/08 A2990 RMK AO2 T00950083
KUNO 210653Z AUTO 00000KT 10SM CLR 11/08 A3009 RMK AO2 SLP183 T01060078
KUNU 210655Z AUTO 36005KT 10SM OVC046 08/04 A3006 RMK AO2 T00780037
KUNV 210655Z AUTO 00000KT 10SM SCT030 OVC040 09/06 A2985 RMK AO2 T00900057
KUOX 210655Z AUTO 00000KT 10SM CLR 09/08 A3005 RMK AO2 PWINO PNO
KUSE 210655Z AUTO 36007KT 10SM OVC016 10/08 A2991 RMK AO2
KUTA 210655Z AUTO 00000KT 5SM BR CLR 12/11 A3004 RMK AO2
KUTS 210653Z AUTO 00000KT 10SM CLR 14/13 A3003 RMK AO2 SLP164 T01440133
KUUU 210653Z AUTO 19006KT 10SM FEW031 16/10 A2998 RMK AO2 RAB02E17 SLP150 P0001 T01560100
KUVA 210655Z AUTO 06003KT 10SM CLR 19/15 A3004 RMK AO2 T01850145
KUXL 210655Z AUTO 03003KT 10SM CLR 15/12 A3002 RMK AO2 T01490123
KUYF 210655Z AUTO 31008KT 7SM SCT028 OVC060 10/08 A2989 RMK AO2
KUZA 210654Z AUTO 21005KT 10SM FEW110 11/10 A2997 RMK AO2 SLP142 T01060100
KVAD 210658Z AUTO 33003KT 10SM CLR 16/14 A2997 RMK AO2 SLP150 T01570141 $
KVAF 210655Z AUTO 02019G24KT 10SM SCT023 SCT028 SCT032 26/21 A2994 RMK A01
KVAY 210654Z AUTO 00000KT 10SM CLR 09/07 A2992 RMK AO2 SLP130 T00940072
KVBG 210655Z AUTO 34005KT 9SM CLR 15/14 A2999 RMK AO2 SLP144 T01500139 402280150 TSNO $
KVBT 210655Z AUTO 00000KT M1/4SM OVC001 10/08 A3009 RMK AO1
KVCB 210653Z AUTO 21004KT 10SM CLR 14/08 A3006 RMK AO2 SLP178 T01390078 TSNO
KVCT 210651Z AUTO 03004KT 4SM BR CLR 18/17 A3000 RMK AO2 SLP156 T01780167
KVCV 210655Z AUTO 00000KT 10SM CLR 16/07 A2998 RMK AO2
KVDF 210655Z AUTO 00000KT 10SM CLR 21/18 A2995 RMK AO2
KVDI 210655Z AUTO 00000KT 10SM CLR 15/15 A2999 RMK AO2
KVEL 210653Z AUTO 00000KT 9SM OVC080 10/03 A3004 RMK AO2 SLP134 T01000033 402060022
KVER 210655Z AUTO 00000KT 10SM CLR 08/08 A3007 RMK AO2 T00790078
KVES 210655Z AUTO 32005KT 10SM BKN060 09/08 A2992 RMK AO2
KVGT 210653Z 20005KT 10SM CLR 24/04 A2983 RMK AO2 SLP099 T02390039
KVIH 210653Z AUTO 21004KT 10SM CLR 08/05 A3006 RMK AO2 SLP173 T00780050
KVIS 210655Z 32009KT 10SM CLR 17/09 A3000 RMK AO1
KVJI 210655Z AUTO 00000KT 10SM CLR 11/10 A2999 RMK AO2 T01070102
KVLD 210653Z AUTO 00000KT 10SM CLR 15/13 A2998 RMK AO2 SLP157 T01500128
KVLL 210654Z AUTO 33007KT 10SM OVC060 10/07 A2990 RMK AO2 T00970070
KVNC 210635Z AUTO 22/19 A2994 RMK AO2 TSNO
KVNY 210651Z 11004KT 10SM CLR 18/15 A2991 RMK AO2 SLP121 T01830150
KVOA 210655Z AUTO 04008KT 10SM CLR 24/16 A2998 RMK A01
KVOK 210658Z AUTO 00000KT 10SM BKN043 06/06 A3008 RMK AO2 SLP192 T00590058
KVPC 210653Z AUTO 00000KT 7SM CLR 09/08 A3002 RMK AO2 SLP159 T00890078
KVPS 210655Z 35002KT 10SM CLR 15/11 A3000 RMK AO2A SLP165 T01450110 $
KVPZ 210656Z AUTO 35005KT 10SM OVC050 11/07 A2999 RMK AO2 RAE04 SLP156 P0000 T01060067 TSNO
KVQQ 210655Z AUTO 00000KT 5SM BR CLR 17/16 A2997 RMK AO2
KVQT 210655Z AUTO 08012KT 10SM CLR 25/19 A2997 RMK A01
KVRB 210653Z AUTO 00000KT 10SM CLR 20/19 A2994 RMK AO2 SLP137 T02000189
KVSF 210654Z AUTO 00000KT 10SM BKN060 OVC085 07/06 A2997 RMK AO2 RAB0557E46 SLP153 P0000 T00670056
KVSH 210655Z AUTO 05006KT 10SM CLR 20/10 A3001 RMK AO1
KVTA 210654Z AUTO 00000KT 3SM BR OVC024 09/08 A2988 RMK AO2 SLP118 T00940083
KVTN 210652Z AUTO 19010KT 10SM CLR 13/04 A2997 RMK AO2 SLP139 T01280039
KVTP 210649Z AUTO 23006KT 10SM CLR 04/00 A3034 RMK AO2
KVUJ 210655Z AUTO 00000KT 10SM BKN100 OVC120 12/11 A2999 RMK AO2 T01160112
KVUO 210653Z AUTO 12004KT 10SM BKN050 OVC065 13/11 A2987 RMK AO2 SLP114 T01330106
KVVG 210655Z AUTO 00000KT 10SM 22/21 A2987 RMK A01
KVVV 210653Z AUTO 11006KT 10SM CLR 08/03 A3007 RMK AO2
KVWU 210655Z AUTO 00000KT 10SM CLR M02/M02 A3013 RMK AO2
KVYS 210655Z AUTO 32005KT 10SM OVC050 07/05 A3004 RMK AO2 T00700050
KW13 210655Z AUTO 00000KT 10SM SCT085 SCT120 09/08 A2990 RMK AO1 T00930076
KW22 210655Z AUTO 21005G11KT 10SM 11/08 A2990 RMK AO2
KW29 210647Z AUTO 16003KT 10SM 15/09 A2990 RMK AO1
KW31 210655Z AUTO 00000KT 10SM OVC100 12/10 A2992 RMK AO1 T01200099
KW43 210655Z AUTO 20009KT 10SM CLR 20/01 A2988 RMK AO2
KW63 210655Z AUTO 20003KT 10SM BKN100 12/10 A2993 RMK AO1
KW75 210655Z AUTO 21004KT 10SM SCT080 OVC095 15/11 A2992 RMK AO1 T01450113
KW78 210655Z AUTO 00000KT 10SM SCT080 SCT120 11/10 A2992 RMK AO1 T01100095
KW81 210655Z AUTO 00000KT 10SM BKN095 13/09 A2992 RMK AO1 T01300085
KW96 210655Z AUTO 22003KT 10SM OVC100 13/10 A2992 RMK AO1 T01270098
KW99 210655Z AUTO 00000KT 7SM SCT003 BKN046 OVC075 A2990 RMK AO2
KWAL 210654Z AUTO 23006KT 10SM FEW120 16/13 A2993 RMK AO2 SLP133 T01610133
KWDG 210655Z AUTO 00000KT 7SM SCT060 16/15 A3005 RMK AO2
KWDR 210655Z AUTO 31003KT 10SM CLR 13/12 A3003 RMK AO2 T01280118
KWHP 210247Z 13004KT 10SM SCT250 20/15 A2993 RMK LAST
KWJF 210656Z 28015KT 10SM CLR 17/09 A2996 RMK AO2 SLP131 T01720089
KWLD 210654Z AUTO 10003KT 10SM CLR 13/12 A3008 RMK AO2 SLP179 T01280117
KWMC 210656Z AUTO 25020G33KT 8SM BKN090 OVC110 11/04 A2992 RMK AO2 PK WND 25034/0645 RAE12B36E47 SLP098 P0000 T01110039
KWRB 210658Z AUTO 00000KT 10SM CLR 12/11 A3000 RMK AO2 SLP160 T01170109
KWRI 210658Z AUTO 00000KT 10SM OVC120 09/07 A2990 RMK AO2 SLP128 T00880073
KWRL 210653Z AUTO 16003KT 10SM CLR 06/M02 A2986 RMK AO2 SLP094 T00561022 402560000
KWST 210653Z AUTO 22007KT 10SM BKN034 16/11 A2996 RMK AO2 SLP146 T01560106
KWVI 210653Z AUTO 31006KT 10SM CLR 12/09 A3008 RMK AO2 SLP184 T01220094
KWVL 210655Z 00000KT 10SM FEW100 SCT120 05/01 A2998 RMK AO1
KWWD 210655Z AUTO 00000KT 10SM CLR 11/07 A2994 RMK AO1
KWWR 210655Z AUTO 11004KT 10SM SCT050 17/15 A3009 RMK AO2
KWYS 210655Z AUTO 00000KT 10SM CLR M02/M03 A2997 RMK AO2
KXBP 210655Z AUTO 00000KT 10SM CLR 19/14 A3007 RMK AO2 T01920141
KXFL 210655Z AUTO 00000KT 20/19 A2996 RMK AO2 T01970187 PWINO
KXIH 210655Z AUTO 09013KT 10SM CLR 24/16 A2998 RMK A01
KXLL 210655Z AUTO 00000KT 10SM -RA SCT041 SCT050 BKN065 11/09 A2992 RMK AO2 P0001
KXMR 210558Z AUTO 26002KT 10SM CLR 21/19 A2995 RMK AO2 SLP145 T02120192 10225 20196 58009
KXNA 210653Z AUTO 00000KT 1/4SM R17/0800V1400FT FG VV001 09/09 A3008 RMK AO2 SLP181 T00940094
KXPY 210655Z AUTO 05004KT 10SM CLR 21/17 A3003 RMK A01
KXSA 210655Z AUTO 18003KT 10SM OVC090 13/07 A2992 RMK AO2 T01330072
KXVG 210656Z AUTO 00000KT 10SM CLR M02/M02 A3012 RMK AO2
KY19 210655Z AUTO 09010G16KT 10SM CLR 12/01 A2990 RMK AO2
KY23 210655Z AUTO 02003KT 10SM BKN031 08/04 A3011 RMK AO2 T00770036
KY49 210655Z AUTO 12003KT 10SM CLR 05/03 A3012 RMK AO2 T00470026
KY50 210656Z AUTO 36004KT 10SM OVC001 09/04 A3008 RMK AO2 TSNO T00880044 SLP184
KY51 210655Z AUTO 04003KT 10SM CLR 05/03 A3008 RMK AO1 T00490030
KY63 210655Z AUTO 12009KT 10SM CLR 06/04 A3008 RMK AO2 T00620037
KY70 210654Z AUTO 33004KT 10SM OVC017 09/06 A2993 RMK AO2 T00870055
KYIP 210653Z AUTO 34007KT 10SM BKN021 OVC028 11/06 A2990 RMK AO2 SLP123 T01110061 TSNO
KYKM 210653Z AUTO 29005KT 7SM CLR 08/07 A2983 RMK AO2 SLP103 T00780067
KYKN 210655Z AUTO 09003KT 10SM CLR 06/03 A3006 RMK AO1
KYNG 210651Z 23007KT 1 1/2SM -RA BR OVC003 10/09 A2982 RMK AO2 SLP101 P0003 T01000094
KZPH 210655Z AUTO 00000KT 18/18 A2996 RMK AO2 PWINO
KZZV 210653Z AUTO 24004KT 9SM CLR 08/07 A2988 RMK AO2 SLP117 T00830072